<?xml version='1.0' encoding='UTF-8'?>
<gpx version="1.1" creator="https://www.komoot.de" xmlns="http://www.topografix.com/GPX/1/1" xmlns:xsi="http://www.w3.org/2001/XMLSchema-instance" xsi:schemaLocation="http://www.topografix.com/GPX/1/1 http://www.topografix.com/GPX/1/1/gpx.xsd">
  <metadata>
    <name>25 GWR GUSSAGO BRIONE SAREZZO</name>
    <author>
      <link href="https://www.komoot.de">
        <text>komoot</text>
        <type>text/html</type>
      </link>
    </author>
  </metadata>
  <trk>
    <name>25 GWR GUSSAGO BRIONE SAREZZO</name>
    <trkseg>
      <trkpt lat="45.580422" lon="10.228331">
        <ele>179.862412</ele>
        <time>2021-01-21T13:53:56.706Z</time>
      </trkpt>
      <trkpt lat="45.580548" lon="10.228360">
        <ele>179.862412</ele>
        <time>2021-01-21T13:53:58.667Z</time>
      </trkpt>
      <trkpt lat="45.580544" lon="10.228403">
        <ele>179.862412</ele>
        <time>2021-01-21T13:53:59.158Z</time>
      </trkpt>
      <trkpt lat="45.580506" lon="10.228858">
        <ele>179.862412</ele>
        <time>2021-01-21T13:54:04.657Z</time>
      </trkpt>
      <trkpt lat="45.580492" lon="10.228924">
        <ele>179.862412</ele>
        <time>2021-01-21T13:54:05.521Z</time>
      </trkpt>
      <trkpt lat="45.580465" lon="10.228986">
        <ele>179.862412</ele>
        <time>2021-01-21T13:54:06.437Z</time>
      </trkpt>
      <trkpt lat="45.580308" lon="10.229043">
        <ele>179.862412</ele>
        <time>2021-01-21T13:54:09.216Z</time>
      </trkpt>
      <trkpt lat="45.580220" lon="10.229109">
        <ele>179.862412</ele>
        <time>2021-01-21T13:54:10.984Z</time>
      </trkpt>
      <trkpt lat="45.580190" lon="10.229191">
        <ele>179.865177</ele>
        <time>2021-01-21T13:54:12.188Z</time>
      </trkpt>
      <trkpt lat="45.580136" lon="10.229266">
        <ele>179.907721</ele>
        <time>2021-01-21T13:54:13.690Z</time>
      </trkpt>
      <trkpt lat="45.580081" lon="10.229443">
        <ele>179.984292</ele>
        <time>2021-01-21T13:54:16.117Z</time>
      </trkpt>
      <trkpt lat="45.580061" lon="10.229475">
        <ele>180.001255</ele>
        <time>2021-01-21T13:54:16.634Z</time>
      </trkpt>
      <trkpt lat="45.580044" lon="10.229527">
        <ele>180.023947</ele>
        <time>2021-01-21T13:54:17.372Z</time>
      </trkpt>
      <trkpt lat="45.580050" lon="10.229643">
        <ele>180.069938</ele>
        <time>2021-01-21T13:54:18.847Z</time>
      </trkpt>
      <trkpt lat="45.580079" lon="10.229699">
        <ele>180.097482</ele>
        <time>2021-01-21T13:54:19.794Z</time>
      </trkpt>
      <trkpt lat="45.580107" lon="10.229727">
        <ele>180.116789</ele>
        <time>2021-01-21T13:54:20.443Z</time>
      </trkpt>
      <trkpt lat="45.580139" lon="10.229742">
        <ele>180.135814</ele>
        <time>2021-01-21T13:54:21.030Z</time>
      </trkpt>
      <trkpt lat="45.580175" lon="10.229743">
        <ele>180.156155</ele>
        <time>2021-01-21T13:54:21.643Z</time>
      </trkpt>
      <trkpt lat="45.580212" lon="10.229727">
        <ele>180.177993</ele>
        <time>2021-01-21T13:54:22.256Z</time>
      </trkpt>
      <trkpt lat="45.580254" lon="10.229680">
        <ele>180.208131</ele>
        <time>2021-01-21T13:54:23.076Z</time>
      </trkpt>
      <trkpt lat="45.580274" lon="10.229627">
        <ele>180.231938</ele>
        <time>2021-01-21T13:54:23.795Z</time>
      </trkpt>
      <trkpt lat="45.580280" lon="10.229578">
        <ele>180.251607</ele>
        <time>2021-01-21T13:54:24.364Z</time>
      </trkpt>
      <trkpt lat="45.580331" lon="10.229556">
        <ele>180.281702</ele>
        <time>2021-01-21T13:54:25.332Z</time>
      </trkpt>
      <trkpt lat="45.580507" lon="10.229545">
        <ele>180.381222</ele>
        <time>2021-01-21T13:54:28.314Z</time>
      </trkpt>
      <trkpt lat="45.580661" lon="10.229458">
        <ele>180.474773</ele>
        <time>2021-01-21T13:54:30.928Z</time>
      </trkpt>
      <trkpt lat="45.580987" lon="10.229462">
        <ele>180.658942</ele>
        <time>2021-01-21T13:54:36.200Z</time>
      </trkpt>
      <trkpt lat="45.581156" lon="10.229306">
        <ele>180.772605</ele>
        <time>2021-01-21T13:54:39.857Z</time>
      </trkpt>
      <trkpt lat="45.581322" lon="10.229213">
        <ele>180.873332</ele>
        <time>2021-01-21T13:54:42.760Z</time>
      </trkpt>
      <trkpt lat="45.581424" lon="10.229104">
        <ele>180.938475</ele>
        <time>2021-01-21T13:54:45.106Z</time>
      </trkpt>
      <trkpt lat="45.581584" lon="10.229025">
        <ele>181.024352</ele>
        <time>2021-01-21T13:54:47.778Z</time>
      </trkpt>
      <trkpt lat="45.581880" lon="10.228856">
        <ele>181.186057</ele>
        <time>2021-01-21T13:54:53.347Z</time>
      </trkpt>
      <trkpt lat="45.582193" lon="10.228590">
        <ele>181.370805</ele>
        <time>2021-01-21T13:54:59.393Z</time>
      </trkpt>
      <trkpt lat="45.582423" lon="10.228349">
        <ele>181.515496</ele>
        <time>2021-01-21T13:55:04.021Z</time>
      </trkpt>
      <trkpt lat="45.582888" lon="10.227768">
        <ele>181.847972</ele>
        <time>2021-01-21T13:55:14.054Z</time>
      </trkpt>
      <trkpt lat="45.582998" lon="10.227584">
        <ele>181.977187</ele>
        <time>2021-01-21T13:55:17.154Z</time>
      </trkpt>
      <trkpt lat="45.583481" lon="10.227014">
        <ele>182.455134</ele>
        <time>2021-01-21T13:55:28.822Z</time>
      </trkpt>
      <trkpt lat="45.583887" lon="10.226555">
        <ele>182.850126</ele>
        <time>2021-01-21T13:55:38.163Z</time>
      </trkpt>
      <trkpt lat="45.583907" lon="10.226298">
        <ele>182.988201</ele>
        <time>2021-01-21T13:55:41.331Z</time>
      </trkpt>
      <trkpt lat="45.583917" lon="10.226238">
        <ele>183.021134</ele>
        <time>2021-01-21T13:55:42.221Z</time>
      </trkpt>
      <trkpt lat="45.584209" lon="10.224484">
        <ele>183.466253</ele>
        <time>2021-01-21T13:56:04.680Z</time>
      </trkpt>
      <trkpt lat="45.584541" lon="10.224570">
        <ele>183.561315</ele>
        <time>2021-01-21T13:56:09.675Z</time>
      </trkpt>
      <trkpt lat="45.584634" lon="10.224574">
        <ele>183.587529</ele>
        <time>2021-01-21T13:56:11.226Z</time>
      </trkpt>
      <trkpt lat="45.584650" lon="10.224468">
        <ele>183.608910</ele>
        <time>2021-01-21T13:56:12.168Z</time>
      </trkpt>
      <trkpt lat="45.584775" lon="10.223612">
        <ele>183.345026</ele>
        <time>2021-01-21T13:56:20.046Z</time>
      </trkpt>
      <trkpt lat="45.584831" lon="10.223252">
        <ele>183.132845</ele>
        <time>2021-01-21T13:56:23.064Z</time>
      </trkpt>
      <trkpt lat="45.584856" lon="10.223093">
        <ele>183.039083</ele>
        <time>2021-01-21T13:56:24.540Z</time>
      </trkpt>
      <trkpt lat="45.584892" lon="10.222741">
        <ele>182.834409</ele>
        <time>2021-01-21T13:56:27.490Z</time>
      </trkpt>
      <trkpt lat="45.584910" lon="10.222419">
        <ele>182.648556</ele>
        <time>2021-01-21T13:56:30.277Z</time>
      </trkpt>
      <trkpt lat="45.584921" lon="10.221940">
        <ele>182.372815</ele>
        <time>2021-01-21T13:56:34.467Z</time>
      </trkpt>
      <trkpt lat="45.584918" lon="10.221640">
        <ele>182.200192</ele>
        <time>2021-01-21T13:56:37.177Z</time>
      </trkpt>
      <trkpt lat="45.584919" lon="10.221596">
        <ele>182.189635</ele>
        <time>2021-01-21T13:56:37.617Z</time>
      </trkpt>
      <trkpt lat="45.584921" lon="10.221432">
        <ele>182.180088</ele>
        <time>2021-01-21T13:56:39.126Z</time>
      </trkpt>
      <trkpt lat="45.584926" lon="10.221151">
        <ele>182.163729</ele>
        <time>2021-01-21T13:56:41.648Z</time>
      </trkpt>
      <trkpt lat="45.584926" lon="10.221081">
        <ele>182.159655</ele>
        <time>2021-01-21T13:56:42.343Z</time>
      </trkpt>
      <trkpt lat="45.584927" lon="10.221016">
        <ele>182.155871</ele>
        <time>2021-01-21T13:56:42.957Z</time>
      </trkpt>
      <trkpt lat="45.584934" lon="10.220297">
        <ele>182.114020</ele>
        <time>2021-01-21T13:56:49.648Z</time>
      </trkpt>
      <trkpt lat="45.584934" lon="10.220251">
        <ele>182.111343</ele>
        <time>2021-01-21T13:56:50.085Z</time>
      </trkpt>
      <trkpt lat="45.584938" lon="10.219853">
        <ele>182.088177</ele>
        <time>2021-01-21T13:56:53.929Z</time>
      </trkpt>
      <trkpt lat="45.584941" lon="10.219690">
        <ele>182.078687</ele>
        <time>2021-01-21T13:56:55.645Z</time>
      </trkpt>
      <trkpt lat="45.584941" lon="10.219530">
        <ele>182.069375</ele>
        <time>2021-01-21T13:56:57.422Z</time>
      </trkpt>
      <trkpt lat="45.584950" lon="10.218541">
        <ele>182.400497</ele>
        <time>2021-01-21T13:57:10.808Z</time>
      </trkpt>
      <trkpt lat="45.584952" lon="10.218310">
        <ele>182.561778</ele>
        <time>2021-01-21T13:57:14.023Z</time>
      </trkpt>
      <trkpt lat="45.584958" lon="10.217960">
        <ele>182.806198</ele>
        <time>2021-01-21T13:57:19.016Z</time>
      </trkpt>
      <trkpt lat="45.584960" lon="10.217854">
        <ele>182.880228</ele>
        <time>2021-01-21T13:57:20.469Z</time>
      </trkpt>
      <trkpt lat="45.584970" lon="10.217076">
        <ele>183.423468</ele>
        <time>2021-01-21T13:57:30.503Z</time>
      </trkpt>
      <trkpt lat="45.584979" lon="10.216531">
        <ele>183.804057</ele>
        <time>2021-01-21T13:57:37.543Z</time>
      </trkpt>
      <trkpt lat="45.585008" lon="10.216522">
        <ele>183.833660</ele>
        <time>2021-01-21T13:57:38.090Z</time>
      </trkpt>
      <trkpt lat="45.585054" lon="10.216467">
        <ele>183.870185</ele>
        <time>2021-01-21T13:57:39.063Z</time>
      </trkpt>
      <trkpt lat="45.585065" lon="10.216428">
        <ele>183.887650</ele>
        <time>2021-01-21T13:57:39.635Z</time>
      </trkpt>
      <trkpt lat="45.585067" lon="10.216386">
        <ele>183.905135</ele>
        <time>2021-01-21T13:57:40.224Z</time>
      </trkpt>
      <trkpt lat="45.585044" lon="10.216308">
        <ele>183.940291</ele>
        <time>2021-01-21T13:57:41.276Z</time>
      </trkpt>
      <trkpt lat="45.585021" lon="10.216282">
        <ele>183.957696</ele>
        <time>2021-01-21T13:57:41.866Z</time>
      </trkpt>
      <trkpt lat="45.584961" lon="10.216126">
        <ele>184.031631</ele>
        <time>2021-01-21T13:57:44.143Z</time>
      </trkpt>
      <trkpt lat="45.584955" lon="10.215846">
        <ele>184.147984</ele>
        <time>2021-01-21T13:57:47.804Z</time>
      </trkpt>
      <trkpt lat="45.584959" lon="10.215782">
        <ele>184.174672</ele>
        <time>2021-01-21T13:57:48.703Z</time>
      </trkpt>
      <trkpt lat="45.584976" lon="10.215644">
        <ele>184.232872</ele>
        <time>2021-01-21T13:57:50.556Z</time>
      </trkpt>
      <trkpt lat="45.585032" lon="10.215303">
        <ele>184.378354</ele>
        <time>2021-01-21T13:57:55.124Z</time>
      </trkpt>
      <trkpt lat="45.585088" lon="10.215019">
        <ele>184.500906</ele>
        <time>2021-01-21T13:57:58.773Z</time>
      </trkpt>
      <trkpt lat="45.585120" lon="10.214869">
        <ele>184.566039</ele>
        <time>2021-01-21T13:58:00.740Z</time>
      </trkpt>
      <trkpt lat="45.585362" lon="10.213744">
        <ele>184.905645</ele>
        <time>2021-01-21T13:58:13.172Z</time>
      </trkpt>
      <trkpt lat="45.585384" lon="10.213620">
        <ele>184.906426</ele>
        <time>2021-01-21T13:58:14.338Z</time>
      </trkpt>
      <trkpt lat="45.585417" lon="10.213453">
        <ele>184.907485</ele>
        <time>2021-01-21T13:58:16.104Z</time>
      </trkpt>
      <trkpt lat="45.585373" lon="10.213295">
        <ele>184.908522</ele>
        <time>2021-01-21T13:58:17.886Z</time>
      </trkpt>
      <trkpt lat="45.584748" lon="10.213084">
        <ele>184.914121</ele>
        <time>2021-01-21T13:58:27.544Z</time>
      </trkpt>
      <trkpt lat="45.584668" lon="10.213005">
        <ele>184.914968</ele>
        <time>2021-01-21T13:58:29.005Z</time>
      </trkpt>
      <trkpt lat="45.584279" lon="10.212902">
        <ele>184.918417</ele>
        <time>2021-01-21T13:58:34.863Z</time>
      </trkpt>
      <trkpt lat="45.584167" lon="10.212873">
        <ele>184.920353</ele>
        <time>2021-01-21T13:58:36.549Z</time>
      </trkpt>
      <trkpt lat="45.584234" lon="10.212550">
        <ele>184.928686</ele>
        <time>2021-01-21T13:58:40.228Z</time>
      </trkpt>
      <trkpt lat="45.584275" lon="10.212369">
        <ele>184.933392</ele>
        <time>2021-01-21T13:58:42.050Z</time>
      </trkpt>
      <trkpt lat="45.584308" lon="10.212219">
        <ele>184.937282</ele>
        <time>2021-01-21T13:58:43.854Z</time>
      </trkpt>
      <trkpt lat="45.584361" lon="10.212120">
        <ele>184.940365</ele>
        <time>2021-01-21T13:58:45.077Z</time>
      </trkpt>
      <trkpt lat="45.584386" lon="10.212088">
        <ele>184.941551</ele>
        <time>2021-01-21T13:58:45.564Z</time>
      </trkpt>
      <trkpt lat="45.584420" lon="10.212045">
        <ele>184.943156</ele>
        <time>2021-01-21T13:58:46.172Z</time>
      </trkpt>
      <trkpt lat="45.584551" lon="10.211864">
        <ele>184.949596</ele>
        <time>2021-01-21T13:58:48.848Z</time>
      </trkpt>
      <trkpt lat="45.584571" lon="10.211836">
        <ele>184.950586</ele>
        <time>2021-01-21T13:58:49.307Z</time>
      </trkpt>
      <trkpt lat="45.584648" lon="10.211718">
        <ele>184.954577</ele>
        <time>2021-01-21T13:58:50.823Z</time>
      </trkpt>
      <trkpt lat="45.584750" lon="10.211493">
        <ele>184.961208</ele>
        <time>2021-01-21T13:58:53.447Z</time>
      </trkpt>
      <trkpt lat="45.584788" lon="10.211326">
        <ele>184.965552</ele>
        <time>2021-01-21T13:58:55.167Z</time>
      </trkpt>
      <trkpt lat="45.584840" lon="10.210888">
        <ele>184.976540</ele>
        <time>2021-01-21T13:58:59.744Z</time>
      </trkpt>
      <trkpt lat="45.584856" lon="10.210568">
        <ele>185.059658</ele>
        <time>2021-01-21T13:59:03.447Z</time>
      </trkpt>
      <trkpt lat="45.584855" lon="10.210125">
        <ele>185.527145</ele>
        <time>2021-01-21T13:59:08.660Z</time>
      </trkpt>
      <trkpt lat="45.584647" lon="10.209466">
        <ele>186.290021</ele>
        <time>2021-01-21T13:59:18.038Z</time>
      </trkpt>
      <trkpt lat="45.584572" lon="10.209069">
        <ele>186.723960</ele>
        <time>2021-01-21T13:59:23.975Z</time>
      </trkpt>
      <trkpt lat="45.584536" lon="10.208846">
        <ele>186.965466</ele>
        <time>2021-01-21T13:59:28.055Z</time>
      </trkpt>
      <trkpt lat="45.584529" lon="10.208656">
        <ele>187.166246</ele>
        <time>2021-01-21T13:59:30.607Z</time>
      </trkpt>
      <trkpt lat="45.584516" lon="10.208326">
        <ele>187.515038</ele>
        <time>2021-01-21T13:59:36.245Z</time>
      </trkpt>
      <trkpt lat="45.584471" lon="10.208051">
        <ele>188.174301</ele>
        <time>2021-01-21T13:59:40.565Z</time>
      </trkpt>
      <trkpt lat="45.584421" lon="10.207930">
        <ele>188.775317</ele>
        <time>2021-01-21T13:59:43.699Z</time>
      </trkpt>
      <trkpt lat="45.584389" lon="10.207851">
        <ele>189.165729</ele>
        <time>2021-01-21T13:59:45.638Z</time>
      </trkpt>
      <trkpt lat="45.584223" lon="10.207560">
        <ele>190.771470</ele>
        <time>2021-01-21T13:59:53.310Z</time>
      </trkpt>
      <trkpt lat="45.584177" lon="10.207393">
        <ele>191.539092</ele>
        <time>2021-01-21T13:59:58.300Z</time>
      </trkpt>
      <trkpt lat="45.583723" lon="10.206343">
        <ele>196.818127</ele>
        <time>2021-01-21T14:00:34.991Z</time>
      </trkpt>
      <trkpt lat="45.583534" lon="10.205893">
        <ele>199.245824</ele>
        <time>2021-01-21T14:00:53.171Z</time>
      </trkpt>
      <trkpt lat="45.583536" lon="10.205792">
        <ele>199.888437</ele>
        <time>2021-01-21T14:00:56.747Z</time>
      </trkpt>
      <trkpt lat="45.583581" lon="10.205171">
        <ele>203.859085</ele>
        <time>2021-01-21T14:01:19.869Z</time>
      </trkpt>
      <trkpt lat="45.583635" lon="10.204533">
        <ele>207.946300</ele>
        <time>2021-01-21T14:01:43.716Z</time>
      </trkpt>
      <trkpt lat="45.583694" lon="10.204008">
        <ele>211.328044</ele>
        <time>2021-01-21T14:02:03.677Z</time>
      </trkpt>
      <trkpt lat="45.583695" lon="10.203889">
        <ele>212.084932</ele>
        <time>2021-01-21T14:02:07.869Z</time>
      </trkpt>
      <trkpt lat="45.583683" lon="10.203591">
        <ele>213.983330</ele>
        <time>2021-01-21T14:02:18.737Z</time>
      </trkpt>
      <trkpt lat="45.583641" lon="10.202971">
        <ele>217.298284</ele>
        <time>2021-01-21T14:02:40.308Z</time>
      </trkpt>
      <trkpt lat="45.583639" lon="10.202951">
        <ele>217.398251</ele>
        <time>2021-01-21T14:02:40.971Z</time>
      </trkpt>
      <trkpt lat="45.583440" lon="10.202278">
        <ele>221.013322</ele>
        <time>2021-01-21T14:03:04.352Z</time>
      </trkpt>
      <trkpt lat="45.583301" lon="10.201596">
        <ele>224.528104</ele>
        <time>2021-01-21T14:03:24.306Z</time>
      </trkpt>
      <trkpt lat="45.583214" lon="10.201055">
        <ele>227.274786</ele>
        <time>2021-01-21T14:03:38.440Z</time>
      </trkpt>
      <trkpt lat="45.583197" lon="10.200552">
        <ele>230.267534</ele>
        <time>2021-01-21T14:03:50.510Z</time>
      </trkpt>
      <trkpt lat="45.583194" lon="10.200113">
        <ele>232.979093</ele>
        <time>2021-01-21T14:04:03.808Z</time>
      </trkpt>
      <trkpt lat="45.583211" lon="10.200029">
        <ele>233.519164</ele>
        <time>2021-01-21T14:04:07.743Z</time>
      </trkpt>
      <trkpt lat="45.583314" lon="10.199959">
        <ele>234.525722</ele>
        <time>2021-01-21T14:04:12.630Z</time>
      </trkpt>
      <trkpt lat="45.583356" lon="10.200091">
        <ele>235.421301</ele>
        <time>2021-01-21T14:04:16.983Z</time>
      </trkpt>
      <trkpt lat="45.583410" lon="10.200945">
        <ele>240.717394</ele>
        <time>2021-01-21T14:04:51.023Z</time>
      </trkpt>
      <trkpt lat="45.583445" lon="10.201144">
        <ele>241.984704</ele>
        <time>2021-01-21T14:04:58.522Z</time>
      </trkpt>
      <trkpt lat="45.583510" lon="10.201187">
        <ele>242.616827</ele>
        <time>2021-01-21T14:05:03.291Z</time>
      </trkpt>
      <trkpt lat="45.583529" lon="10.201176">
        <ele>242.797744</ele>
        <time>2021-01-21T14:05:04.848Z</time>
      </trkpt>
      <trkpt lat="45.583542" lon="10.201163">
        <ele>242.937775</ele>
        <time>2021-01-21T14:05:06.105Z</time>
      </trkpt>
      <trkpt lat="45.583557" lon="10.201148">
        <ele>243.099349</ele>
        <time>2021-01-21T14:05:07.355Z</time>
      </trkpt>
      <trkpt lat="45.583575" lon="10.201120">
        <ele>243.334169</ele>
        <time>2021-01-21T14:05:09.053Z</time>
      </trkpt>
      <trkpt lat="45.583576" lon="10.201070">
        <ele>243.647702</ele>
        <time>2021-01-21T14:05:10.548Z</time>
      </trkpt>
      <trkpt lat="45.583560" lon="10.200894">
        <ele>244.976902</ele>
        <time>2021-01-21T14:05:16.292Z</time>
      </trkpt>
      <trkpt lat="45.583542" lon="10.200659">
        <ele>246.747410</ele>
        <time>2021-01-21T14:05:27.928Z</time>
      </trkpt>
      <trkpt lat="45.583548" lon="10.200426">
        <ele>248.493610</ele>
        <time>2021-01-21T14:05:39.534Z</time>
      </trkpt>
      <trkpt lat="45.583657" lon="10.199999">
        <ele>251.897642</ele>
        <time>2021-01-21T14:06:01.401Z</time>
      </trkpt>
      <trkpt lat="45.583852" lon="10.199726">
        <ele>254.819064</ele>
        <time>2021-01-21T14:06:16.447Z</time>
      </trkpt>
      <trkpt lat="45.584154" lon="10.199531">
        <ele>258.365453</ele>
        <time>2021-01-21T14:06:33.682Z</time>
      </trkpt>
      <trkpt lat="45.584538" lon="10.199585">
        <ele>262.494525</ele>
        <time>2021-01-21T14:06:55.205Z</time>
      </trkpt>
      <trkpt lat="45.584548" lon="10.199582">
        <ele>262.603869</ele>
        <time>2021-01-21T14:06:56.950Z</time>
      </trkpt>
      <trkpt lat="45.584574" lon="10.199573">
        <ele>262.885729</ele>
        <time>2021-01-21T14:06:58.159Z</time>
      </trkpt>
      <trkpt lat="45.584616" lon="10.199500">
        <ele>263.445873</ele>
        <time>2021-01-21T14:06:58.776Z</time>
      </trkpt>
      <trkpt lat="45.584647" lon="10.199389">
        <ele>264.154264</ele>
        <time>2021-01-21T14:07:01.854Z</time>
      </trkpt>
      <trkpt lat="45.584620" lon="10.199150">
        <ele>265.589244</ele>
        <time>2021-01-21T14:07:08.427Z</time>
      </trkpt>
      <trkpt lat="45.584304" lon="10.198630">
        <ele>269.671281</ele>
        <time>2021-01-21T14:07:30.945Z</time>
      </trkpt>
      <trkpt lat="45.583947" lon="10.198226">
        <ele>273.528297</ele>
        <time>2021-01-21T14:07:52.427Z</time>
      </trkpt>
      <trkpt lat="45.583698" lon="10.197979">
        <ele>276.095581</ele>
        <time>2021-01-21T14:08:06.523Z</time>
      </trkpt>
      <trkpt lat="45.583566" lon="10.197743">
        <ele>277.886315</ele>
        <time>2021-01-21T14:08:18.870Z</time>
      </trkpt>
      <trkpt lat="45.583264" lon="10.196594">
        <ele>286.391805</ele>
        <time>2021-01-21T14:09:02.281Z</time>
      </trkpt>
      <trkpt lat="45.583241" lon="10.196487">
        <ele>287.170931</ele>
        <time>2021-01-21T14:09:10.596Z</time>
      </trkpt>
      <trkpt lat="45.583233" lon="10.196455">
        <ele>287.407456</ele>
        <time>2021-01-21T14:09:12.646Z</time>
      </trkpt>
      <trkpt lat="45.583009" lon="10.196322">
        <ele>289.819965</ele>
        <time>2021-01-21T14:09:21.855Z</time>
      </trkpt>
      <trkpt lat="45.582958" lon="10.196287">
        <ele>290.382665</ele>
        <time>2021-01-21T14:09:27.166Z</time>
      </trkpt>
      <trkpt lat="45.582930" lon="10.196233">
        <ele>290.850460</ele>
        <time>2021-01-21T14:09:32.058Z</time>
      </trkpt>
      <trkpt lat="45.582895" lon="10.196060">
        <ele>292.103962</ele>
        <time>2021-01-21T14:09:36.222Z</time>
      </trkpt>
      <trkpt lat="45.582914" lon="10.195952">
        <ele>292.879103</ele>
        <time>2021-01-21T14:09:40.391Z</time>
      </trkpt>
      <trkpt lat="45.582937" lon="10.195902">
        <ele>293.295581</ele>
        <time>2021-01-21T14:09:41.496Z</time>
      </trkpt>
      <trkpt lat="45.583137" lon="10.195783">
        <ele>295.450276</ele>
        <time>2021-01-21T14:09:55.115Z</time>
      </trkpt>
      <trkpt lat="45.583852" lon="10.195794">
        <ele>299.947720</ele>
        <time>2021-01-21T14:10:34.449Z</time>
      </trkpt>
      <trkpt lat="45.583867" lon="10.195791">
        <ele>300.038429</ele>
        <time>2021-01-21T14:10:34.707Z</time>
      </trkpt>
      <trkpt lat="45.583948" lon="10.195774">
        <ele>300.528735</ele>
        <time>2021-01-21T14:10:39.276Z</time>
      </trkpt>
      <trkpt lat="45.584018" lon="10.195690">
        <ele>301.076190</ele>
        <time>2021-01-21T14:10:42.646Z</time>
      </trkpt>
      <trkpt lat="45.583988" lon="10.195540">
        <ele>301.730069</ele>
        <time>2021-01-21T14:10:46.650Z</time>
      </trkpt>
      <trkpt lat="45.583668" lon="10.195269">
        <ele>303.957845</ele>
        <time>2021-01-21T14:10:57.515Z</time>
      </trkpt>
      <trkpt lat="45.583111" lon="10.194863">
        <ele>306.586727</ele>
        <time>2021-01-21T14:11:12.992Z</time>
      </trkpt>
      <trkpt lat="45.582938" lon="10.194765">
        <ele>306.377748</ele>
        <time>2021-01-21T14:11:16.833Z</time>
      </trkpt>
      <trkpt lat="45.582839" lon="10.194686">
        <ele>306.250415</ele>
        <time>2021-01-21T14:11:18.868Z</time>
      </trkpt>
      <trkpt lat="45.582839" lon="10.194686">
        <ele>306.250415</ele>
        <time>2021-01-21T14:11:18.910Z</time>
      </trkpt>
      <trkpt lat="45.582839" lon="10.194686">
        <ele>306.250415</ele>
        <time>2021-01-21T14:11:18.914Z</time>
      </trkpt>
      <trkpt lat="45.582826" lon="10.194563">
        <ele>306.152650</ele>
        <time>2021-01-21T14:11:20.485Z</time>
      </trkpt>
      <trkpt lat="45.582845" lon="10.194353">
        <ele>305.986234</ele>
        <time>2021-01-21T14:11:22.699Z</time>
      </trkpt>
      <trkpt lat="45.582866" lon="10.194314">
        <ele>305.947561</ele>
        <time>2021-01-21T14:11:23.111Z</time>
      </trkpt>
      <trkpt lat="45.582890" lon="10.194264">
        <ele>305.899912</ele>
        <time>2021-01-21T14:11:23.523Z</time>
      </trkpt>
      <trkpt lat="45.582897" lon="10.194246">
        <ele>305.883728</ele>
        <time>2021-01-21T14:11:23.648Z</time>
      </trkpt>
      <trkpt lat="45.583012" lon="10.194158">
        <ele>305.737236</ele>
        <time>2021-01-21T14:11:25.878Z</time>
      </trkpt>
      <trkpt lat="45.583451" lon="10.194131">
        <ele>305.243810</ele>
        <time>2021-01-21T14:11:31.141Z</time>
      </trkpt>
      <trkpt lat="45.583536" lon="10.194075">
        <ele>305.138702</ele>
        <time>2021-01-21T14:11:32.056Z</time>
      </trkpt>
      <trkpt lat="45.583544" lon="10.194044">
        <ele>305.112735</ele>
        <time>2021-01-21T14:11:32.266Z</time>
      </trkpt>
      <trkpt lat="45.583555" lon="10.194001">
        <ele>305.076754</ele>
        <time>2021-01-21T14:11:32.545Z</time>
      </trkpt>
      <trkpt lat="45.583551" lon="10.193929">
        <ele>305.019991</ele>
        <time>2021-01-21T14:11:33.160Z</time>
      </trkpt>
      <trkpt lat="45.583477" lon="10.193279">
        <ele>303.004188</ele>
        <time>2021-01-21T14:11:37.755Z</time>
      </trkpt>
      <trkpt lat="45.583486" lon="10.193192">
        <ele>302.504898</ele>
        <time>2021-01-21T14:11:38.343Z</time>
      </trkpt>
      <trkpt lat="45.583497" lon="10.193169">
        <ele>302.346743</ele>
        <time>2021-01-21T14:11:38.515Z</time>
      </trkpt>
      <trkpt lat="45.583555" lon="10.192946">
        <ele>300.996111</ele>
        <time>2021-01-21T14:11:39.966Z</time>
      </trkpt>
      <trkpt lat="45.583642" lon="10.192668">
        <ele>299.267226</ele>
        <time>2021-01-21T14:11:41.899Z</time>
      </trkpt>
      <trkpt lat="45.583643" lon="10.192355">
        <ele>297.490220</ele>
        <time>2021-01-21T14:11:43.814Z</time>
      </trkpt>
      <trkpt lat="45.583696" lon="10.192150">
        <ele>296.249508</ele>
        <time>2021-01-21T14:11:45.124Z</time>
      </trkpt>
      <trkpt lat="45.583710" lon="10.192120">
        <ele>296.044799</ele>
        <time>2021-01-21T14:11:45.335Z</time>
      </trkpt>
      <trkpt lat="45.583900" lon="10.191708">
        <ele>293.243626</ele>
        <time>2021-01-21T14:11:48.291Z</time>
      </trkpt>
      <trkpt lat="45.584098" lon="10.191423">
        <ele>290.963775</ele>
        <time>2021-01-21T14:11:50.732Z</time>
      </trkpt>
      <trkpt lat="45.584108" lon="10.191394">
        <ele>290.780236</ele>
        <time>2021-01-21T14:11:50.921Z</time>
      </trkpt>
      <trkpt lat="45.584128" lon="10.191336">
        <ele>290.413158</ele>
        <time>2021-01-21T14:11:51.316Z</time>
      </trkpt>
      <trkpt lat="45.584136" lon="10.191237">
        <ele>289.799709</ele>
        <time>2021-01-21T14:11:51.936Z</time>
      </trkpt>
      <trkpt lat="45.584140" lon="10.191143">
        <ele>289.181588</ele>
        <time>2021-01-21T14:11:52.542Z</time>
      </trkpt>
      <trkpt lat="45.584143" lon="10.191060">
        <ele>288.636081</ele>
        <time>2021-01-21T14:11:53.059Z</time>
      </trkpt>
      <trkpt lat="45.584139" lon="10.191015">
        <ele>288.338345</ele>
        <time>2021-01-21T14:11:53.323Z</time>
      </trkpt>
      <trkpt lat="45.584115" lon="10.190732">
        <ele>286.467250</ele>
        <time>2021-01-21T14:11:55.058Z</time>
      </trkpt>
      <trkpt lat="45.584126" lon="10.190588">
        <ele>285.516474</ele>
        <time>2021-01-21T14:11:56.024Z</time>
      </trkpt>
      <trkpt lat="45.584161" lon="10.190521">
        <ele>284.967714</ele>
        <time>2021-01-21T14:11:56.523Z</time>
      </trkpt>
      <trkpt lat="45.584175" lon="10.190495">
        <ele>284.752395</ele>
        <time>2021-01-21T14:11:56.710Z</time>
      </trkpt>
      <trkpt lat="45.584465" lon="10.190129">
        <ele>281.123617</ele>
        <time>2021-01-21T14:12:00.043Z</time>
      </trkpt>
      <trkpt lat="45.584478" lon="10.190112">
        <ele>280.958345</ele>
        <time>2021-01-21T14:12:00.193Z</time>
      </trkpt>
      <trkpt lat="45.584859" lon="10.189748">
        <ele>276.660005</ele>
        <time>2021-01-21T14:12:04.160Z</time>
      </trkpt>
      <trkpt lat="45.585423" lon="10.189488">
        <ele>271.371148</ele>
        <time>2021-01-21T14:12:09.302Z</time>
      </trkpt>
      <trkpt lat="45.585655" lon="10.189415">
        <ele>269.417936</ele>
        <time>2021-01-21T14:12:11.461Z</time>
      </trkpt>
      <trkpt lat="45.585783" lon="10.189359">
        <ele>268.317291</ele>
        <time>2021-01-21T14:12:12.650Z</time>
      </trkpt>
      <trkpt lat="45.585868" lon="10.189211">
        <ele>267.215630</ele>
        <time>2021-01-21T14:12:13.869Z</time>
      </trkpt>
      <trkpt lat="45.585957" lon="10.188310">
        <ele>261.979804</ele>
        <time>2021-01-21T14:12:19.633Z</time>
      </trkpt>
      <trkpt lat="45.586282" lon="10.187910">
        <ele>258.428903</ele>
        <time>2021-01-21T14:12:23.396Z</time>
      </trkpt>
      <trkpt lat="45.586297" lon="10.187892">
        <ele>258.176558</ele>
        <time>2021-01-21T14:12:23.561Z</time>
      </trkpt>
      <trkpt lat="45.586568" lon="10.187553">
        <ele>253.536543</ele>
        <time>2021-01-21T14:12:26.613Z</time>
      </trkpt>
      <trkpt lat="45.586727" lon="10.187354">
        <ele>250.813563</ele>
        <time>2021-01-21T14:12:28.422Z</time>
      </trkpt>
      <trkpt lat="45.586787" lon="10.187213">
        <ele>249.325797</ele>
        <time>2021-01-21T14:12:29.424Z</time>
      </trkpt>
      <trkpt lat="45.586827" lon="10.187068">
        <ele>247.920626</ele>
        <time>2021-01-21T14:12:30.332Z</time>
      </trkpt>
      <trkpt lat="45.587008" lon="10.186168">
        <ele>239.478137</ele>
        <time>2021-01-21T14:12:35.807Z</time>
      </trkpt>
      <trkpt lat="45.587065" lon="10.185788">
        <ele>235.974383</ele>
        <time>2021-01-21T14:12:38.077Z</time>
      </trkpt>
      <trkpt lat="45.587085" lon="10.185347">
        <ele>231.762447</ele>
        <time>2021-01-21T14:12:40.651Z</time>
      </trkpt>
      <trkpt lat="45.587055" lon="10.184577">
        <ele>224.334825</ele>
        <time>2021-01-21T14:12:45.172Z</time>
      </trkpt>
      <trkpt lat="45.587031" lon="10.184397">
        <ele>222.569997</ele>
        <time>2021-01-21T14:12:46.238Z</time>
      </trkpt>
      <trkpt lat="45.586927" lon="10.184129">
        <ele>219.618516</ele>
        <time>2021-01-21T14:12:48.041Z</time>
      </trkpt>
      <trkpt lat="45.586803" lon="10.184065">
        <ele>217.804052</ele>
        <time>2021-01-21T14:12:49.135Z</time>
      </trkpt>
      <trkpt lat="45.586409" lon="10.184100">
        <ele>212.371152</ele>
        <time>2021-01-21T14:12:52.444Z</time>
      </trkpt>
      <trkpt lat="45.585913" lon="10.184293">
        <ele>206.408388</ele>
        <time>2021-01-21T14:12:56.783Z</time>
      </trkpt>
      <trkpt lat="45.585786" lon="10.184326">
        <ele>205.006454</ele>
        <time>2021-01-21T14:12:57.887Z</time>
      </trkpt>
      <trkpt lat="45.585660" lon="10.184330">
        <ele>203.637663</ele>
        <time>2021-01-21T14:12:58.960Z</time>
      </trkpt>
      <trkpt lat="45.585595" lon="10.184285">
        <ele>202.853220</ele>
        <time>2021-01-21T14:12:59.578Z</time>
      </trkpt>
      <trkpt lat="45.585549" lon="10.184201">
        <ele>202.042520</ele>
        <time>2021-01-21T14:13:00.226Z</time>
      </trkpt>
      <trkpt lat="45.585431" lon="10.183946">
        <ele>199.718930</ele>
        <time>2021-01-21T14:13:02.076Z</time>
      </trkpt>
      <trkpt lat="45.585399" lon="10.183853">
        <ele>198.931236</ele>
        <time>2021-01-21T14:13:02.693Z</time>
      </trkpt>
      <trkpt lat="45.585297" lon="10.183557">
        <ele>196.423441</ele>
        <time>2021-01-21T14:13:04.689Z</time>
      </trkpt>
      <trkpt lat="45.585254" lon="10.183052">
        <ele>192.556706</ele>
        <time>2021-01-21T14:13:07.776Z</time>
      </trkpt>
      <trkpt lat="45.585225" lon="10.182810">
        <ele>190.785284</ele>
        <time>2021-01-21T14:13:09.241Z</time>
      </trkpt>
      <trkpt lat="45.585172" lon="10.182358">
        <ele>188.257688</ele>
        <time>2021-01-21T14:13:12.000Z</time>
      </trkpt>
      <trkpt lat="45.585151" lon="10.182180">
        <ele>187.262139</ele>
        <time>2021-01-21T14:13:13.100Z</time>
      </trkpt>
      <trkpt lat="45.585083" lon="10.181859">
        <ele>185.412448</ele>
        <time>2021-01-21T14:13:15.140Z</time>
      </trkpt>
      <trkpt lat="45.585011" lon="10.181056">
        <ele>180.947569</ele>
        <time>2021-01-21T14:13:20.238Z</time>
      </trkpt>
      <trkpt lat="45.584999" lon="10.180845">
        <ele>179.780032</ele>
        <time>2021-01-21T14:13:21.577Z</time>
      </trkpt>
      <trkpt lat="45.584948" lon="10.180306">
        <ele>176.807542</ele>
        <time>2021-01-21T14:13:25.080Z</time>
      </trkpt>
      <trkpt lat="45.584974" lon="10.180026">
        <ele>175.771434</ele>
        <time>2021-01-21T14:13:30.399Z</time>
      </trkpt>
      <trkpt lat="45.584927" lon="10.180091">
        <ele>175.428595</ele>
        <time>2021-01-21T14:13:32.177Z</time>
      </trkpt>
      <trkpt lat="45.584864" lon="10.180154">
        <ele>175.025548</ele>
        <time>2021-01-21T14:13:34.255Z</time>
      </trkpt>
      <trkpt lat="45.584786" lon="10.180197">
        <ele>174.587342</ele>
        <time>2021-01-21T14:13:36.532Z</time>
      </trkpt>
      <trkpt lat="45.584465" lon="10.180299">
        <ele>172.863734</ele>
        <time>2021-01-21T14:13:45.560Z</time>
      </trkpt>
      <trkpt lat="45.584254" lon="10.180351">
        <ele>171.741457</ele>
        <time>2021-01-21T14:13:51.408Z</time>
      </trkpt>
      <trkpt lat="45.584219" lon="10.180334">
        <ele>171.547697</ele>
        <time>2021-01-21T14:13:52.415Z</time>
      </trkpt>
      <trkpt lat="45.584174" lon="10.180077">
        <ele>170.575890</ele>
        <time>2021-01-21T14:13:57.507Z</time>
      </trkpt>
      <trkpt lat="45.584104" lon="10.179703">
        <ele>169.155736</ele>
        <time>2021-01-21T14:14:05.197Z</time>
      </trkpt>
      <trkpt lat="45.584091" lon="10.179642">
        <ele>168.921826</ele>
        <time>2021-01-21T14:14:06.384Z</time>
      </trkpt>
      <trkpt lat="45.584032" lon="10.179380">
        <ele>167.912205</ele>
        <time>2021-01-21T14:14:11.765Z</time>
      </trkpt>
      <trkpt lat="45.583943" lon="10.178981">
        <ele>166.365598</ele>
        <time>2021-01-21T14:14:14.534Z</time>
      </trkpt>
      <trkpt lat="45.583526" lon="10.177209">
        <ele>159.440212</ele>
        <time>2021-01-21T14:14:26.697Z</time>
      </trkpt>
      <trkpt lat="45.583402" lon="10.176673">
        <ele>157.480213</ele>
        <time>2021-01-21T14:14:30.428Z</time>
      </trkpt>
      <trkpt lat="45.583237" lon="10.175975">
        <ele>155.385139</ele>
        <time>2021-01-21T14:14:35.377Z</time>
      </trkpt>
      <trkpt lat="45.583137" lon="10.175549">
        <ele>154.107391</ele>
        <time>2021-01-21T14:14:38.435Z</time>
      </trkpt>
      <trkpt lat="45.583078" lon="10.175297">
        <ele>153.351739</ele>
        <time>2021-01-21T14:14:40.265Z</time>
      </trkpt>
      <trkpt lat="45.583061" lon="10.175219">
        <ele>153.119422</ele>
        <time>2021-01-21T14:14:40.811Z</time>
      </trkpt>
      <trkpt lat="45.582996" lon="10.174916">
        <ele>152.218206</ele>
        <time>2021-01-21T14:14:42.975Z</time>
      </trkpt>
      <trkpt lat="45.582992" lon="10.174772">
        <ele>151.808387</ele>
        <time>2021-01-21T14:14:44.431Z</time>
      </trkpt>
      <trkpt lat="45.583012" lon="10.174584">
        <ele>151.267626</ele>
        <time>2021-01-21T14:14:46.355Z</time>
      </trkpt>
      <trkpt lat="45.583041" lon="10.174542">
        <ele>151.099847</ele>
        <time>2021-01-21T14:14:46.968Z</time>
      </trkpt>
      <trkpt lat="45.583064" lon="10.174373">
        <ele>150.610256</ele>
        <time>2021-01-21T14:14:48.783Z</time>
      </trkpt>
      <trkpt lat="45.583048" lon="10.174319">
        <ele>150.523225</ele>
        <time>2021-01-21T14:14:49.419Z</time>
      </trkpt>
      <trkpt lat="45.583021" lon="10.174273">
        <ele>150.436467</ele>
        <time>2021-01-21T14:14:50.038Z</time>
      </trkpt>
      <trkpt lat="45.582986" lon="10.174241">
        <ele>150.350669</ele>
        <time>2021-01-21T14:14:50.649Z</time>
      </trkpt>
      <trkpt lat="45.582906" lon="10.174160">
        <ele>150.148215</ele>
        <time>2021-01-21T14:14:52.117Z</time>
      </trkpt>
      <trkpt lat="45.582863" lon="10.174114">
        <ele>150.037300</ele>
        <time>2021-01-21T14:14:52.911Z</time>
      </trkpt>
      <trkpt lat="45.582798" lon="10.173935">
        <ele>149.745879</ele>
        <time>2021-01-21T14:14:55.107Z</time>
      </trkpt>
      <trkpt lat="45.582786" lon="10.173596">
        <ele>149.255358</ele>
        <time>2021-01-21T14:14:58.700Z</time>
      </trkpt>
      <trkpt lat="45.582836" lon="10.173032">
        <ele>148.433799</ele>
        <time>2021-01-21T14:15:03.006Z</time>
      </trkpt>
      <trkpt lat="45.582855" lon="10.172827">
        <ele>148.134964</ele>
        <time>2021-01-21T14:15:04.619Z</time>
      </trkpt>
      <trkpt lat="45.582908" lon="10.172521">
        <ele>147.679419</ele>
        <time>2021-01-21T14:15:07.109Z</time>
      </trkpt>
      <trkpt lat="45.583003" lon="10.171303">
        <ele>146.835977</ele>
        <time>2021-01-21T14:15:17.608Z</time>
      </trkpt>
      <trkpt lat="45.582985" lon="10.170973">
        <ele>146.808854</ele>
        <time>2021-01-21T14:15:20.815Z</time>
      </trkpt>
      <trkpt lat="45.582995" lon="10.170373">
        <ele>146.759674</ele>
        <time>2021-01-21T14:15:27.585Z</time>
      </trkpt>
      <trkpt lat="45.582995" lon="10.170290">
        <ele>146.752873</ele>
        <time>2021-01-21T14:15:28.585Z</time>
      </trkpt>
      <trkpt lat="45.582995" lon="10.169858">
        <ele>146.717474</ele>
        <time>2021-01-21T14:15:33.453Z</time>
      </trkpt>
      <trkpt lat="45.582994" lon="10.169683">
        <ele>146.703134</ele>
        <time>2021-01-21T14:15:35.520Z</time>
      </trkpt>
      <trkpt lat="45.582988" lon="10.168618">
        <ele>147.163040</ele>
        <time>2021-01-21T14:15:47.879Z</time>
      </trkpt>
      <trkpt lat="45.582987" lon="10.168145">
        <ele>147.449126</ele>
        <time>2021-01-21T14:15:53.889Z</time>
      </trkpt>
      <trkpt lat="45.583020" lon="10.167756">
        <ele>147.686127</ele>
        <time>2021-01-21T14:15:59.071Z</time>
      </trkpt>
      <trkpt lat="45.582991" lon="10.167309">
        <ele>147.957645</ele>
        <time>2021-01-21T14:16:05.237Z</time>
      </trkpt>
      <trkpt lat="45.582977" lon="10.167201">
        <ele>148.024078</ele>
        <time>2021-01-21T14:16:06.685Z</time>
      </trkpt>
      <trkpt lat="45.582959" lon="10.167060">
        <ele>148.110766</ele>
        <time>2021-01-21T14:16:08.825Z</time>
      </trkpt>
      <trkpt lat="45.582828" lon="10.166439">
        <ele>148.679985</ele>
        <time>2021-01-21T14:16:17.879Z</time>
      </trkpt>
      <trkpt lat="45.582755" lon="10.166276">
        <ele>148.874437</ele>
        <time>2021-01-21T14:16:20.594Z</time>
      </trkpt>
      <trkpt lat="45.582597" lon="10.165649">
        <ele>149.544066</ele>
        <time>2021-01-21T14:16:30.450Z</time>
      </trkpt>
      <trkpt lat="45.582591" lon="10.165623">
        <ele>149.571575</ele>
        <time>2021-01-21T14:16:30.874Z</time>
      </trkpt>
      <trkpt lat="45.582577" lon="10.165569">
        <ele>149.629440</ele>
        <time>2021-01-21T14:16:31.718Z</time>
      </trkpt>
      <trkpt lat="45.582421" lon="10.164944">
        <ele>150.296210</ele>
        <time>2021-01-21T14:16:41.642Z</time>
      </trkpt>
      <trkpt lat="45.582257" lon="10.164213">
        <ele>151.030919</ele>
        <time>2021-01-21T14:16:52.491Z</time>
      </trkpt>
      <trkpt lat="45.582227" lon="10.163920">
        <ele>151.284795</ele>
        <time>2021-01-21T14:16:56.697Z</time>
      </trkpt>
      <trkpt lat="45.582228" lon="10.163754">
        <ele>151.427119</ele>
        <time>2021-01-21T14:16:58.801Z</time>
      </trkpt>
      <trkpt lat="45.582228" lon="10.163526">
        <ele>151.622593</ele>
        <time>2021-01-21T14:17:01.786Z</time>
      </trkpt>
      <trkpt lat="45.582293" lon="10.163332">
        <ele>151.806994</ele>
        <time>2021-01-21T14:17:04.711Z</time>
      </trkpt>
      <trkpt lat="45.582368" lon="10.163153">
        <ele>151.985857</ele>
        <time>2021-01-21T14:17:07.327Z</time>
      </trkpt>
      <trkpt lat="45.582396" lon="10.163133">
        <ele>152.024203</ele>
        <time>2021-01-21T14:17:07.928Z</time>
      </trkpt>
      <trkpt lat="45.582423" lon="10.163100">
        <ele>152.067728</ele>
        <time>2021-01-21T14:17:08.637Z</time>
      </trkpt>
      <trkpt lat="45.582453" lon="10.163029">
        <ele>152.138832</ele>
        <time>2021-01-21T14:17:09.797Z</time>
      </trkpt>
      <trkpt lat="45.582457" lon="10.162931">
        <ele>152.222994</ele>
        <time>2021-01-21T14:17:11.084Z</time>
      </trkpt>
      <trkpt lat="45.582434" lon="10.162855">
        <ele>152.293982</ele>
        <time>2021-01-21T14:17:12.172Z</time>
      </trkpt>
      <trkpt lat="45.582424" lon="10.162668">
        <ele>152.454772</ele>
        <time>2021-01-21T14:17:14.698Z</time>
      </trkpt>
      <trkpt lat="45.582438" lon="10.162509">
        <ele>152.592164</ele>
        <time>2021-01-21T14:17:17.015Z</time>
      </trkpt>
      <trkpt lat="45.582513" lon="10.162307">
        <ele>152.788207</ele>
        <time>2021-01-21T14:17:20.196Z</time>
      </trkpt>
      <trkpt lat="45.582739" lon="10.161790">
        <ele>153.396678</ele>
        <time>2021-01-21T14:17:29.190Z</time>
      </trkpt>
      <trkpt lat="45.582762" lon="10.161730">
        <ele>153.472719</ele>
        <time>2021-01-21T14:17:30.152Z</time>
      </trkpt>
      <trkpt lat="45.583030" lon="10.161162">
        <ele>154.234156</ele>
        <time>2021-01-21T14:17:40.165Z</time>
      </trkpt>
      <trkpt lat="45.583156" lon="10.160915">
        <ele>154.573898</ele>
        <time>2021-01-21T14:17:44.814Z</time>
      </trkpt>
      <trkpt lat="45.583272" lon="10.160695">
        <ele>154.880070</ele>
        <time>2021-01-21T14:17:48.841Z</time>
      </trkpt>
      <trkpt lat="45.583298" lon="10.160645">
        <ele>154.949309</ele>
        <time>2021-01-21T14:17:49.829Z</time>
      </trkpt>
      <trkpt lat="45.583497" lon="10.160288">
        <ele>155.456612</ele>
        <time>2021-01-21T14:17:56.691Z</time>
      </trkpt>
      <trkpt lat="45.583596" lon="10.160102">
        <ele>155.716354</ele>
        <time>2021-01-21T14:18:00.339Z</time>
      </trkpt>
      <trkpt lat="45.583864" lon="10.159632">
        <ele>156.336538</ele>
        <time>2021-01-21T14:18:09.596Z</time>
      </trkpt>
      <trkpt lat="45.584367" lon="10.158740">
        <ele>157.476421</ele>
        <time>2021-01-21T14:18:25.972Z</time>
      </trkpt>
      <trkpt lat="45.584940" lon="10.157748">
        <ele>158.803768</ele>
        <time>2021-01-21T14:18:43.781Z</time>
      </trkpt>
      <trkpt lat="45.585285" lon="10.157312">
        <ele>159.555393</ele>
        <time>2021-01-21T14:18:53.096Z</time>
      </trkpt>
      <trkpt lat="45.585551" lon="10.157051">
        <ele>160.081975</ele>
        <time>2021-01-21T14:18:59.897Z</time>
      </trkpt>
      <trkpt lat="45.585710" lon="10.156924">
        <ele>160.379238</ele>
        <time>2021-01-21T14:19:03.775Z</time>
      </trkpt>
      <trkpt lat="45.585886" lon="10.156811">
        <ele>160.694117</ele>
        <time>2021-01-21T14:19:08.046Z</time>
      </trkpt>
      <trkpt lat="45.585942" lon="10.156791">
        <ele>160.788316</ele>
        <time>2021-01-21T14:19:09.339Z</time>
      </trkpt>
      <trkpt lat="45.586026" lon="10.156668">
        <ele>160.984593</ele>
        <time>2021-01-21T14:19:11.983Z</time>
      </trkpt>
      <trkpt lat="45.586068" lon="10.156634">
        <ele>161.063368</ele>
        <time>2021-01-21T14:19:13.169Z</time>
      </trkpt>
      <trkpt lat="45.586118" lon="10.156645">
        <ele>161.145926</ele>
        <time>2021-01-21T14:19:14.377Z</time>
      </trkpt>
      <trkpt lat="45.586216" lon="10.156607">
        <ele>161.311637</ele>
        <time>2021-01-21T14:19:16.587Z</time>
      </trkpt>
      <trkpt lat="45.586279" lon="10.156494">
        <ele>161.530396</ele>
        <time>2021-01-21T14:19:18.872Z</time>
      </trkpt>
      <trkpt lat="45.586288" lon="10.156388">
        <ele>161.714060</ele>
        <time>2021-01-21T14:19:20.683Z</time>
      </trkpt>
      <trkpt lat="45.586347" lon="10.156314">
        <ele>161.907009</ele>
        <time>2021-01-21T14:19:22.671Z</time>
      </trkpt>
      <trkpt lat="45.586500" lon="10.156214">
        <ele>162.320525</ele>
        <time>2021-01-21T14:19:26.539Z</time>
      </trkpt>
      <trkpt lat="45.586566" lon="10.156174">
        <ele>162.496728</ele>
        <time>2021-01-21T14:19:28.307Z</time>
      </trkpt>
      <trkpt lat="45.586761" lon="10.156180">
        <ele>162.976112</ele>
        <time>2021-01-21T14:19:33.349Z</time>
      </trkpt>
      <trkpt lat="45.586909" lon="10.156185">
        <ele>163.339970</ele>
        <time>2021-01-21T14:19:37.121Z</time>
      </trkpt>
      <trkpt lat="45.587729" lon="10.156209">
        <ele>165.355796</ele>
        <time>2021-01-21T14:19:58.112Z</time>
      </trkpt>
      <trkpt lat="45.587956" lon="10.156216">
        <ele>165.897064</ele>
        <time>2021-01-21T14:20:03.593Z</time>
      </trkpt>
      <trkpt lat="45.588608" lon="10.156206">
        <ele>167.280452</ele>
        <time>2021-01-21T14:20:19.441Z</time>
      </trkpt>
      <trkpt lat="45.588947" lon="10.156212">
        <ele>167.999743</ele>
        <time>2021-01-21T14:20:27.430Z</time>
      </trkpt>
      <trkpt lat="45.589203" lon="10.156222">
        <ele>168.543086</ele>
        <time>2021-01-21T14:20:33.233Z</time>
      </trkpt>
      <trkpt lat="45.590629" lon="10.156312">
        <ele>171.372867</ele>
        <time>2021-01-21T14:21:04.450Z</time>
      </trkpt>
      <trkpt lat="45.591342" lon="10.156380">
        <ele>172.735655</ele>
        <time>2021-01-21T14:21:20.398Z</time>
      </trkpt>
      <trkpt lat="45.591517" lon="10.156394">
        <ele>173.073837</ele>
        <time>2021-01-21T14:21:25.057Z</time>
      </trkpt>
      <trkpt lat="45.591619" lon="10.156367">
        <ele>173.295499</ele>
        <time>2021-01-21T14:21:27.354Z</time>
      </trkpt>
      <trkpt lat="45.592118" lon="10.156306">
        <ele>174.365660</ele>
        <time>2021-01-21T14:21:38.840Z</time>
      </trkpt>
      <trkpt lat="45.592192" lon="10.156318">
        <ele>174.524798</ele>
        <time>2021-01-21T14:21:41.048Z</time>
      </trkpt>
      <trkpt lat="45.592478" lon="10.156215">
        <ele>175.155032</ele>
        <time>2021-01-21T14:21:47.533Z</time>
      </trkpt>
      <trkpt lat="45.592533" lon="10.156203">
        <ele>175.273919</ele>
        <time>2021-01-21T14:21:49.514Z</time>
      </trkpt>
      <trkpt lat="45.592547" lon="10.156216">
        <ele>175.309594</ele>
        <time>2021-01-21T14:21:49.968Z</time>
      </trkpt>
      <trkpt lat="45.592596" lon="10.156228">
        <ele>175.415824</ele>
        <time>2021-01-21T14:21:51.008Z</time>
      </trkpt>
      <trkpt lat="45.592612" lon="10.156222">
        <ele>175.451171</ele>
        <time>2021-01-21T14:21:51.396Z</time>
      </trkpt>
      <trkpt lat="45.592671" lon="10.156220">
        <ele>175.577278</ele>
        <time>2021-01-21T14:21:52.661Z</time>
      </trkpt>
      <trkpt lat="45.592773" lon="10.156223">
        <ele>175.795278</ele>
        <time>2021-01-21T14:21:54.543Z</time>
      </trkpt>
      <trkpt lat="45.592811" lon="10.156213">
        <ele>175.877842</ele>
        <time>2021-01-21T14:21:55.510Z</time>
      </trkpt>
      <trkpt lat="45.593011" lon="10.156193">
        <ele>176.306248</ele>
        <time>2021-01-21T14:22:00.672Z</time>
      </trkpt>
      <trkpt lat="45.593415" lon="10.156102">
        <ele>177.150991</ele>
        <time>2021-01-21T14:22:09.848Z</time>
      </trkpt>
      <trkpt lat="45.593841" lon="10.155875">
        <ele>178.027799</ele>
        <time>2021-01-21T14:22:19.878Z</time>
      </trkpt>
      <trkpt lat="45.593885" lon="10.155855">
        <ele>178.116843</ele>
        <time>2021-01-21T14:22:21.044Z</time>
      </trkpt>
      <trkpt lat="45.593923" lon="10.155847">
        <ele>178.190918</ele>
        <time>2021-01-21T14:22:22.238Z</time>
      </trkpt>
      <trkpt lat="45.594474" lon="10.155749">
        <ele>179.261738</ele>
        <time>2021-01-21T14:22:34.194Z</time>
      </trkpt>
      <trkpt lat="45.594586" lon="10.155698">
        <ele>179.488433</ele>
        <time>2021-01-21T14:22:36.837Z</time>
      </trkpt>
      <trkpt lat="45.594898" lon="10.155549">
        <ele>180.122842</ele>
        <time>2021-01-21T14:22:44.152Z</time>
      </trkpt>
      <trkpt lat="45.595468" lon="10.155422">
        <ele>181.279810</ele>
        <time>2021-01-21T14:22:57.595Z</time>
      </trkpt>
      <trkpt lat="45.595702" lon="10.155380">
        <ele>181.757440</ele>
        <time>2021-01-21T14:23:02.901Z</time>
      </trkpt>
      <trkpt lat="45.595875" lon="10.155360">
        <ele>182.108951</ele>
        <time>2021-01-21T14:23:06.938Z</time>
      </trkpt>
      <trkpt lat="45.597786" lon="10.155569">
        <ele>185.847121</ele>
        <time>2021-01-21T14:23:50.812Z</time>
      </trkpt>
      <trkpt lat="45.597835" lon="10.155558">
        <ele>185.940366</ele>
        <time>2021-01-21T14:23:52.213Z</time>
      </trkpt>
      <trkpt lat="45.597885" lon="10.155439">
        <ele>186.122949</ele>
        <time>2021-01-21T14:23:54.189Z</time>
      </trkpt>
      <trkpt lat="45.597886" lon="10.155051">
        <ele>186.633314</ele>
        <time>2021-01-21T14:23:59.727Z</time>
      </trkpt>
      <trkpt lat="45.597769" lon="10.154027">
        <ele>188.108723</ele>
        <time>2021-01-21T14:24:15.736Z</time>
      </trkpt>
      <trkpt lat="45.597757" lon="10.153308">
        <ele>189.222312</ele>
        <time>2021-01-21T14:24:27.315Z</time>
      </trkpt>
      <trkpt lat="45.597760" lon="10.153284">
        <ele>189.260062</ele>
        <time>2021-01-21T14:24:27.679Z</time>
      </trkpt>
      <trkpt lat="45.597788" lon="10.153147">
        <ele>189.481051</ele>
        <time>2021-01-21T14:24:29.847Z</time>
      </trkpt>
      <trkpt lat="45.597831" lon="10.153053">
        <ele>189.654943</ele>
        <time>2021-01-21T14:24:31.606Z</time>
      </trkpt>
      <trkpt lat="45.597849" lon="10.153040">
        <ele>189.699572</ele>
        <time>2021-01-21T14:24:32.048Z</time>
      </trkpt>
      <trkpt lat="45.597864" lon="10.153021">
        <ele>189.743927</ele>
        <time>2021-01-21T14:24:32.497Z</time>
      </trkpt>
      <trkpt lat="45.597874" lon="10.153001">
        <ele>189.781988</ele>
        <time>2021-01-21T14:24:32.866Z</time>
      </trkpt>
      <trkpt lat="45.597895" lon="10.152963">
        <ele>189.856964</ele>
        <time>2021-01-21T14:24:33.734Z</time>
      </trkpt>
      <trkpt lat="45.597987" lon="10.152902">
        <ele>190.081395</ele>
        <time>2021-01-21T14:24:36.143Z</time>
      </trkpt>
      <trkpt lat="45.598045" lon="10.152868">
        <ele>190.220122</ele>
        <time>2021-01-21T14:24:37.768Z</time>
      </trkpt>
      <trkpt lat="45.598574" lon="10.152710">
        <ele>191.448125</ele>
        <time>2021-01-21T14:24:51.444Z</time>
      </trkpt>
      <trkpt lat="45.598848" lon="10.152588">
        <ele>192.410289</ele>
        <time>2021-01-21T14:24:58.998Z</time>
      </trkpt>
      <trkpt lat="45.599207" lon="10.152206">
        <ele>193.910816</ele>
        <time>2021-01-21T14:25:11.692Z</time>
      </trkpt>
      <trkpt lat="45.599406" lon="10.151975">
        <ele>194.770313</ele>
        <time>2021-01-21T14:25:19.260Z</time>
      </trkpt>
      <trkpt lat="45.599551" lon="10.151815">
        <ele>195.384466</ele>
        <time>2021-01-21T14:25:24.316Z</time>
      </trkpt>
      <trkpt lat="45.599747" lon="10.151674">
        <ele>196.120124</ele>
        <time>2021-01-21T14:25:30.698Z</time>
      </trkpt>
      <trkpt lat="45.599787" lon="10.151660">
        <ele>196.258191</ele>
        <time>2021-01-21T14:25:31.807Z</time>
      </trkpt>
      <trkpt lat="45.599866" lon="10.151670">
        <ele>196.524085</ele>
        <time>2021-01-21T14:25:34.044Z</time>
      </trkpt>
      <trkpt lat="45.600027" lon="10.151732">
        <ele>197.083106</ele>
        <time>2021-01-21T14:25:39.081Z</time>
      </trkpt>
      <trkpt lat="45.600071" lon="10.151776">
        <ele>197.263143</ele>
        <time>2021-01-21T14:25:40.760Z</time>
      </trkpt>
      <trkpt lat="45.600085" lon="10.151823">
        <ele>197.382966</ele>
        <time>2021-01-21T14:25:41.678Z</time>
      </trkpt>
      <trkpt lat="45.600111" lon="10.151856">
        <ele>197.534467</ele>
        <time>2021-01-21T14:25:42.672Z</time>
      </trkpt>
      <trkpt lat="45.600131" lon="10.151868">
        <ele>197.629154</ele>
        <time>2021-01-21T14:25:43.327Z</time>
      </trkpt>
      <trkpt lat="45.600173" lon="10.151867">
        <ele>197.812523</ele>
        <time>2021-01-21T14:25:44.618Z</time>
      </trkpt>
      <trkpt lat="45.600192" lon="10.151855">
        <ele>197.903201</ele>
        <time>2021-01-21T14:25:45.301Z</time>
      </trkpt>
      <trkpt lat="45.600214" lon="10.151827">
        <ele>198.031796</ele>
        <time>2021-01-21T14:25:46.169Z</time>
      </trkpt>
      <trkpt lat="45.600227" lon="10.151791">
        <ele>198.155530</ele>
        <time>2021-01-21T14:25:46.938Z</time>
      </trkpt>
      <trkpt lat="45.600231" lon="10.151750">
        <ele>198.281966</ele>
        <time>2021-01-21T14:25:47.779Z</time>
      </trkpt>
      <trkpt lat="45.600317" lon="10.151757">
        <ele>198.657992</ele>
        <time>2021-01-21T14:25:50.679Z</time>
      </trkpt>
      <trkpt lat="45.600766" lon="10.151800">
        <ele>200.622417</ele>
        <time>2021-01-21T14:26:03.940Z</time>
      </trkpt>
      <trkpt lat="45.601195" lon="10.151798">
        <ele>202.495151</ele>
        <time>2021-01-21T14:26:17.023Z</time>
      </trkpt>
      <trkpt lat="45.601591" lon="10.151761">
        <ele>204.227509</ele>
        <time>2021-01-21T14:26:30.119Z</time>
      </trkpt>
      <trkpt lat="45.602391" lon="10.151580">
        <ele>209.104179</ele>
        <time>2021-01-21T14:27:01.636Z</time>
      </trkpt>
      <trkpt lat="45.602433" lon="10.151579">
        <ele>209.384826</ele>
        <time>2021-01-21T14:27:04.124Z</time>
      </trkpt>
      <trkpt lat="45.602485" lon="10.151582">
        <ele>209.732528</ele>
        <time>2021-01-21T14:27:06.150Z</time>
      </trkpt>
      <trkpt lat="45.602502" lon="10.151583">
        <ele>209.846203</ele>
        <time>2021-01-21T14:27:06.902Z</time>
      </trkpt>
      <trkpt lat="45.602697" lon="10.151485">
        <ele>211.227212</ele>
        <time>2021-01-21T14:27:15.404Z</time>
      </trkpt>
      <trkpt lat="45.603538" lon="10.151112">
        <ele>217.110337</ele>
        <time>2021-01-21T14:27:54.675Z</time>
      </trkpt>
      <trkpt lat="45.603779" lon="10.151013">
        <ele>218.394635</ele>
        <time>2021-01-21T14:28:05.439Z</time>
      </trkpt>
      <trkpt lat="45.604167" lon="10.150835">
        <ele>220.422752</ele>
        <time>2021-01-21T14:28:22.293Z</time>
      </trkpt>
      <trkpt lat="45.604327" lon="10.150786">
        <ele>221.237151</ele>
        <time>2021-01-21T14:28:28.097Z</time>
      </trkpt>
      <trkpt lat="45.604405" lon="10.150790">
        <ele>221.625610</ele>
        <time>2021-01-21T14:28:31.387Z</time>
      </trkpt>
      <trkpt lat="45.604571" lon="10.150800">
        <ele>222.452531</ele>
        <time>2021-01-21T14:28:37.155Z</time>
      </trkpt>
      <trkpt lat="45.604760" lon="10.150811">
        <ele>223.393971</ele>
        <time>2021-01-21T14:28:43.534Z</time>
      </trkpt>
      <trkpt lat="45.604977" lon="10.150823">
        <ele>224.474796</ele>
        <time>2021-01-21T14:28:49.655Z</time>
      </trkpt>
      <trkpt lat="45.605030" lon="10.150825">
        <ele>224.738671</ele>
        <time>2021-01-21T14:28:50.970Z</time>
      </trkpt>
      <trkpt lat="45.605362" lon="10.150803">
        <ele>226.248683</ele>
        <time>2021-01-21T14:28:59.815Z</time>
      </trkpt>
      <trkpt lat="45.605806" lon="10.150913">
        <ele>226.774962</ele>
        <time>2021-01-21T14:29:09.295Z</time>
      </trkpt>
      <trkpt lat="45.605961" lon="10.150821">
        <ele>226.970972</ele>
        <time>2021-01-21T14:29:12.795Z</time>
      </trkpt>
      <trkpt lat="45.606174" lon="10.150544">
        <ele>227.307283</ele>
        <time>2021-01-21T14:29:18.173Z</time>
      </trkpt>
      <trkpt lat="45.606437" lon="10.150566">
        <ele>227.614966</ele>
        <time>2021-01-21T14:29:22.051Z</time>
      </trkpt>
      <trkpt lat="45.606437" lon="10.150566">
        <ele>227.614966</ele>
        <time>2021-01-21T14:29:22.111Z</time>
      </trkpt>
      <trkpt lat="45.606476" lon="10.150573">
        <ele>227.660872</ele>
        <time>2021-01-21T14:29:22.960Z</time>
      </trkpt>
      <trkpt lat="45.606616" lon="10.150629">
        <ele>227.830659</ele>
        <time>2021-01-21T14:29:24.894Z</time>
      </trkpt>
      <trkpt lat="45.606840" lon="10.150669">
        <ele>228.094302</ele>
        <time>2021-01-21T14:29:28.953Z</time>
      </trkpt>
      <trkpt lat="45.606950" lon="10.150659">
        <ele>228.223031</ele>
        <time>2021-01-21T14:29:30.503Z</time>
      </trkpt>
      <trkpt lat="45.607078" lon="10.150656">
        <ele>228.403347</ele>
        <time>2021-01-21T14:29:32.732Z</time>
      </trkpt>
      <trkpt lat="45.607147" lon="10.150640">
        <ele>228.522289</ele>
        <time>2021-01-21T14:29:33.830Z</time>
      </trkpt>
      <trkpt lat="45.607173" lon="10.150635">
        <ele>228.566928</ele>
        <time>2021-01-21T14:29:34.663Z</time>
      </trkpt>
      <trkpt lat="45.607296" lon="10.150618">
        <ele>228.777194</ele>
        <time>2021-01-21T14:29:36.699Z</time>
      </trkpt>
      <trkpt lat="45.607311" lon="10.150626">
        <ele>228.804436</ele>
        <time>2021-01-21T14:29:36.917Z</time>
      </trkpt>
      <trkpt lat="45.607541" lon="10.150751">
        <ele>229.223123</ele>
        <time>2021-01-21T14:29:41.788Z</time>
      </trkpt>
      <trkpt lat="45.607785" lon="10.150836">
        <ele>229.650452</ele>
        <time>2021-01-21T14:29:46.931Z</time>
      </trkpt>
      <trkpt lat="45.608037" lon="10.150904">
        <ele>230.086815</ele>
        <time>2021-01-21T14:29:52.786Z</time>
      </trkpt>
      <trkpt lat="45.608593" lon="10.150980">
        <ele>231.037190</ele>
        <time>2021-01-21T14:30:05.681Z</time>
      </trkpt>
      <trkpt lat="45.608966" lon="10.151010">
        <ele>232.019225</ele>
        <time>2021-01-21T14:30:15.227Z</time>
      </trkpt>
      <trkpt lat="45.609073" lon="10.151009">
        <ele>232.406522</ele>
        <time>2021-01-21T14:30:17.994Z</time>
      </trkpt>
      <trkpt lat="45.609264" lon="10.150964">
        <ele>233.107179</ele>
        <time>2021-01-21T14:30:23.343Z</time>
      </trkpt>
      <trkpt lat="45.610031" lon="10.150831">
        <ele>235.903705</ele>
        <time>2021-01-21T14:30:45.945Z</time>
      </trkpt>
      <trkpt lat="45.610241" lon="10.150863">
        <ele>236.668112</ele>
        <time>2021-01-21T14:30:52.577Z</time>
      </trkpt>
      <trkpt lat="45.610373" lon="10.150892">
        <ele>237.151499</ele>
        <time>2021-01-21T14:30:56.778Z</time>
      </trkpt>
      <trkpt lat="45.610466" lon="10.150912">
        <ele>237.491902</ele>
        <time>2021-01-21T14:31:00.535Z</time>
      </trkpt>
      <trkpt lat="45.610753" lon="10.150955">
        <ele>238.871723</ele>
        <time>2021-01-21T14:31:09.521Z</time>
      </trkpt>
      <trkpt lat="45.610768" lon="10.150955">
        <ele>238.953577</ele>
        <time>2021-01-21T14:31:10.350Z</time>
      </trkpt>
      <trkpt lat="45.610887" lon="10.150956">
        <ele>239.602965</ele>
        <time>2021-01-21T14:31:14.204Z</time>
      </trkpt>
      <trkpt lat="45.611034" lon="10.150930">
        <ele>240.411252</ele>
        <time>2021-01-21T14:31:18.223Z</time>
      </trkpt>
      <trkpt lat="45.611148" lon="10.150900">
        <ele>241.043797</ele>
        <time>2021-01-21T14:31:22.838Z</time>
      </trkpt>
      <trkpt lat="45.611509" lon="10.150806">
        <ele>243.046166</ele>
        <time>2021-01-21T14:31:36.876Z</time>
      </trkpt>
      <trkpt lat="45.611541" lon="10.150803">
        <ele>243.221163</ele>
        <time>2021-01-21T14:31:38.384Z</time>
      </trkpt>
      <trkpt lat="45.611776" lon="10.150785">
        <ele>244.505385</ele>
        <time>2021-01-21T14:31:46.820Z</time>
      </trkpt>
      <trkpt lat="45.612036" lon="10.150766">
        <ele>245.926043</ele>
        <time>2021-01-21T14:31:56.543Z</time>
      </trkpt>
      <trkpt lat="45.612516" lon="10.150610">
        <ele>248.940390</ele>
        <time>2021-01-21T14:32:14.871Z</time>
      </trkpt>
      <trkpt lat="45.612595" lon="10.150572">
        <ele>249.557263</ele>
        <time>2021-01-21T14:32:19.426Z</time>
      </trkpt>
      <trkpt lat="45.612613" lon="10.150564">
        <ele>249.696766</ele>
        <time>2021-01-21T14:32:20.302Z</time>
      </trkpt>
      <trkpt lat="45.612687" lon="10.150541">
        <ele>250.257221</ele>
        <time>2021-01-21T14:32:23.454Z</time>
      </trkpt>
      <trkpt lat="45.612735" lon="10.150536">
        <ele>250.613401</ele>
        <time>2021-01-21T14:32:24.953Z</time>
      </trkpt>
      <trkpt lat="45.612767" lon="10.150533">
        <ele>250.850736</ele>
        <time>2021-01-21T14:32:27.053Z</time>
      </trkpt>
      <trkpt lat="45.613274" lon="10.150654">
        <ele>254.654875</ele>
        <time>2021-01-21T14:32:49.032Z</time>
      </trkpt>
      <trkpt lat="45.613898" lon="10.150448">
        <ele>259.394513</ele>
        <time>2021-01-21T14:33:17.833Z</time>
      </trkpt>
      <trkpt lat="45.613926" lon="10.150444">
        <ele>259.602768</ele>
        <time>2021-01-21T14:33:19.563Z</time>
      </trkpt>
      <trkpt lat="45.614092" lon="10.150469">
        <ele>260.838101</ele>
        <time>2021-01-21T14:33:28.751Z</time>
      </trkpt>
      <trkpt lat="45.615045" lon="10.150652">
        <ele>268.883043</ele>
        <time>2021-01-21T14:34:16.164Z</time>
      </trkpt>
      <trkpt lat="45.615420" lon="10.150618">
        <ele>272.035383</ele>
        <time>2021-01-21T14:34:35.693Z</time>
      </trkpt>
      <trkpt lat="45.615993" lon="10.150566">
        <ele>276.659865</ele>
        <time>2021-01-21T14:35:01.391Z</time>
      </trkpt>
      <trkpt lat="45.616199" lon="10.150546">
        <ele>277.953926</ele>
        <time>2021-01-21T14:35:11.227Z</time>
      </trkpt>
      <trkpt lat="45.616452" lon="10.150599">
        <ele>279.556512</ele>
        <time>2021-01-21T14:35:21.414Z</time>
      </trkpt>
      <trkpt lat="45.616806" lon="10.150880">
        <ele>282.094208</ele>
        <time>2021-01-21T14:35:38.669Z</time>
      </trkpt>
      <trkpt lat="45.617432" lon="10.151231">
        <ele>286.308544</ele>
        <time>2021-01-21T14:36:02.272Z</time>
      </trkpt>
      <trkpt lat="45.617591" lon="10.151270">
        <ele>287.319621</ele>
        <time>2021-01-21T14:36:10.116Z</time>
      </trkpt>
      <trkpt lat="45.617629" lon="10.151278">
        <ele>287.531462</ele>
        <time>2021-01-21T14:36:10.962Z</time>
      </trkpt>
      <trkpt lat="45.618142" lon="10.151449">
        <ele>290.345410</ele>
        <time>2021-01-21T14:36:27.373Z</time>
      </trkpt>
      <trkpt lat="45.618241" lon="10.151482">
        <ele>290.888453</ele>
        <time>2021-01-21T14:36:32.327Z</time>
      </trkpt>
      <trkpt lat="45.618751" lon="10.151978">
        <ele>294.183449</ele>
        <time>2021-01-21T14:36:54.608Z</time>
      </trkpt>
      <trkpt lat="45.618766" lon="10.152029">
        <ele>294.390166</ele>
        <time>2021-01-21T14:36:57.041Z</time>
      </trkpt>
      <trkpt lat="45.618826" lon="10.152019">
        <ele>294.712857</ele>
        <time>2021-01-21T14:36:59.403Z</time>
      </trkpt>
      <trkpt lat="45.618973" lon="10.151992">
        <ele>295.504586</ele>
        <time>2021-01-21T14:37:04.266Z</time>
      </trkpt>
      <trkpt lat="45.619188" lon="10.151989">
        <ele>296.653173</ele>
        <time>2021-01-21T14:37:12.753Z</time>
      </trkpt>
      <trkpt lat="45.619217" lon="10.151989">
        <ele>296.808091</ele>
        <time>2021-01-21T14:37:13.753Z</time>
      </trkpt>
      <trkpt lat="45.619243" lon="10.151989">
        <ele>296.946983</ele>
        <time>2021-01-21T14:37:14.809Z</time>
      </trkpt>
      <trkpt lat="45.619635" lon="10.152048">
        <ele>298.923521</ele>
        <time>2021-01-21T14:37:27.766Z</time>
      </trkpt>
      <trkpt lat="45.619696" lon="10.152052">
        <ele>299.229475</ele>
        <time>2021-01-21T14:37:29.406Z</time>
      </trkpt>
      <trkpt lat="45.619755" lon="10.152050">
        <ele>299.525170</ele>
        <time>2021-01-21T14:37:31.967Z</time>
      </trkpt>
      <trkpt lat="45.620087" lon="10.151796">
        <ele>301.411787</ele>
        <time>2021-01-21T14:37:44.559Z</time>
      </trkpt>
      <trkpt lat="45.620404" lon="10.151656">
        <ele>303.074120</ele>
        <time>2021-01-21T14:37:55.906Z</time>
      </trkpt>
      <trkpt lat="45.620462" lon="10.151632">
        <ele>303.376647</ele>
        <time>2021-01-21T14:37:58.960Z</time>
      </trkpt>
      <trkpt lat="45.620481" lon="10.151616">
        <ele>303.487128</ele>
        <time>2021-01-21T14:37:59.649Z</time>
      </trkpt>
      <trkpt lat="45.620492" lon="10.151578">
        <ele>303.631246</ele>
        <time>2021-01-21T14:38:00.496Z</time>
      </trkpt>
      <trkpt lat="45.620486" lon="10.151535">
        <ele>303.784900</ele>
        <time>2021-01-21T14:38:00.761Z</time>
      </trkpt>
      <trkpt lat="45.620425" lon="10.151467">
        <ele>304.172450</ele>
        <time>2021-01-21T14:38:03.339Z</time>
      </trkpt>
      <trkpt lat="45.620324" lon="10.151484">
        <ele>304.681992</ele>
        <time>2021-01-21T14:38:07.542Z</time>
      </trkpt>
      <trkpt lat="45.619821" lon="10.151693">
        <ele>307.666505</ele>
        <time>2021-01-21T14:38:27.650Z</time>
      </trkpt>
      <trkpt lat="45.619718" lon="10.151665">
        <ele>308.334932</ele>
        <time>2021-01-21T14:38:29.971Z</time>
      </trkpt>
      <trkpt lat="45.619712" lon="10.151610">
        <ele>308.583145</ele>
        <time>2021-01-21T14:38:31.131Z</time>
      </trkpt>
      <trkpt lat="45.619719" lon="10.151603">
        <ele>308.637605</ele>
        <time>2021-01-21T14:38:31.203Z</time>
      </trkpt>
      <trkpt lat="45.619743" lon="10.151572">
        <ele>308.843807</ele>
        <time>2021-01-21T14:38:34.607Z</time>
      </trkpt>
      <trkpt lat="45.620349" lon="10.151215">
        <ele>313.022380</ele>
        <time>2021-01-21T14:38:59.361Z</time>
      </trkpt>
      <trkpt lat="45.620660" lon="10.151208">
        <ele>315.005365</ele>
        <time>2021-01-21T14:39:12.750Z</time>
      </trkpt>
      <trkpt lat="45.621379" lon="10.151038">
        <ele>319.832550</ele>
        <time>2021-01-21T14:39:47.888Z</time>
      </trkpt>
      <trkpt lat="45.622368" lon="10.150965">
        <ele>326.665853</ele>
        <time>2021-01-21T14:40:29.978Z</time>
      </trkpt>
      <trkpt lat="45.622417" lon="10.150906">
        <ele>327.107875</ele>
        <time>2021-01-21T14:40:32.448Z</time>
      </trkpt>
      <trkpt lat="45.622396" lon="10.150845">
        <ele>327.435981</ele>
        <time>2021-01-21T14:40:34.306Z</time>
      </trkpt>
      <trkpt lat="45.622108" lon="10.150875">
        <ele>329.428481</ele>
        <time>2021-01-21T14:40:44.629Z</time>
      </trkpt>
      <trkpt lat="45.620724" lon="10.150573">
        <ele>338.870030</ele>
        <time>2021-01-21T14:41:40.499Z</time>
      </trkpt>
      <trkpt lat="45.620702" lon="10.150532">
        <ele>339.113504</ele>
        <time>2021-01-21T14:41:41.578Z</time>
      </trkpt>
      <trkpt lat="45.620712" lon="10.150475">
        <ele>339.390382</ele>
        <time>2021-01-21T14:41:45.273Z</time>
      </trkpt>
      <trkpt lat="45.621034" lon="10.150406">
        <ele>341.583757</ele>
        <time>2021-01-21T14:41:57.039Z</time>
      </trkpt>
      <trkpt lat="45.622188" lon="10.150432">
        <ele>352.636666</ele>
        <time>2021-01-21T14:42:58.084Z</time>
      </trkpt>
      <trkpt lat="45.622703" lon="10.150242">
        <ele>357.811193</ele>
        <time>2021-01-21T14:43:28.456Z</time>
      </trkpt>
      <trkpt lat="45.622764" lon="10.150208">
        <ele>358.448158</ele>
        <time>2021-01-21T14:43:32.454Z</time>
      </trkpt>
      <trkpt lat="45.622739" lon="10.150103">
        <ele>359.202871</ele>
        <time>2021-01-21T14:43:37.196Z</time>
      </trkpt>
      <trkpt lat="45.622398" lon="10.150228">
        <ele>363.247238</ele>
        <time>2021-01-21T14:43:58.344Z</time>
      </trkpt>
      <trkpt lat="45.622166" lon="10.150250">
        <ele>365.954271</ele>
        <time>2021-01-21T14:44:12.306Z</time>
      </trkpt>
      <trkpt lat="45.622141" lon="10.150184">
        <ele>366.565451</ele>
        <time>2021-01-21T14:44:15.622Z</time>
      </trkpt>
      <trkpt lat="45.622313" lon="10.150035">
        <ele>368.906855</ele>
        <time>2021-01-21T14:44:28.248Z</time>
      </trkpt>
      <trkpt lat="45.622915" lon="10.149816">
        <ele>376.139036</ele>
        <time>2021-01-21T14:45:06.499Z</time>
      </trkpt>
      <trkpt lat="45.622995" lon="10.149642">
        <ele>377.834588</ele>
        <time>2021-01-21T14:45:15.623Z</time>
      </trkpt>
      <trkpt lat="45.622980" lon="10.149219">
        <ele>381.174529</ele>
        <time>2021-01-21T14:45:34.717Z</time>
      </trkpt>
      <trkpt lat="45.623043" lon="10.149026">
        <ele>382.690403</ele>
        <time>2021-01-21T14:45:45.091Z</time>
      </trkpt>
      <trkpt lat="45.623176" lon="10.148959">
        <ele>384.125424</ele>
        <time>2021-01-21T14:45:53.927Z</time>
      </trkpt>
      <trkpt lat="45.623579" lon="10.149263">
        <ele>388.762291</ele>
        <time>2021-01-21T14:46:20.845Z</time>
      </trkpt>
      <trkpt lat="45.623687" lon="10.149280">
        <ele>389.867994</ele>
        <time>2021-01-21T14:46:28.021Z</time>
      </trkpt>
      <trkpt lat="45.623759" lon="10.149229">
        <ele>390.685681</ele>
        <time>2021-01-21T14:46:32.119Z</time>
      </trkpt>
      <trkpt lat="45.623831" lon="10.149048">
        <ele>392.167678</ele>
        <time>2021-01-21T14:46:39.378Z</time>
      </trkpt>
      <trkpt lat="45.623868" lon="10.148984">
        <ele>392.758652</ele>
        <time>2021-01-21T14:46:42.066Z</time>
      </trkpt>
      <trkpt lat="45.623916" lon="10.148901">
        <ele>393.525173</ele>
        <time>2021-01-21T14:46:47.209Z</time>
      </trkpt>
      <trkpt lat="45.624002" lon="10.148807">
        <ele>394.626767</ele>
        <time>2021-01-21T14:46:52.371Z</time>
      </trkpt>
      <trkpt lat="45.624278" lon="10.148768">
        <ele>397.449166</ele>
        <time>2021-01-21T14:47:05.970Z</time>
      </trkpt>
      <trkpt lat="45.624443" lon="10.148784">
        <ele>398.917567</ele>
        <time>2021-01-21T14:47:13.462Z</time>
      </trkpt>
      <trkpt lat="45.624708" lon="10.148750">
        <ele>400.204382</ele>
        <time>2021-01-21T14:47:25.320Z</time>
      </trkpt>
      <trkpt lat="45.624900" lon="10.148802">
        <ele>401.149495</ele>
        <time>2021-01-21T14:47:32.705Z</time>
      </trkpt>
      <trkpt lat="45.625146" lon="10.148978">
        <ele>402.479887</ele>
        <time>2021-01-21T14:47:43.849Z</time>
      </trkpt>
      <trkpt lat="45.625455" lon="10.148972">
        <ele>403.974495</ele>
        <time>2021-01-21T14:47:55.431Z</time>
      </trkpt>
      <trkpt lat="45.625743" lon="10.148801">
        <ele>405.482710</ele>
        <time>2021-01-21T14:48:03.759Z</time>
      </trkpt>
      <trkpt lat="45.625998" lon="10.148789">
        <ele>406.716679</ele>
        <time>2021-01-21T14:48:09.973Z</time>
      </trkpt>
      <trkpt lat="45.626347" lon="10.148877">
        <ele>407.923647</ele>
        <time>2021-01-21T14:48:16.742Z</time>
      </trkpt>
      <trkpt lat="45.626511" lon="10.148949">
        <ele>408.336176</ele>
        <time>2021-01-21T14:48:19.943Z</time>
      </trkpt>
      <trkpt lat="45.626638" lon="10.148983">
        <ele>408.646871</ele>
        <time>2021-01-21T14:48:22.006Z</time>
      </trkpt>
      <trkpt lat="45.627177" lon="10.149052">
        <ele>409.948155</ele>
        <time>2021-01-21T14:48:33.200Z</time>
      </trkpt>
      <trkpt lat="45.628253" lon="10.149313">
        <ele>413.941254</ele>
        <time>2021-01-21T14:49:03.949Z</time>
      </trkpt>
      <trkpt lat="45.628312" lon="10.149298">
        <ele>414.324393</ele>
        <time>2021-01-21T14:49:07.393Z</time>
      </trkpt>
      <trkpt lat="45.628351" lon="10.149254">
        <ele>414.642007</ele>
        <time>2021-01-21T14:49:10.068Z</time>
      </trkpt>
      <trkpt lat="45.628334" lon="10.149156">
        <ele>415.093457</ele>
        <time>2021-01-21T14:49:12.015Z</time>
      </trkpt>
      <trkpt lat="45.628049" lon="10.149067">
        <ele>416.958585</ele>
        <time>2021-01-21T14:49:23.635Z</time>
      </trkpt>
      <trkpt lat="45.627861" lon="10.148930">
        <ele>418.307667</ele>
        <time>2021-01-21T14:49:29.875Z</time>
      </trkpt>
      <trkpt lat="45.627807" lon="10.148885">
        <ele>418.707272</ele>
        <time>2021-01-21T14:49:32.760Z</time>
      </trkpt>
      <trkpt lat="45.627769" lon="10.148854">
        <ele>418.986987</ele>
        <time>2021-01-21T14:49:36.195Z</time>
      </trkpt>
      <trkpt lat="45.627454" lon="10.148792">
        <ele>421.019968</ele>
        <time>2021-01-21T14:49:48.967Z</time>
      </trkpt>
      <trkpt lat="45.627392" lon="10.148728">
        <ele>421.508867</ele>
        <time>2021-01-21T14:49:54.511Z</time>
      </trkpt>
      <trkpt lat="45.627499" lon="10.148632">
        <ele>422.316493</ele>
        <time>2021-01-21T14:49:59.611Z</time>
      </trkpt>
      <trkpt lat="45.627711" lon="10.148590">
        <ele>423.843224</ele>
        <time>2021-01-21T14:50:11.376Z</time>
      </trkpt>
      <trkpt lat="45.628429" lon="10.148728">
        <ele>430.150941</ele>
        <time>2021-01-21T14:50:48.757Z</time>
      </trkpt>
      <trkpt lat="45.628851" lon="10.148878">
        <ele>433.937030</ele>
        <time>2021-01-21T14:51:09.738Z</time>
      </trkpt>
      <trkpt lat="45.629116" lon="10.148861">
        <ele>436.246659</ele>
        <time>2021-01-21T14:51:22.619Z</time>
      </trkpt>
      <trkpt lat="45.630284" lon="10.149080">
        <ele>447.793262</ele>
        <time>2021-01-21T14:52:20.260Z</time>
      </trkpt>
      <trkpt lat="45.630727" lon="10.149324">
        <ele>452.628574</ele>
        <time>2021-01-21T14:52:48.269Z</time>
      </trkpt>
      <trkpt lat="45.631022" lon="10.149619">
        <ele>456.295078</ele>
        <time>2021-01-21T14:53:10.323Z</time>
      </trkpt>
      <trkpt lat="45.631236" lon="10.149785">
        <ele>459.581127</ele>
        <time>2021-01-21T14:53:24.781Z</time>
      </trkpt>
      <trkpt lat="45.631262" lon="10.149814">
        <ele>460.092038</ele>
        <time>2021-01-21T14:53:28.360Z</time>
      </trkpt>
      <trkpt lat="45.631568" lon="10.149939">
        <ele>465.023065</ele>
        <time>2021-01-21T14:53:48.961Z</time>
      </trkpt>
      <trkpt lat="45.631949" lon="10.149958">
        <ele>470.930137</ele>
        <time>2021-01-21T14:54:18.316Z</time>
      </trkpt>
      <trkpt lat="45.632165" lon="10.149917">
        <ele>474.306347</ele>
        <time>2021-01-21T14:54:36.168Z</time>
      </trkpt>
      <trkpt lat="45.632388" lon="10.149762">
        <ele>478.148173</ele>
        <time>2021-01-21T14:55:00.713Z</time>
      </trkpt>
      <trkpt lat="45.632764" lon="10.149400">
        <ele>485.171804</ele>
        <time>2021-01-21T14:55:38.303Z</time>
      </trkpt>
      <trkpt lat="45.633094" lon="10.148549">
        <ele>495.769830</ele>
        <time>2021-01-21T14:56:30.722Z</time>
      </trkpt>
      <trkpt lat="45.633224" lon="10.148350">
        <ele>498.735791</ele>
        <time>2021-01-21T14:56:38.594Z</time>
      </trkpt>
      <trkpt lat="45.633242" lon="10.148310">
        <ele>499.253843</ele>
        <time>2021-01-21T14:56:43.214Z</time>
      </trkpt>
      <trkpt lat="45.633241" lon="10.148243">
        <ele>499.983703</ele>
        <time>2021-01-21T14:56:44.574Z</time>
      </trkpt>
      <trkpt lat="45.633212" lon="10.148164">
        <ele>500.955443</ele>
        <time>2021-01-21T14:56:48.297Z</time>
      </trkpt>
      <trkpt lat="45.633153" lon="10.148186">
        <ele>501.905103</ele>
        <time>2021-01-21T14:56:51.712Z</time>
      </trkpt>
      <trkpt lat="45.632649" lon="10.149089">
        <ele>514.303018</ele>
        <time>2021-01-21T14:57:50.964Z</time>
      </trkpt>
      <trkpt lat="45.632589" lon="10.149106">
        <ele>515.127403</ele>
        <time>2021-01-21T14:57:51.527Z</time>
      </trkpt>
      <trkpt lat="45.632547" lon="10.149080">
        <ele>515.744229</ele>
        <time>2021-01-21T14:57:57.431Z</time>
      </trkpt>
      <trkpt lat="45.632540" lon="10.148977">
        <ele>516.719520</ele>
        <time>2021-01-21T14:57:59.610Z</time>
      </trkpt>
      <trkpt lat="45.632953" lon="10.148235">
        <ele>525.657347</ele>
        <time>2021-01-21T14:58:44.209Z</time>
      </trkpt>
      <trkpt lat="45.633166" lon="10.147694">
        <ele>531.508567</ele>
        <time>2021-01-21T14:59:12.846Z</time>
      </trkpt>
      <trkpt lat="45.633183" lon="10.147389">
        <ele>534.392106</ele>
        <time>2021-01-21T14:59:21.982Z</time>
      </trkpt>
      <trkpt lat="45.633135" lon="10.147340">
        <ele>535.186949</ele>
        <time>2021-01-21T14:59:28.539Z</time>
      </trkpt>
      <trkpt lat="45.633092" lon="10.147454">
        <ele>536.407668</ele>
        <time>2021-01-21T14:59:35.039Z</time>
      </trkpt>
      <trkpt lat="45.633095" lon="10.147706">
        <ele>538.184938</ele>
        <time>2021-01-21T14:59:45.894Z</time>
      </trkpt>
      <trkpt lat="45.633045" lon="10.147817">
        <ele>538.908794</ele>
        <time>2021-01-21T14:59:51.877Z</time>
      </trkpt>
      <trkpt lat="45.632964" lon="10.147767">
        <ele>539.600474</ele>
        <time>2021-01-21T14:59:57.548Z</time>
      </trkpt>
      <trkpt lat="45.633095" lon="10.146987">
        <ele>543.998198</ele>
        <time>2021-01-21T15:00:27.504Z</time>
      </trkpt>
      <trkpt lat="45.633094" lon="10.146578">
        <ele>546.240427</ele>
        <time>2021-01-21T15:00:40.352Z</time>
      </trkpt>
      <trkpt lat="45.633151" lon="10.146274">
        <ele>547.965886</ele>
        <time>2021-01-21T15:00:49.340Z</time>
      </trkpt>
      <trkpt lat="45.633374" lon="10.145616">
        <ele>551.608081</ele>
        <time>2021-01-21T15:01:03.634Z</time>
      </trkpt>
      <trkpt lat="45.633294" lon="10.144998">
        <ele>552.624104</ele>
        <time>2021-01-21T15:01:13.325Z</time>
      </trkpt>
      <trkpt lat="45.633398" lon="10.144708">
        <ele>553.150973</ele>
        <time>2021-01-21T15:01:17.588Z</time>
      </trkpt>
      <trkpt lat="45.633466" lon="10.144268">
        <ele>553.879433</ele>
        <time>2021-01-21T15:01:23.635Z</time>
      </trkpt>
      <trkpt lat="45.633607" lon="10.143970">
        <ele>554.461098</ele>
        <time>2021-01-21T15:01:28.436Z</time>
      </trkpt>
      <trkpt lat="45.633763" lon="10.143910">
        <ele>554.834567</ele>
        <time>2021-01-21T15:01:31.189Z</time>
      </trkpt>
      <trkpt lat="45.633820" lon="10.143928">
        <ele>554.969519</ele>
        <time>2021-01-21T15:01:32.185Z</time>
      </trkpt>
      <trkpt lat="45.634118" lon="10.144073">
        <ele>555.930960</ele>
        <time>2021-01-21T15:01:39.578Z</time>
      </trkpt>
      <trkpt lat="45.634587" lon="10.144543">
        <ele>560.932293</ele>
        <time>2021-01-21T15:02:02.346Z</time>
      </trkpt>
      <trkpt lat="45.635388" lon="10.144392">
        <ele>567.988070</ele>
        <time>2021-01-21T15:02:47.641Z</time>
      </trkpt>
      <trkpt lat="45.635568" lon="10.144349">
        <ele>569.581819</ele>
        <time>2021-01-21T15:03:00.251Z</time>
      </trkpt>
      <trkpt lat="45.635734" lon="10.144308">
        <ele>571.052984</ele>
        <time>2021-01-21T15:03:10.167Z</time>
      </trkpt>
      <trkpt lat="45.635959" lon="10.144419">
        <ele>573.493651</ele>
        <time>2021-01-21T15:03:25.837Z</time>
      </trkpt>
      <trkpt lat="45.636109" lon="10.144613">
        <ele>575.613028</ele>
        <time>2021-01-21T15:03:36.706Z</time>
      </trkpt>
      <trkpt lat="45.636184" lon="10.144712">
        <ele>576.682601</ele>
        <time>2021-01-21T15:03:44.872Z</time>
      </trkpt>
      <trkpt lat="45.636249" lon="10.144801">
        <ele>577.625624</ele>
        <time>2021-01-21T15:03:50.538Z</time>
      </trkpt>
      <trkpt lat="45.636502" lon="10.145123">
        <ele>581.174789</ele>
        <time>2021-01-21T15:04:11.292Z</time>
      </trkpt>
      <trkpt lat="45.636677" lon="10.145187">
        <ele>583.067731</ele>
        <time>2021-01-21T15:04:20.815Z</time>
      </trkpt>
      <trkpt lat="45.636786" lon="10.145203">
        <ele>584.216010</ele>
        <time>2021-01-21T15:04:29.217Z</time>
      </trkpt>
      <trkpt lat="45.636976" lon="10.145312">
        <ele>586.361351</ele>
        <time>2021-01-21T15:04:40.444Z</time>
      </trkpt>
      <trkpt lat="45.637216" lon="10.145668">
        <ele>589.984918</ele>
        <time>2021-01-21T15:04:56.472Z</time>
      </trkpt>
      <trkpt lat="45.637615" lon="10.145895">
        <ele>592.216072</ele>
        <time>2021-01-21T15:05:15.217Z</time>
      </trkpt>
      <trkpt lat="45.637697" lon="10.146079">
        <ele>592.974181</ele>
        <time>2021-01-21T15:05:19.872Z</time>
      </trkpt>
      <trkpt lat="45.637734" lon="10.146524">
        <ele>594.531187</ele>
        <time>2021-01-21T15:05:30.637Z</time>
      </trkpt>
      <trkpt lat="45.637679" lon="10.148120">
        <ele>599.844034</ele>
        <time>2021-01-21T15:06:03.765Z</time>
      </trkpt>
      <trkpt lat="45.637697" lon="10.148929">
        <ele>601.966955</ele>
        <time>2021-01-21T15:06:17.367Z</time>
      </trkpt>
      <trkpt lat="45.637743" lon="10.149097">
        <ele>602.440167</ele>
        <time>2021-01-21T15:06:21.969Z</time>
      </trkpt>
      <trkpt lat="45.637756" lon="10.149148">
        <ele>602.582542</ele>
        <time>2021-01-21T15:06:22.323Z</time>
      </trkpt>
      <trkpt lat="45.638139" lon="10.149431">
        <ele>604.199653</ele>
        <time>2021-01-21T15:06:33.612Z</time>
      </trkpt>
      <trkpt lat="45.638374" lon="10.149587">
        <ele>605.171506</ele>
        <time>2021-01-21T15:06:42.372Z</time>
      </trkpt>
      <trkpt lat="45.638587" lon="10.149761">
        <ele>606.279362</ele>
        <time>2021-01-21T15:06:50.901Z</time>
      </trkpt>
      <trkpt lat="45.638626" lon="10.149793">
        <ele>606.581721</ele>
        <time>2021-01-21T15:06:54.698Z</time>
      </trkpt>
      <trkpt lat="45.639049" lon="10.150176">
        <ele>609.948395</ele>
        <time>2021-01-21T15:07:15.899Z</time>
      </trkpt>
      <trkpt lat="45.639160" lon="10.150353">
        <ele>611.066327</ele>
        <time>2021-01-21T15:07:22.265Z</time>
      </trkpt>
      <trkpt lat="45.639177" lon="10.150378">
        <ele>611.230297</ele>
        <time>2021-01-21T15:07:24.309Z</time>
      </trkpt>
      <trkpt lat="45.639568" lon="10.150977">
        <ele>615.083290</ele>
        <time>2021-01-21T15:07:48.282Z</time>
      </trkpt>
      <trkpt lat="45.639655" lon="10.151064">
        <ele>615.797162</ele>
        <time>2021-01-21T15:07:53.017Z</time>
      </trkpt>
      <trkpt lat="45.639766" lon="10.151143">
        <ele>616.630921</ele>
        <time>2021-01-21T15:08:00.720Z</time>
      </trkpt>
      <trkpt lat="45.639988" lon="10.151367">
        <ele>618.116444</ele>
        <time>2021-01-21T15:08:11.087Z</time>
      </trkpt>
      <trkpt lat="45.640190" lon="10.151986">
        <ele>619.167564</ele>
        <time>2021-01-21T15:08:30.130Z</time>
      </trkpt>
      <trkpt lat="45.640387" lon="10.152239">
        <ele>619.750256</ele>
        <time>2021-01-21T15:08:38.444Z</time>
      </trkpt>
      <trkpt lat="45.640533" lon="10.152615">
        <ele>620.412057</ele>
        <time>2021-01-21T15:08:45.153Z</time>
      </trkpt>
      <trkpt lat="45.640719" lon="10.152595">
        <ele>620.822565</ele>
        <time>2021-01-21T15:08:48.654Z</time>
      </trkpt>
      <trkpt lat="45.640770" lon="10.152330">
        <ele>621.245492</ele>
        <time>2021-01-21T15:08:50.551Z</time>
      </trkpt>
      <trkpt lat="45.640730" lon="10.151299">
        <ele>622.776760</ele>
        <time>2021-01-21T15:08:57.882Z</time>
      </trkpt>
      <trkpt lat="45.640633" lon="10.150870">
        <ele>623.427363</ele>
        <time>2021-01-21T15:09:02.877Z</time>
      </trkpt>
      <trkpt lat="45.640505" lon="10.150564">
        <ele>623.941909</ele>
        <time>2021-01-21T15:09:07.191Z</time>
      </trkpt>
      <trkpt lat="45.640500" lon="10.150435">
        <ele>624.128339</ele>
        <time>2021-01-21T15:09:10.120Z</time>
      </trkpt>
      <trkpt lat="45.640554" lon="10.150340">
        <ele>624.305010</ele>
        <time>2021-01-21T15:09:12.614Z</time>
      </trkpt>
      <trkpt lat="45.640708" lon="10.150371">
        <ele>624.625980</ele>
        <time>2021-01-21T15:09:15.259Z</time>
      </trkpt>
      <trkpt lat="45.640774" lon="10.150385">
        <ele>624.763686</ele>
        <time>2021-01-21T15:09:18.473Z</time>
      </trkpt>
      <trkpt lat="45.640902" lon="10.150408">
        <ele>625.029940</ele>
        <time>2021-01-21T15:09:23.105Z</time>
      </trkpt>
      <trkpt lat="45.641458" lon="10.150528">
        <ele>627.549888</ele>
        <time>2021-01-21T15:09:50.023Z</time>
      </trkpt>
      <trkpt lat="45.642472" lon="10.150767">
        <ele>634.734371</ele>
        <time>2021-01-21T15:10:41.744Z</time>
      </trkpt>
      <trkpt lat="45.642558" lon="10.150811">
        <ele>635.372902</ele>
        <time>2021-01-21T15:10:46.356Z</time>
      </trkpt>
      <trkpt lat="45.642645" lon="10.150886">
        <ele>636.083046</ele>
        <time>2021-01-21T15:10:50.489Z</time>
      </trkpt>
      <trkpt lat="45.642995" lon="10.151107">
        <ele>638.295745</ele>
        <time>2021-01-21T15:11:01.665Z</time>
      </trkpt>
      <trkpt lat="45.643018" lon="10.151086">
        <ele>638.329807</ele>
        <time>2021-01-21T15:11:03.599Z</time>
      </trkpt>
      <trkpt lat="45.643026" lon="10.151042">
        <ele>638.369484</ele>
        <time>2021-01-21T15:11:03.869Z</time>
      </trkpt>
      <trkpt lat="45.643005" lon="10.150883">
        <ele>638.510701</ele>
        <time>2021-01-21T15:11:05.808Z</time>
      </trkpt>
      <trkpt lat="45.642974" lon="10.150817">
        <ele>638.580092</ele>
        <time>2021-01-21T15:11:06.831Z</time>
      </trkpt>
      <trkpt lat="45.642819" lon="10.150511">
        <ele>638.909871</ele>
        <time>2021-01-21T15:11:12.780Z</time>
      </trkpt>
      <trkpt lat="45.642730" lon="10.150345">
        <ele>639.092439</ele>
        <time>2021-01-21T15:11:15.642Z</time>
      </trkpt>
      <trkpt lat="45.642678" lon="10.150235">
        <ele>639.208324</ele>
        <time>2021-01-21T15:11:18.080Z</time>
      </trkpt>
      <trkpt lat="45.642530" lon="10.149984">
        <ele>639.494884</ele>
        <time>2021-01-21T15:11:22.614Z</time>
      </trkpt>
      <trkpt lat="45.642454" lon="10.149745">
        <ele>639.724028</ele>
        <time>2021-01-21T15:11:26.243Z</time>
      </trkpt>
      <trkpt lat="45.642441" lon="10.149299">
        <ele>640.113603</ele>
        <time>2021-01-21T15:11:29.659Z</time>
      </trkpt>
      <trkpt lat="45.642474" lon="10.148879">
        <ele>640.480809</ele>
        <time>2021-01-21T15:11:32.736Z</time>
      </trkpt>
      <trkpt lat="45.642448" lon="10.148812">
        <ele>640.545056</ele>
        <time>2021-01-21T15:11:33.365Z</time>
      </trkpt>
      <trkpt lat="45.642424" lon="10.148653">
        <ele>640.681435</ele>
        <time>2021-01-21T15:11:36.721Z</time>
      </trkpt>
      <trkpt lat="45.642450" lon="10.148525">
        <ele>640.793189</ele>
        <time>2021-01-21T15:11:37.919Z</time>
      </trkpt>
      <trkpt lat="45.642633" lon="10.148286">
        <ele>641.090364</ele>
        <time>2021-01-21T15:11:45.583Z</time>
      </trkpt>
      <trkpt lat="45.642984" lon="10.147950">
        <ele>641.596856</ele>
        <time>2021-01-21T15:11:54.852Z</time>
      </trkpt>
      <trkpt lat="45.643202" lon="10.147861">
        <ele>641.868725</ele>
        <time>2021-01-21T15:12:02.183Z</time>
      </trkpt>
      <trkpt lat="45.643693" lon="10.147896">
        <ele>642.458269</ele>
        <time>2021-01-21T15:12:11.908Z</time>
      </trkpt>
      <trkpt lat="45.643975" lon="10.147945">
        <ele>642.082427</ele>
        <time>2021-01-21T15:12:18.951Z</time>
      </trkpt>
      <trkpt lat="45.644010" lon="10.147916">
        <ele>641.958371</ele>
        <time>2021-01-21T15:12:19.283Z</time>
      </trkpt>
      <trkpt lat="45.643957" lon="10.147342">
        <ele>640.716900</ele>
        <time>2021-01-21T15:12:23.740Z</time>
      </trkpt>
      <trkpt lat="45.644006" lon="10.147189">
        <ele>640.356050</ele>
        <time>2021-01-21T15:12:25.251Z</time>
      </trkpt>
      <trkpt lat="45.644042" lon="10.147075">
        <ele>640.087829</ele>
        <time>2021-01-21T15:12:26.383Z</time>
      </trkpt>
      <trkpt lat="45.644135" lon="10.146952">
        <ele>639.699348</ele>
        <time>2021-01-21T15:12:27.503Z</time>
      </trkpt>
      <trkpt lat="45.644146" lon="10.146820">
        <ele>639.414308</ele>
        <time>2021-01-21T15:12:28.464Z</time>
      </trkpt>
      <trkpt lat="45.643968" lon="10.146591">
        <ele>638.680038</ele>
        <time>2021-01-21T15:12:30.728Z</time>
      </trkpt>
      <trkpt lat="45.643874" lon="10.146297">
        <ele>637.986839</ele>
        <time>2021-01-21T15:12:32.903Z</time>
      </trkpt>
      <trkpt lat="45.643622" lon="10.146227">
        <ele>637.199503</ele>
        <time>2021-01-21T15:12:35.164Z</time>
      </trkpt>
      <trkpt lat="45.642847" lon="10.145560">
        <ele>635.895250</ele>
        <time>2021-01-21T15:12:44.568Z</time>
      </trkpt>
      <trkpt lat="45.642474" lon="10.144904">
        <ele>635.085667</ele>
        <time>2021-01-21T15:12:52.402Z</time>
      </trkpt>
      <trkpt lat="45.642456" lon="10.144820">
        <ele>635.001548</ele>
        <time>2021-01-21T15:12:53.435Z</time>
      </trkpt>
      <trkpt lat="45.642482" lon="10.144734">
        <ele>634.911839</ele>
        <time>2021-01-21T15:12:56.316Z</time>
      </trkpt>
      <trkpt lat="45.642982" lon="10.144181">
        <ele>635.080080</ele>
        <time>2021-01-21T15:13:10.399Z</time>
      </trkpt>
      <trkpt lat="45.644182" lon="10.143409">
        <ele>636.537641</ele>
        <time>2021-01-21T15:13:40.067Z</time>
      </trkpt>
      <trkpt lat="45.644279" lon="10.142834">
        <ele>636.591717</ele>
        <time>2021-01-21T15:13:44.490Z</time>
      </trkpt>
      <trkpt lat="45.644415" lon="10.142441">
        <ele>636.575405</ele>
        <time>2021-01-21T15:13:47.329Z</time>
      </trkpt>
      <trkpt lat="45.644845" lon="10.142277">
        <ele>636.551726</ele>
        <time>2021-01-21T15:13:51.969Z</time>
      </trkpt>
      <trkpt lat="45.644889" lon="10.142194">
        <ele>636.547852</ele>
        <time>2021-01-21T15:13:54.348Z</time>
      </trkpt>
      <trkpt lat="45.644899" lon="10.142027">
        <ele>636.541617</ele>
        <time>2021-01-21T15:13:57.632Z</time>
      </trkpt>
      <trkpt lat="45.644818" lon="10.141556">
        <ele>636.523574</ele>
        <time>2021-01-21T15:14:06.404Z</time>
      </trkpt>
      <trkpt lat="45.644835" lon="10.141351">
        <ele>636.515895</ele>
        <time>2021-01-21T15:14:08.777Z</time>
      </trkpt>
      <trkpt lat="45.645004" lon="10.140926">
        <ele>638.882410</ele>
        <time>2021-01-21T15:14:20.022Z</time>
      </trkpt>
      <trkpt lat="45.645109" lon="10.140738">
        <ele>640.142250</ele>
        <time>2021-01-21T15:14:27.756Z</time>
      </trkpt>
      <trkpt lat="45.645310" lon="10.140556">
        <ele>641.923805</ele>
        <time>2021-01-21T15:14:36.217Z</time>
      </trkpt>
      <trkpt lat="45.645471" lon="10.140496">
        <ele>643.169798</ele>
        <time>2021-01-21T15:14:46.024Z</time>
      </trkpt>
      <trkpt lat="45.645827" lon="10.140471">
        <ele>645.839126</ele>
        <time>2021-01-21T15:15:03.480Z</time>
      </trkpt>
      <trkpt lat="45.646529" lon="10.140944">
        <ele>650.582047</ele>
        <time>2021-01-21T15:15:47.359Z</time>
      </trkpt>
      <trkpt lat="45.647027" lon="10.141141">
        <ele>651.969584</ele>
        <time>2021-01-21T15:16:11.027Z</time>
      </trkpt>
      <trkpt lat="45.647567" lon="10.141089">
        <ele>653.422995</ele>
        <time>2021-01-21T15:16:21.049Z</time>
      </trkpt>
      <trkpt lat="45.648305" lon="10.140901">
        <ele>653.222525</ele>
        <time>2021-01-21T15:16:28.623Z</time>
      </trkpt>
      <trkpt lat="45.649085" lon="10.140669">
        <ele>647.738161</ele>
        <time>2021-01-21T15:16:35.787Z</time>
      </trkpt>
      <trkpt lat="45.649491" lon="10.140469">
        <ele>644.782183</ele>
        <time>2021-01-21T15:16:39.554Z</time>
      </trkpt>
      <trkpt lat="45.649865" lon="10.140411">
        <ele>642.112389</ele>
        <time>2021-01-21T15:16:42.847Z</time>
      </trkpt>
      <trkpt lat="45.650757" lon="10.140411">
        <ele>633.926981</ele>
        <time>2021-01-21T15:16:50.577Z</time>
      </trkpt>
      <trkpt lat="45.651464" lon="10.140483">
        <ele>627.422800</ele>
        <time>2021-01-21T15:16:56.690Z</time>
      </trkpt>
      <trkpt lat="45.652317" lon="10.140559">
        <ele>621.045748</ele>
        <time>2021-01-21T15:17:04.220Z</time>
      </trkpt>
      <trkpt lat="45.652475" lon="10.140576">
        <ele>619.927485</ele>
        <time>2021-01-21T15:17:05.621Z</time>
      </trkpt>
      <trkpt lat="45.652586" lon="10.140659">
        <ele>619.043525</ele>
        <time>2021-01-21T15:17:06.768Z</time>
      </trkpt>
      <trkpt lat="45.652683" lon="10.140832">
        <ele>617.949411</ele>
        <time>2021-01-21T15:17:08.172Z</time>
      </trkpt>
      <trkpt lat="45.652907" lon="10.142232">
        <ele>611.397796</ele>
        <time>2021-01-21T15:17:17.448Z</time>
      </trkpt>
      <trkpt lat="45.653007" lon="10.142632">
        <ele>609.774099</ele>
        <time>2021-01-21T15:17:20.342Z</time>
      </trkpt>
      <trkpt lat="45.653281" lon="10.143277">
        <ele>606.889265</ele>
        <time>2021-01-21T15:17:25.405Z</time>
      </trkpt>
      <trkpt lat="45.653368" lon="10.143303">
        <ele>606.403281</ele>
        <time>2021-01-21T15:17:26.243Z</time>
      </trkpt>
      <trkpt lat="45.653480" lon="10.143069">
        <ele>605.319327</ele>
        <time>2021-01-21T15:17:28.041Z</time>
      </trkpt>
      <trkpt lat="45.653654" lon="10.141968">
        <ele>600.673885</ele>
        <time>2021-01-21T15:17:35.238Z</time>
      </trkpt>
      <trkpt lat="45.653898" lon="10.141506">
        <ele>598.154578</ele>
        <time>2021-01-21T15:17:38.868Z</time>
      </trkpt>
      <trkpt lat="45.653966" lon="10.141068">
        <ele>596.202506</ele>
        <time>2021-01-21T15:17:41.648Z</time>
      </trkpt>
      <trkpt lat="45.654035" lon="10.140587">
        <ele>594.066177</ele>
        <time>2021-01-21T15:17:44.886Z</time>
      </trkpt>
      <trkpt lat="45.654102" lon="10.140236">
        <ele>592.483145</ele>
        <time>2021-01-21T15:17:47.316Z</time>
      </trkpt>
      <trkpt lat="45.654036" lon="10.139720">
        <ele>590.631493</ele>
        <time>2021-01-21T15:17:50.783Z</time>
      </trkpt>
      <trkpt lat="45.654025" lon="10.139309">
        <ele>589.226861</ele>
        <time>2021-01-21T15:17:53.588Z</time>
      </trkpt>
      <trkpt lat="45.653997" lon="10.139153">
        <ele>588.676822</ele>
        <time>2021-01-21T15:17:54.640Z</time>
      </trkpt>
      <trkpt lat="45.654056" lon="10.139112">
        <ele>588.356355</ele>
        <time>2021-01-21T15:17:55.318Z</time>
      </trkpt>
      <trkpt lat="45.654106" lon="10.139103">
        <ele>588.110142</ele>
        <time>2021-01-21T15:17:55.814Z</time>
      </trkpt>
      <trkpt lat="45.654157" lon="10.139091">
        <ele>587.857620</ele>
        <time>2021-01-21T15:17:56.374Z</time>
      </trkpt>
      <trkpt lat="45.654197" lon="10.139081">
        <ele>587.659228</ele>
        <time>2021-01-21T15:17:56.789Z</time>
      </trkpt>
      <trkpt lat="45.654260" lon="10.139205">
        <ele>587.135712</ele>
        <time>2021-01-21T15:17:57.858Z</time>
      </trkpt>
      <trkpt lat="45.654335" lon="10.139400">
        <ele>586.375614</ele>
        <time>2021-01-21T15:17:59.390Z</time>
      </trkpt>
      <trkpt lat="45.654478" lon="10.139546">
        <ele>585.517283</ele>
        <time>2021-01-21T15:18:01.196Z</time>
      </trkpt>
      <trkpt lat="45.654571" lon="10.139505">
        <ele>585.041823</ele>
        <time>2021-01-21T15:18:02.083Z</time>
      </trkpt>
      <trkpt lat="45.655329" lon="10.137969">
        <ele>574.900721</ele>
        <time>2021-01-21T15:18:13.921Z</time>
      </trkpt>
      <trkpt lat="45.655547" lon="10.137394">
        <ele>570.933659</ele>
        <time>2021-01-21T15:18:17.830Z</time>
      </trkpt>
      <trkpt lat="45.655575" lon="10.137223">
        <ele>569.868547</ele>
        <time>2021-01-21T15:18:18.870Z</time>
      </trkpt>
      <trkpt lat="45.655722" lon="10.136751">
        <ele>566.735645</ele>
        <time>2021-01-21T15:18:21.951Z</time>
      </trkpt>
      <trkpt lat="45.655938" lon="10.136359">
        <ele>563.710864</ele>
        <time>2021-01-21T15:18:24.935Z</time>
      </trkpt>
      <trkpt lat="45.656142" lon="10.135971">
        <ele>560.768775</ele>
        <time>2021-01-21T15:18:27.873Z</time>
      </trkpt>
      <trkpt lat="45.656237" lon="10.135741">
        <ele>559.149884</ele>
        <time>2021-01-21T15:18:29.524Z</time>
      </trkpt>
      <trkpt lat="45.656474" lon="10.135111">
        <ele>554.814479</ele>
        <time>2021-01-21T15:18:34.069Z</time>
      </trkpt>
      <trkpt lat="45.656540" lon="10.134979">
        <ele>553.831015</ele>
        <time>2021-01-21T15:18:35.109Z</time>
      </trkpt>
      <trkpt lat="45.656624" lon="10.134929">
        <ele>553.042259</ele>
        <time>2021-01-21T15:18:35.912Z</time>
      </trkpt>
      <trkpt lat="45.656725" lon="10.134917">
        <ele>552.175839</ele>
        <time>2021-01-21T15:18:36.805Z</time>
      </trkpt>
      <trkpt lat="45.656993" lon="10.134943">
        <ele>550.387198</ele>
        <time>2021-01-21T15:18:39.217Z</time>
      </trkpt>
      <trkpt lat="45.657221" lon="10.134856">
        <ele>548.815937</ele>
        <time>2021-01-21T15:18:41.327Z</time>
      </trkpt>
      <trkpt lat="45.657311" lon="10.134725">
        <ele>547.961030</ele>
        <time>2021-01-21T15:18:42.453Z</time>
      </trkpt>
      <trkpt lat="45.657382" lon="10.134513">
        <ele>546.866939</ele>
        <time>2021-01-21T15:18:43.968Z</time>
      </trkpt>
      <trkpt lat="45.657401" lon="10.134410">
        <ele>546.371152</ele>
        <time>2021-01-21T15:18:44.646Z</time>
      </trkpt>
      <trkpt lat="45.657471" lon="10.134040">
        <ele>544.587165</ele>
        <time>2021-01-21T15:18:47.113Z</time>
      </trkpt>
      <trkpt lat="45.657610" lon="10.133230">
        <ele>540.705386</ele>
        <time>2021-01-21T15:18:52.542Z</time>
      </trkpt>
      <trkpt lat="45.657728" lon="10.132341">
        <ele>536.144426</ele>
        <time>2021-01-21T15:18:58.186Z</time>
      </trkpt>
      <trkpt lat="45.657823" lon="10.131903">
        <ele>533.810872</ele>
        <time>2021-01-21T15:19:00.994Z</time>
      </trkpt>
      <trkpt lat="45.657908" lon="10.131711">
        <ele>532.654415</ele>
        <time>2021-01-21T15:19:02.399Z</time>
      </trkpt>
      <trkpt lat="45.657946" lon="10.131243">
        <ele>530.257045</ele>
        <time>2021-01-21T15:19:05.331Z</time>
      </trkpt>
      <trkpt lat="45.657967" lon="10.130501">
        <ele>526.609789</ele>
        <time>2021-01-21T15:19:10.025Z</time>
      </trkpt>
      <trkpt lat="45.658029" lon="10.129839">
        <ele>523.880854</ele>
        <time>2021-01-21T15:19:14.354Z</time>
      </trkpt>
      <trkpt lat="45.658089" lon="10.129628">
        <ele>522.950146</ele>
        <time>2021-01-21T15:19:15.837Z</time>
      </trkpt>
      <trkpt lat="45.658077" lon="10.129472">
        <ele>522.308922</ele>
        <time>2021-01-21T15:19:16.843Z</time>
      </trkpt>
      <trkpt lat="45.658003" lon="10.129431">
        <ele>521.845043</ele>
        <time>2021-01-21T15:19:17.567Z</time>
      </trkpt>
      <trkpt lat="45.657202" lon="10.130258">
        <ele>516.357002</ele>
        <time>2021-01-21T15:19:26.678Z</time>
      </trkpt>
      <trkpt lat="45.657117" lon="10.130262">
        <ele>516.113799</ele>
        <time>2021-01-21T15:19:27.471Z</time>
      </trkpt>
      <trkpt lat="45.657086" lon="10.130175">
        <ele>515.918614</ele>
        <time>2021-01-21T15:19:28.111Z</time>
      </trkpt>
      <trkpt lat="45.657449" lon="10.129129">
        <ele>513.584390</ele>
        <time>2021-01-21T15:19:36.226Z</time>
      </trkpt>
      <trkpt lat="45.657653" lon="10.128339">
        <ele>511.901061</ele>
        <time>2021-01-21T15:19:43.173Z</time>
      </trkpt>
      <trkpt lat="45.657763" lon="10.128050">
        <ele>511.569772</ele>
        <time>2021-01-21T15:19:45.891Z</time>
      </trkpt>
      <trkpt lat="45.657880" lon="10.127983">
        <ele>511.691087</ele>
        <time>2021-01-21T15:19:48.800Z</time>
      </trkpt>
      <trkpt lat="45.658240" lon="10.128095">
        <ele>512.045733</ele>
        <time>2021-01-21T15:19:55.037Z</time>
      </trkpt>
      <trkpt lat="45.658840" lon="10.128026">
        <ele>512.625176</ele>
        <time>2021-01-21T15:20:06.420Z</time>
      </trkpt>
      <trkpt lat="45.659302" lon="10.128043">
        <ele>513.070060</ele>
        <time>2021-01-21T15:20:17.702Z</time>
      </trkpt>
      <trkpt lat="45.660322" lon="10.127511">
        <ele>512.760099</ele>
        <time>2021-01-21T15:20:39.975Z</time>
      </trkpt>
      <trkpt lat="45.660634" lon="10.127465">
        <ele>512.605490</ele>
        <time>2021-01-21T15:20:44.231Z</time>
      </trkpt>
      <trkpt lat="45.660862" lon="10.127572">
        <ele>512.487210</ele>
        <time>2021-01-21T15:20:46.703Z</time>
      </trkpt>
      <trkpt lat="45.660986" lon="10.127730">
        <ele>512.405362</ele>
        <time>2021-01-21T15:20:48.349Z</time>
      </trkpt>
      <trkpt lat="45.661123" lon="10.128104">
        <ele>511.544541</ele>
        <time>2021-01-21T15:20:51.220Z</time>
      </trkpt>
      <trkpt lat="45.661408" lon="10.128583">
        <ele>509.189219</ele>
        <time>2021-01-21T15:20:55.454Z</time>
      </trkpt>
      <trkpt lat="45.661611" lon="10.128678">
        <ele>508.045019</ele>
        <time>2021-01-21T15:20:57.463Z</time>
      </trkpt>
      <trkpt lat="45.661807" lon="10.128824">
        <ele>506.861240</ele>
        <time>2021-01-21T15:20:59.524Z</time>
      </trkpt>
      <trkpt lat="45.661995" lon="10.128877">
        <ele>505.834725</ele>
        <time>2021-01-21T15:21:01.272Z</time>
      </trkpt>
      <trkpt lat="45.663324" lon="10.129255">
        <ele>498.230537</ele>
        <time>2021-01-21T15:21:13.520Z</time>
      </trkpt>
      <trkpt lat="45.663403" lon="10.129362">
        <ele>497.598972</ele>
        <time>2021-01-21T15:21:14.508Z</time>
      </trkpt>
      <trkpt lat="45.664101" lon="10.131099">
        <ele>489.355370</ele>
        <time>2021-01-21T15:21:27.737Z</time>
      </trkpt>
      <trkpt lat="45.664207" lon="10.131456">
        <ele>487.717331</ele>
        <time>2021-01-21T15:21:30.241Z</time>
      </trkpt>
      <trkpt lat="45.664204" lon="10.131749">
        <ele>486.479857</ele>
        <time>2021-01-21T15:21:32.139Z</time>
      </trkpt>
      <trkpt lat="45.664180" lon="10.132060">
        <ele>485.158519</ele>
        <time>2021-01-21T15:21:34.150Z</time>
      </trkpt>
      <trkpt lat="45.664080" lon="10.132355">
        <ele>483.773915</ele>
        <time>2021-01-21T15:21:36.227Z</time>
      </trkpt>
      <trkpt lat="45.663898" lon="10.132742">
        <ele>481.804027</ele>
        <time>2021-01-21T15:21:39.186Z</time>
      </trkpt>
      <trkpt lat="45.663898" lon="10.132894">
        <ele>481.075168</ele>
        <time>2021-01-21T15:21:40.141Z</time>
      </trkpt>
      <trkpt lat="45.663963" lon="10.133030">
        <ele>480.108249</ele>
        <time>2021-01-21T15:21:41.184Z</time>
      </trkpt>
      <trkpt lat="45.664350" lon="10.133470">
        <ele>475.957523</ele>
        <time>2021-01-21T15:21:45.575Z</time>
      </trkpt>
      <trkpt lat="45.664436" lon="10.133689">
        <ele>474.483314</ele>
        <time>2021-01-21T15:21:47.120Z</time>
      </trkpt>
      <trkpt lat="45.664336" lon="10.134416">
        <ele>470.135031</ele>
        <time>2021-01-21T15:21:51.661Z</time>
      </trkpt>
      <trkpt lat="45.664451" lon="10.135972">
        <ele>459.934930</ele>
        <time>2021-01-21T15:22:01.137Z</time>
      </trkpt>
      <trkpt lat="45.664332" lon="10.136951">
        <ele>452.989637</ele>
        <time>2021-01-21T15:22:07.109Z</time>
      </trkpt>
      <trkpt lat="45.664379" lon="10.137692">
        <ele>447.944045</ele>
        <time>2021-01-21T15:22:11.568Z</time>
      </trkpt>
      <trkpt lat="45.664525" lon="10.138094">
        <ele>445.750240</ele>
        <time>2021-01-21T15:22:14.312Z</time>
      </trkpt>
      <trkpt lat="45.665320" lon="10.139184">
        <ele>438.121167</ele>
        <time>2021-01-21T15:22:24.178Z</time>
      </trkpt>
      <trkpt lat="45.665580" lon="10.139554">
        <ele>435.816578</ele>
        <time>2021-01-21T15:22:27.766Z</time>
      </trkpt>
      <trkpt lat="45.666128" lon="10.140198">
        <ele>435.544162</ele>
        <time>2021-01-21T15:22:35.741Z</time>
      </trkpt>
      <trkpt lat="45.666332" lon="10.140435">
        <ele>435.443217</ele>
        <time>2021-01-21T15:22:39.534Z</time>
      </trkpt>
      <trkpt lat="45.666403" lon="10.140504">
        <ele>435.410246</ele>
        <time>2021-01-21T15:22:41.717Z</time>
      </trkpt>
      <trkpt lat="45.667146" lon="10.141838">
        <ele>434.610932</ele>
        <time>2021-01-21T15:23:08.844Z</time>
      </trkpt>
      <trkpt lat="45.667478" lon="10.142780">
        <ele>433.811206</ele>
        <time>2021-01-21T15:23:18.668Z</time>
      </trkpt>
      <trkpt lat="45.667718" lon="10.143145">
        <ele>433.431310</ele>
        <time>2021-01-21T15:23:22.110Z</time>
      </trkpt>
      <trkpt lat="45.668098" lon="10.143704">
        <ele>430.830669</ele>
        <time>2021-01-21T15:23:27.341Z</time>
      </trkpt>
      <trkpt lat="45.668550" lon="10.144446">
        <ele>425.779737</ele>
        <time>2021-01-21T15:23:33.683Z</time>
      </trkpt>
      <trkpt lat="45.668596" lon="10.144649">
        <ele>424.684698</ele>
        <time>2021-01-21T15:23:34.977Z</time>
      </trkpt>
      <trkpt lat="45.668548" lon="10.145499">
        <ele>420.308919</ele>
        <time>2021-01-21T15:23:40.169Z</time>
      </trkpt>
      <trkpt lat="45.668574" lon="10.145769">
        <ele>418.428097</ele>
        <time>2021-01-21T15:23:41.764Z</time>
      </trkpt>
      <trkpt lat="45.668913" lon="10.146351">
        <ele>412.789426</ele>
        <time>2021-01-21T15:23:46.294Z</time>
      </trkpt>
      <trkpt lat="45.669115" lon="10.146826">
        <ele>408.651287</ele>
        <time>2021-01-21T15:23:49.600Z</time>
      </trkpt>
      <trkpt lat="45.669137" lon="10.146944">
        <ele>407.742401</ele>
        <time>2021-01-21T15:23:50.310Z</time>
      </trkpt>
      <trkpt lat="45.669241" lon="10.147510">
        <ele>403.386994</ele>
        <time>2021-01-21T15:23:53.846Z</time>
      </trkpt>
      <trkpt lat="45.669220" lon="10.148117">
        <ele>399.552860</ele>
        <time>2021-01-21T15:23:57.559Z</time>
      </trkpt>
      <trkpt lat="45.669199" lon="10.148306">
        <ele>398.628612</ele>
        <time>2021-01-21T15:23:58.716Z</time>
      </trkpt>
      <trkpt lat="45.669169" lon="10.148376">
        <ele>398.232029</ele>
        <time>2021-01-21T15:23:59.200Z</time>
      </trkpt>
      <trkpt lat="45.669088" lon="10.148566">
        <ele>397.157136</ele>
        <time>2021-01-21T15:24:00.570Z</time>
      </trkpt>
      <trkpt lat="45.668290" lon="10.149453">
        <ele>390.173739</ele>
        <time>2021-01-21T15:24:09.763Z</time>
      </trkpt>
      <trkpt lat="45.668068" lon="10.149795">
        <ele>387.979259</ele>
        <time>2021-01-21T15:24:12.898Z</time>
      </trkpt>
      <trkpt lat="45.667766" lon="10.150453">
        <ele>384.655740</ele>
        <time>2021-01-21T15:24:18.487Z</time>
      </trkpt>
      <trkpt lat="45.667646" lon="10.150846">
        <ele>382.845094</ele>
        <time>2021-01-21T15:24:21.269Z</time>
      </trkpt>
      <trkpt lat="45.667610" lon="10.151072">
        <ele>381.866487</ele>
        <time>2021-01-21T15:24:22.738Z</time>
      </trkpt>
      <trkpt lat="45.667581" lon="10.151475">
        <ele>380.156092</ele>
        <time>2021-01-21T15:24:25.310Z</time>
      </trkpt>
      <trkpt lat="45.667562" lon="10.151741">
        <ele>379.027233</ele>
        <time>2021-01-21T15:24:26.952Z</time>
      </trkpt>
      <trkpt lat="45.667557" lon="10.151819">
        <ele>378.696548</ele>
        <time>2021-01-21T15:24:27.444Z</time>
      </trkpt>
      <trkpt lat="45.667550" lon="10.151905">
        <ele>378.331016</ele>
        <time>2021-01-21T15:24:27.986Z</time>
      </trkpt>
      <trkpt lat="45.667520" lon="10.152171">
        <ele>377.095111</ele>
        <time>2021-01-21T15:24:29.636Z</time>
      </trkpt>
      <trkpt lat="45.667475" lon="10.152599">
        <ele>374.732189</ele>
        <time>2021-01-21T15:24:32.302Z</time>
      </trkpt>
      <trkpt lat="45.667474" lon="10.152782">
        <ele>373.733088</ele>
        <time>2021-01-21T15:24:33.414Z</time>
      </trkpt>
      <trkpt lat="45.667473" lon="10.153074">
        <ele>372.138923</ele>
        <time>2021-01-21T15:24:35.204Z</time>
      </trkpt>
      <trkpt lat="45.667581" lon="10.153499">
        <ele>369.670035</ele>
        <time>2021-01-21T15:24:37.988Z</time>
      </trkpt>
      <trkpt lat="45.667641" lon="10.153710">
        <ele>368.426386</ele>
        <time>2021-01-21T15:24:39.378Z</time>
      </trkpt>
      <trkpt lat="45.667929" lon="10.154734">
        <ele>362.892304</ele>
        <time>2021-01-21T15:24:46.266Z</time>
      </trkpt>
      <trkpt lat="45.668534" lon="10.156934">
        <ele>355.881050</ele>
        <time>2021-01-21T15:25:02.598Z</time>
      </trkpt>
      <trkpt lat="45.668591" lon="10.157205">
        <ele>355.296552</ele>
        <time>2021-01-21T15:25:04.694Z</time>
      </trkpt>
      <trkpt lat="45.668921" lon="10.158759">
        <ele>352.008670</ele>
        <time>2021-01-21T15:25:16.672Z</time>
      </trkpt>
      <trkpt lat="45.669064" lon="10.159437">
        <ele>350.569610</ele>
        <time>2021-01-21T15:25:21.700Z</time>
      </trkpt>
      <trkpt lat="45.669133" lon="10.159760">
        <ele>349.823356</ele>
        <time>2021-01-21T15:25:24.093Z</time>
      </trkpt>
      <trkpt lat="45.669151" lon="10.159845">
        <ele>349.627118</ele>
        <time>2021-01-21T15:25:24.723Z</time>
      </trkpt>
      <trkpt lat="45.669227" lon="10.160146">
        <ele>348.919994</ele>
        <time>2021-01-21T15:25:27.018Z</time>
      </trkpt>
      <trkpt lat="45.669296" lon="10.160476">
        <ele>348.158938</ele>
        <time>2021-01-21T15:25:29.463Z</time>
      </trkpt>
      <trkpt lat="45.669493" lon="10.161422">
        <ele>345.977972</ele>
        <time>2021-01-21T15:25:36.603Z</time>
      </trkpt>
      <trkpt lat="45.669675" lon="10.162230">
        <ele>343.949987</ele>
        <time>2021-01-21T15:25:42.528Z</time>
      </trkpt>
      <trkpt lat="45.669836" lon="10.163193">
        <ele>341.367878</ele>
        <time>2021-01-21T15:25:49.366Z</time>
      </trkpt>
      <trkpt lat="45.670380" lon="10.166675">
        <ele>332.339354</ele>
        <time>2021-01-21T15:26:14.027Z</time>
      </trkpt>
      <trkpt lat="45.670390" lon="10.166740">
        <ele>332.173547</ele>
        <time>2021-01-21T15:26:14.467Z</time>
      </trkpt>
      <trkpt lat="45.670551" lon="10.167771">
        <ele>330.428784</ele>
        <time>2021-01-21T15:26:22.346Z</time>
      </trkpt>
      <trkpt lat="45.670617" lon="10.168191">
        <ele>329.773375</ele>
        <time>2021-01-21T15:26:25.746Z</time>
      </trkpt>
      <trkpt lat="45.670904" lon="10.170029">
        <ele>326.820267</ele>
        <time>2021-01-21T15:26:40.443Z</time>
      </trkpt>
      <trkpt lat="45.671159" lon="10.171658">
        <ele>324.060214</ele>
        <time>2021-01-21T15:26:52.934Z</time>
      </trkpt>
      <trkpt lat="45.671370" lon="10.173089">
        <ele>320.983970</ele>
        <time>2021-01-21T15:27:03.352Z</time>
      </trkpt>
      <trkpt lat="45.671355" lon="10.173504">
        <ele>320.071499</ele>
        <time>2021-01-21T15:27:06.349Z</time>
      </trkpt>
      <trkpt lat="45.670983" lon="10.174844">
        <ele>316.775433</ele>
        <time>2021-01-21T15:27:16.478Z</time>
      </trkpt>
      <trkpt lat="45.671016" lon="10.176045">
        <ele>313.821748</ele>
        <time>2021-01-21T15:27:24.921Z</time>
      </trkpt>
      <trkpt lat="45.671021" lon="10.176247">
        <ele>313.325031</ele>
        <time>2021-01-21T15:27:26.290Z</time>
      </trkpt>
      <trkpt lat="45.671025" lon="10.176401">
        <ele>312.946321</ele>
        <time>2021-01-21T15:27:27.314Z</time>
      </trkpt>
      <trkpt lat="45.670993" lon="10.176762">
        <ele>312.052070</ele>
        <time>2021-01-21T15:27:29.916Z</time>
      </trkpt>
      <trkpt lat="45.670730" lon="10.177595">
        <ele>310.143291</ele>
        <time>2021-01-21T15:27:36.339Z</time>
      </trkpt>
      <trkpt lat="45.670699" lon="10.177741">
        <ele>309.836164</ele>
        <time>2021-01-21T15:27:37.373Z</time>
      </trkpt>
      <trkpt lat="45.670698" lon="10.177748">
        <ele>309.821783</ele>
        <time>2021-01-21T15:27:37.415Z</time>
      </trkpt>
      <trkpt lat="45.670639" lon="10.178021">
        <ele>309.246624</ele>
        <time>2021-01-21T15:27:39.538Z</time>
      </trkpt>
      <trkpt lat="45.670400" lon="10.180906">
        <ele>303.816787</ele>
        <time>2021-01-21T15:28:01.202Z</time>
      </trkpt>
      <trkpt lat="45.670392" lon="10.181007">
        <ele>303.639839</ele>
        <time>2021-01-21T15:28:01.912Z</time>
      </trkpt>
      <trkpt lat="45.670382" lon="10.181123">
        <ele>303.436373</ele>
        <time>2021-01-21T15:28:02.845Z</time>
      </trkpt>
      <trkpt lat="45.670340" lon="10.181398">
        <ele>302.946346</ele>
        <time>2021-01-21T15:28:05.019Z</time>
      </trkpt>
      <trkpt lat="45.670197" lon="10.181967">
        <ele>301.877323</ele>
        <time>2021-01-21T15:28:09.493Z</time>
      </trkpt>
      <trkpt lat="45.669961" lon="10.182910">
        <ele>299.886720</ele>
        <time>2021-01-21T15:28:16.660Z</time>
      </trkpt>
      <trkpt lat="45.669898" lon="10.183878">
        <ele>297.954665</ele>
        <time>2021-01-21T15:28:23.721Z</time>
      </trkpt>
      <trkpt lat="45.669909" lon="10.184404">
        <ele>296.908864</ele>
        <time>2021-01-21T15:28:27.470Z</time>
      </trkpt>
      <trkpt lat="45.669911" lon="10.184477">
        <ele>296.796187</ele>
        <time>2021-01-21T15:28:27.983Z</time>
      </trkpt>
      <trkpt lat="45.669941" lon="10.184657">
        <ele>296.520072</ele>
        <time>2021-01-21T15:28:29.335Z</time>
      </trkpt>
      <trkpt lat="45.669965" lon="10.184798">
        <ele>296.303532</ele>
        <time>2021-01-21T15:28:30.412Z</time>
      </trkpt>
      <trkpt lat="45.670023" lon="10.185019">
        <ele>295.951285</ele>
        <time>2021-01-21T15:28:32.122Z</time>
      </trkpt>
      <trkpt lat="45.670129" lon="10.185273">
        <ele>295.509845</ele>
        <time>2021-01-21T15:28:34.374Z</time>
      </trkpt>
      <trkpt lat="45.670355" lon="10.185658">
        <ele>294.759588</ele>
        <time>2021-01-21T15:28:38.198Z</time>
      </trkpt>
      <trkpt lat="45.670470" lon="10.185854">
        <ele>294.377714</ele>
        <time>2021-01-21T15:28:40.125Z</time>
      </trkpt>
      <trkpt lat="45.670639" lon="10.186144">
        <ele>293.814278</ele>
        <time>2021-01-21T15:28:43.042Z</time>
      </trkpt>
      <trkpt lat="45.670757" lon="10.186346">
        <ele>293.421430</ele>
        <time>2021-01-21T15:28:45.185Z</time>
      </trkpt>
      <trkpt lat="45.670945" lon="10.186702">
        <ele>292.924501</ele>
        <time>2021-01-21T15:28:48.837Z</time>
      </trkpt>
      <trkpt lat="45.671080" lon="10.186959">
        <ele>292.716731</ele>
        <time>2021-01-21T15:28:51.457Z</time>
      </trkpt>
      <trkpt lat="45.671213" lon="10.187186">
        <ele>292.525298</ele>
        <time>2021-01-21T15:28:53.947Z</time>
      </trkpt>
      <trkpt lat="45.671254" lon="10.187288">
        <ele>292.449256</ele>
        <time>2021-01-21T15:28:54.911Z</time>
      </trkpt>
      <trkpt lat="45.671281" lon="10.187402">
        <ele>292.371471</ele>
        <time>2021-01-21T15:28:55.940Z</time>
      </trkpt>
      <trkpt lat="45.671295" lon="10.187484">
        <ele>292.316922</ele>
        <time>2021-01-21T15:28:56.676Z</time>
      </trkpt>
      <trkpt lat="45.671314" lon="10.187598">
        <ele>292.241187</ele>
        <time>2021-01-21T15:28:57.717Z</time>
      </trkpt>
      <trkpt lat="45.671219" lon="10.187725">
        <ele>292.120963</ele>
        <time>2021-01-21T15:28:59.290Z</time>
      </trkpt>
      <trkpt lat="45.671162" lon="10.187800">
        <ele>292.049355</ele>
        <time>2021-01-21T15:29:00.323Z</time>
      </trkpt>
      <trkpt lat="45.670984" lon="10.188037">
        <ele>291.824515</ele>
        <time>2021-01-21T15:29:03.581Z</time>
      </trkpt>
      <trkpt lat="45.670881" lon="10.188175">
        <ele>291.694031</ele>
        <time>2021-01-21T15:29:05.599Z</time>
      </trkpt>
      <trkpt lat="45.670733" lon="10.188395">
        <ele>291.496687</ele>
        <time>2021-01-21T15:29:08.455Z</time>
      </trkpt>
      <trkpt lat="45.670687" lon="10.188465">
        <ele>291.434590</ele>
        <time>2021-01-21T15:29:09.369Z</time>
      </trkpt>
      <trkpt lat="45.670189" lon="10.189201">
        <ele>290.939102</ele>
        <time>2021-01-21T15:29:18.509Z</time>
      </trkpt>
      <trkpt lat="45.670189" lon="10.189201">
        <ele>290.939102</ele>
        <time>2021-01-21T15:29:18.528Z</time>
      </trkpt>
      <trkpt lat="45.670100" lon="10.189320">
        <ele>290.856838</ele>
        <time>2021-01-21T15:29:20.153Z</time>
      </trkpt>
      <trkpt lat="45.669864" lon="10.189638">
        <ele>290.637911</ele>
        <time>2021-01-21T15:29:24.332Z</time>
      </trkpt>
      <trkpt lat="45.669822" lon="10.189697">
        <ele>290.598162</ele>
        <time>2021-01-21T15:29:25.184Z</time>
      </trkpt>
      <trkpt lat="45.669547" lon="10.190041">
        <ele>290.351476</ele>
        <time>2021-01-21T15:29:29.910Z</time>
      </trkpt>
      <trkpt lat="45.669442" lon="10.190169">
        <ele>290.258318</ele>
        <time>2021-01-21T15:29:31.677Z</time>
      </trkpt>
      <trkpt lat="45.668472" lon="10.191321">
        <ele>288.908207</ele>
        <time>2021-01-21T15:29:46.887Z</time>
      </trkpt>
      <trkpt lat="45.668452" lon="10.191354">
        <ele>288.874209</ele>
        <time>2021-01-21T15:29:47.195Z</time>
      </trkpt>
      <trkpt lat="45.668197" lon="10.191778">
        <ele>288.438821</ele>
        <time>2021-01-21T15:29:51.795Z</time>
      </trkpt>
      <trkpt lat="45.667994" lon="10.191895">
        <ele>288.195078</ele>
        <time>2021-01-21T15:29:54.508Z</time>
      </trkpt>
      <trkpt lat="45.667892" lon="10.191935">
        <ele>288.096823</ele>
        <time>2021-01-21T15:29:55.700Z</time>
      </trkpt>
      <trkpt lat="45.667857" lon="10.191917">
        <ele>288.063932</ele>
        <time>2021-01-21T15:29:56.164Z</time>
      </trkpt>
      <trkpt lat="45.667835" lon="10.191915">
        <ele>288.044437</ele>
        <time>2021-01-21T15:29:56.443Z</time>
      </trkpt>
      <trkpt lat="45.667813" lon="10.191919">
        <ele>288.024825</ele>
        <time>2021-01-21T15:29:56.720Z</time>
      </trkpt>
      <trkpt lat="45.667786" lon="10.191934">
        <ele>287.999211</ele>
        <time>2021-01-21T15:29:57.074Z</time>
      </trkpt>
      <trkpt lat="45.667745" lon="10.191992">
        <ele>287.948226</ele>
        <time>2021-01-21T15:29:57.800Z</time>
      </trkpt>
      <trkpt lat="45.667733" lon="10.192030">
        <ele>287.922456</ele>
        <time>2021-01-21T15:29:58.154Z</time>
      </trkpt>
      <trkpt lat="45.667730" lon="10.192070">
        <ele>287.897594</ele>
        <time>2021-01-21T15:29:58.517Z</time>
      </trkpt>
      <trkpt lat="45.667734" lon="10.192111">
        <ele>287.872010</ele>
        <time>2021-01-21T15:29:58.883Z</time>
      </trkpt>
      <trkpt lat="45.667659" lon="10.192263">
        <ele>287.757018</ele>
        <time>2021-01-21T15:30:00.379Z</time>
      </trkpt>
      <trkpt lat="45.667549" lon="10.192560">
        <ele>287.549286</ele>
        <time>2021-01-21T15:30:03.387Z</time>
      </trkpt>
      <trkpt lat="45.666988" lon="10.193089">
        <ele>286.955135</ele>
        <time>2021-01-21T15:30:11.971Z</time>
      </trkpt>
      <trkpt lat="45.666525" lon="10.193647">
        <ele>286.395640</ele>
        <time>2021-01-21T15:30:19.696Z</time>
      </trkpt>
      <trkpt lat="45.666418" lon="10.193775">
        <ele>286.253870</ele>
        <time>2021-01-21T15:30:21.474Z</time>
      </trkpt>
      <trkpt lat="45.666356" lon="10.193850">
        <ele>286.171342</ele>
        <time>2021-01-21T15:30:22.474Z</time>
      </trkpt>
      <trkpt lat="45.666133" lon="10.194121">
        <ele>285.873938</ele>
        <time>2021-01-21T15:30:25.973Z</time>
      </trkpt>
      <trkpt lat="45.665483" lon="10.194912">
        <ele>285.006562</ele>
        <time>2021-01-21T15:30:36.116Z</time>
      </trkpt>
      <trkpt lat="45.665184" lon="10.195209">
        <ele>284.633781</ele>
        <time>2021-01-21T15:30:40.683Z</time>
      </trkpt>
      <trkpt lat="45.664670" lon="10.195756">
        <ele>283.967072</ele>
        <time>2021-01-21T15:30:48.726Z</time>
      </trkpt>
      <trkpt lat="45.664618" lon="10.195811">
        <ele>283.899769</ele>
        <time>2021-01-21T15:30:49.439Z</time>
      </trkpt>
      <trkpt lat="45.664538" lon="10.195896">
        <ele>283.796060</ele>
        <time>2021-01-21T15:30:50.712Z</time>
      </trkpt>
      <trkpt lat="45.664259" lon="10.196211">
        <ele>283.426166</ele>
        <time>2021-01-21T15:30:55.018Z</time>
      </trkpt>
      <trkpt lat="45.663852" lon="10.196569">
        <ele>282.928919</ele>
        <time>2021-01-21T15:31:00.852Z</time>
      </trkpt>
      <trkpt lat="45.663598" lon="10.196792">
        <ele>282.390398</ele>
        <time>2021-01-21T15:31:04.362Z</time>
      </trkpt>
      <trkpt lat="45.663517" lon="10.196874">
        <ele>282.197226</ele>
        <time>2021-01-21T15:31:05.632Z</time>
      </trkpt>
      <trkpt lat="45.663402" lon="10.196942">
        <ele>281.954973</ele>
        <time>2021-01-21T15:31:06.985Z</time>
      </trkpt>
      <trkpt lat="45.662949" lon="10.197327">
        <ele>280.929206</ele>
        <time>2021-01-21T15:31:13.079Z</time>
      </trkpt>
      <trkpt lat="45.662049" lon="10.197394">
        <ele>279.141939</ele>
        <time>2021-01-21T15:31:22.479Z</time>
      </trkpt>
      <trkpt lat="45.661260" lon="10.197511">
        <ele>277.350775</ele>
        <time>2021-01-21T15:31:30.788Z</time>
      </trkpt>
      <trkpt lat="45.660518" lon="10.197547">
        <ele>275.674320</ele>
        <time>2021-01-21T15:31:38.931Z</time>
      </trkpt>
      <trkpt lat="45.660046" lon="10.197572">
        <ele>274.958779</ele>
        <time>2021-01-21T15:31:44.183Z</time>
      </trkpt>
      <trkpt lat="45.659913" lon="10.197577">
        <ele>274.806846</ele>
        <time>2021-01-21T15:31:45.756Z</time>
      </trkpt>
      <trkpt lat="45.659747" lon="10.197554">
        <ele>274.616394</ele>
        <time>2021-01-21T15:31:47.687Z</time>
      </trkpt>
      <trkpt lat="45.659692" lon="10.197564">
        <ele>274.553081</ele>
        <time>2021-01-21T15:31:48.351Z</time>
      </trkpt>
      <trkpt lat="45.659638" lon="10.197585">
        <ele>274.489178</ele>
        <time>2021-01-21T15:31:49.023Z</time>
      </trkpt>
      <trkpt lat="45.659599" lon="10.197619">
        <ele>274.437026</ele>
        <time>2021-01-21T15:31:49.606Z</time>
      </trkpt>
      <trkpt lat="45.659571" lon="10.197679">
        <ele>274.379444</ele>
        <time>2021-01-21T15:31:50.318Z</time>
      </trkpt>
      <trkpt lat="45.659471" lon="10.197718">
        <ele>274.261082</ele>
        <time>2021-01-21T15:31:51.572Z</time>
      </trkpt>
      <trkpt lat="45.659415" lon="10.197752">
        <ele>274.191613</ele>
        <time>2021-01-21T15:31:52.335Z</time>
      </trkpt>
      <trkpt lat="45.659201" lon="10.197922">
        <ele>273.912093</ele>
        <time>2021-01-21T15:31:55.442Z</time>
      </trkpt>
      <trkpt lat="45.658588" lon="10.198155">
        <ele>273.189876</ele>
        <time>2021-01-21T15:32:03.386Z</time>
      </trkpt>
      <trkpt lat="45.658549" lon="10.198385">
        <ele>273.006148</ele>
        <time>2021-01-21T15:32:05.515Z</time>
      </trkpt>
      <trkpt lat="45.658170" lon="10.198535">
        <ele>272.569387</ele>
        <time>2021-01-21T15:32:10.461Z</time>
      </trkpt>
      <trkpt lat="45.657378" lon="10.198847">
        <ele>271.656984</ele>
        <time>2021-01-21T15:32:20.369Z</time>
      </trkpt>
      <trkpt lat="45.657302" lon="10.198880">
        <ele>271.568770</ele>
        <time>2021-01-21T15:32:21.272Z</time>
      </trkpt>
      <trkpt lat="45.656588" lon="10.199187">
        <ele>270.436077</ele>
        <time>2021-01-21T15:32:29.819Z</time>
      </trkpt>
      <trkpt lat="45.656360" lon="10.199027">
        <ele>269.990512</ele>
        <time>2021-01-21T15:32:32.615Z</time>
      </trkpt>
      <trkpt lat="45.656231" lon="10.199068">
        <ele>269.758658</ele>
        <time>2021-01-21T15:32:34.029Z</time>
      </trkpt>
      <trkpt lat="45.656080" lon="10.199110">
        <ele>269.488763</ele>
        <time>2021-01-21T15:32:35.749Z</time>
      </trkpt>
      <trkpt lat="45.655656" lon="10.199273">
        <ele>268.718449</ele>
        <time>2021-01-21T15:32:40.659Z</time>
      </trkpt>
      <trkpt lat="45.655229" lon="10.199386">
        <ele>268.032657</ele>
        <time>2021-01-21T15:32:45.495Z</time>
      </trkpt>
      <trkpt lat="45.655248" lon="10.199286">
        <ele>267.968434</ele>
        <time>2021-01-21T15:32:46.246Z</time>
      </trkpt>
      <trkpt lat="45.655344" lon="10.198928">
        <ele>267.730801</ele>
        <time>2021-01-21T15:32:49.245Z</time>
      </trkpt>
      <trkpt lat="45.655098" lon="10.197077">
        <ele>266.563114</ele>
        <time>2021-01-21T15:33:06.565Z</time>
      </trkpt>
      <trkpt lat="45.655077" lon="10.196901">
        <ele>266.483945</ele>
        <time>2021-01-21T15:33:07.957Z</time>
      </trkpt>
      <trkpt lat="45.655067" lon="10.196826">
        <ele>266.460200</ele>
        <time>2021-01-21T15:33:08.595Z</time>
      </trkpt>
      <trkpt lat="45.655011" lon="10.196459">
        <ele>266.343380</ele>
        <time>2021-01-21T15:33:12.989Z</time>
      </trkpt>
      <trkpt lat="45.654933" lon="10.196269">
        <ele>266.274855</ele>
        <time>2021-01-21T15:33:14.760Z</time>
      </trkpt>
      <trkpt lat="45.654894" lon="10.196191">
        <ele>266.245030</ele>
        <time>2021-01-21T15:33:17.571Z</time>
      </trkpt>
      <trkpt lat="45.654587" lon="10.196533">
        <ele>266.071914</ele>
        <time>2021-01-21T15:33:22.878Z</time>
      </trkpt>
      <trkpt lat="45.654375" lon="10.196739">
        <ele>265.957892</ele>
        <time>2021-01-21T15:33:25.738Z</time>
      </trkpt>
      <trkpt lat="45.653793" lon="10.197064">
        <ele>265.626830</ele>
        <time>2021-01-21T15:33:34.712Z</time>
      </trkpt>
      <trkpt lat="45.651917" lon="10.197262">
        <ele>263.598054</ele>
        <time>2021-01-21T15:33:56.744Z</time>
      </trkpt>
      <trkpt lat="45.649831" lon="10.196546">
        <ele>262.904933</ele>
        <time>2021-01-21T15:34:24.421Z</time>
      </trkpt>
      <trkpt lat="45.649752" lon="10.196514">
        <ele>262.987939</ele>
        <time>2021-01-21T15:34:25.663Z</time>
      </trkpt>
      <trkpt lat="45.649093" lon="10.196246">
        <ele>263.680560</ele>
        <time>2021-01-21T15:34:39.286Z</time>
      </trkpt>
      <trkpt lat="45.649066" lon="10.196235">
        <ele>263.708941</ele>
        <time>2021-01-21T15:34:39.824Z</time>
      </trkpt>
      <trkpt lat="45.649007" lon="10.196186">
        <ele>263.777911</ele>
        <time>2021-01-21T15:34:41.300Z</time>
      </trkpt>
      <trkpt lat="45.648987" lon="10.196169">
        <ele>263.801431</ele>
        <time>2021-01-21T15:34:41.803Z</time>
      </trkpt>
      <trkpt lat="45.648611" lon="10.195857">
        <ele>264.245689</ele>
        <time>2021-01-21T15:34:53.359Z</time>
      </trkpt>
      <trkpt lat="45.648253" lon="10.195677">
        <ele>264.687173</ele>
        <time>2021-01-21T15:35:03.169Z</time>
      </trkpt>
      <trkpt lat="45.647784" lon="10.195771">
        <ele>265.238149</ele>
        <time>2021-01-21T15:35:14.087Z</time>
      </trkpt>
      <trkpt lat="45.647474" lon="10.195565">
        <ele>265.635827</ele>
        <time>2021-01-21T15:35:20.926Z</time>
      </trkpt>
      <trkpt lat="45.647355" lon="10.195360">
        <ele>265.852545</ele>
        <time>2021-01-21T15:35:24.780Z</time>
      </trkpt>
      <trkpt lat="45.647332" lon="10.195321">
        <ele>265.894044</ele>
        <time>2021-01-21T15:35:25.234Z</time>
      </trkpt>
      <trkpt lat="45.647285" lon="10.195240">
        <ele>265.979659</ele>
        <time>2021-01-21T15:35:26.116Z</time>
      </trkpt>
      <trkpt lat="45.647243" lon="10.195194">
        <ele>266.041201</ele>
        <time>2021-01-21T15:35:26.647Z</time>
      </trkpt>
      <trkpt lat="45.647061" lon="10.195047">
        <ele>266.284366</ele>
        <time>2021-01-21T15:35:29.857Z</time>
      </trkpt>
      <trkpt lat="45.646851" lon="10.194980">
        <ele>265.746023</ele>
        <time>2021-01-21T15:35:32.240Z</time>
      </trkpt>
      <trkpt lat="45.646661" lon="10.194998">
        <ele>265.218204</ele>
        <time>2021-01-21T15:35:34.579Z</time>
      </trkpt>
      <trkpt lat="45.646180" lon="10.195066">
        <ele>263.878414</ele>
        <time>2021-01-21T15:35:39.528Z</time>
      </trkpt>
      <trkpt lat="45.645801" lon="10.195151">
        <ele>262.815022</ele>
        <time>2021-01-21T15:35:43.386Z</time>
      </trkpt>
      <trkpt lat="45.645422" lon="10.195278">
        <ele>261.736023</ele>
        <time>2021-01-21T15:35:47.156Z</time>
      </trkpt>
      <trkpt lat="45.645247" lon="10.195266">
        <ele>261.264997</ele>
        <time>2021-01-21T15:35:48.859Z</time>
      </trkpt>
      <trkpt lat="45.644792" lon="10.195178">
        <ele>260.276503</ele>
        <time>2021-01-21T15:35:53.390Z</time>
      </trkpt>
      <trkpt lat="45.644642" lon="10.195152">
        <ele>259.951202</ele>
        <time>2021-01-21T15:35:54.975Z</time>
      </trkpt>
      <trkpt lat="45.644096" lon="10.195098">
        <ele>258.772900</ele>
        <time>2021-01-21T15:36:01.132Z</time>
      </trkpt>
      <trkpt lat="45.643844" lon="10.195071">
        <ele>258.228844</ele>
        <time>2021-01-21T15:36:04.226Z</time>
      </trkpt>
      <trkpt lat="45.643650" lon="10.195048">
        <ele>257.809745</ele>
        <time>2021-01-21T15:36:06.486Z</time>
      </trkpt>
      <trkpt lat="45.643698" lon="10.194414">
        <ele>257.144712</ele>
        <time>2021-01-21T15:36:12.015Z</time>
      </trkpt>
      <trkpt lat="45.643774" lon="10.193870">
        <ele>256.724424</ele>
        <time>2021-01-21T15:36:17.097Z</time>
      </trkpt>
      <trkpt lat="45.643254" lon="10.193702">
        <ele>256.146721</ele>
        <time>2021-01-21T15:36:23.870Z</time>
      </trkpt>
      <trkpt lat="45.643071" lon="10.193644">
        <ele>255.943600</ele>
        <time>2021-01-21T15:36:26.160Z</time>
      </trkpt>
      <trkpt lat="45.642031" lon="10.193355">
        <ele>254.259310</ele>
        <time>2021-01-21T15:36:38.024Z</time>
      </trkpt>
      <trkpt lat="45.641401" lon="10.193176">
        <ele>253.029204</ele>
        <time>2021-01-21T15:36:44.934Z</time>
      </trkpt>
      <trkpt lat="45.640648" lon="10.192913">
        <ele>251.705572</ele>
        <time>2021-01-21T15:36:53.417Z</time>
      </trkpt>
      <trkpt lat="45.638861" lon="10.192639">
        <ele>249.595855</ele>
        <time>2021-01-21T15:37:14.898Z</time>
      </trkpt>
      <trkpt lat="45.638515" lon="10.192587">
        <ele>249.454838</ele>
        <time>2021-01-21T15:37:19.648Z</time>
      </trkpt>
      <trkpt lat="45.638310" lon="10.192579">
        <ele>249.371715</ele>
        <time>2021-01-21T15:37:22.476Z</time>
      </trkpt>
      <trkpt lat="45.638147" lon="10.192550">
        <ele>249.305137</ele>
        <time>2021-01-21T15:37:24.810Z</time>
      </trkpt>
      <trkpt lat="45.637986" lon="10.192529">
        <ele>249.239608</ele>
        <time>2021-01-21T15:37:27.098Z</time>
      </trkpt>
      <trkpt lat="45.636119" lon="10.192212">
        <ele>248.773772</ele>
        <time>2021-01-21T15:37:54.515Z</time>
      </trkpt>
      <trkpt lat="45.635945" lon="10.192180">
        <ele>248.745168</ele>
        <time>2021-01-21T15:37:56.883Z</time>
      </trkpt>
      <trkpt lat="45.635693" lon="10.192121">
        <ele>248.703534</ele>
        <time>2021-01-21T15:38:00.321Z</time>
      </trkpt>
      <trkpt lat="45.635508" lon="10.192084">
        <ele>248.644127</ele>
        <time>2021-01-21T15:38:02.856Z</time>
      </trkpt>
      <trkpt lat="45.635091" lon="10.191992">
        <ele>248.281715</ele>
        <time>2021-01-21T15:38:08.522Z</time>
      </trkpt>
      <trkpt lat="45.635004" lon="10.191969">
        <ele>248.205722</ele>
        <time>2021-01-21T15:38:09.690Z</time>
      </trkpt>
      <trkpt lat="45.634835" lon="10.191919">
        <ele>248.057489</ele>
        <time>2021-01-21T15:38:11.997Z</time>
      </trkpt>
      <trkpt lat="45.634835" lon="10.191919">
        <ele>248.057489</ele>
        <time>2021-01-21T15:38:12.164Z</time>
      </trkpt>
      <trkpt lat="45.634835" lon="10.191919">
        <ele>248.057489</ele>
        <time>2021-01-21T15:38:12.177Z</time>
      </trkpt>
      <trkpt lat="45.635004" lon="10.191969">
        <ele>247.909255</ele>
        <time>2021-01-21T15:38:14.448Z</time>
      </trkpt>
      <trkpt lat="45.634941" lon="10.192358">
        <ele>247.669441</ele>
        <time>2021-01-21T15:38:17.878Z</time>
      </trkpt>
      <trkpt lat="45.634828" lon="10.192447">
        <ele>247.558636</ele>
        <time>2021-01-21T15:38:19.515Z</time>
      </trkpt>
      <trkpt lat="45.634644" lon="10.193562">
        <ele>246.556644</ele>
        <time>2021-01-21T15:38:28.831Z</time>
      </trkpt>
      <trkpt lat="45.634663" lon="10.193915">
        <ele>246.091501</ele>
        <time>2021-01-21T15:38:31.556Z</time>
      </trkpt>
      <trkpt lat="45.634682" lon="10.194308">
        <ele>245.573945</ele>
        <time>2021-01-21T15:38:34.601Z</time>
      </trkpt>
      <trkpt lat="45.634590" lon="10.194312">
        <ele>245.401005</ele>
        <time>2021-01-21T15:38:35.665Z</time>
      </trkpt>
      <trkpt lat="45.634477" lon="10.194314">
        <ele>245.188670</ele>
        <time>2021-01-21T15:38:36.959Z</time>
      </trkpt>
      <trkpt lat="45.634491" lon="10.194419">
        <ele>245.048236</ele>
        <time>2021-01-21T15:38:38.117Z</time>
      </trkpt>
      <trkpt lat="45.634501" lon="10.194569">
        <ele>244.850271</ele>
        <time>2021-01-21T15:38:39.762Z</time>
      </trkpt>
      <trkpt lat="45.634162" lon="10.194784">
        <ele>244.153494</ele>
        <time>2021-01-21T15:38:43.817Z</time>
      </trkpt>
      <trkpt lat="45.634017" lon="10.194812">
        <ele>243.878578</ele>
        <time>2021-01-21T15:38:45.448Z</time>
      </trkpt>
      <trkpt lat="45.633924" lon="10.194869">
        <ele>243.685111</ele>
        <time>2021-01-21T15:38:46.531Z</time>
      </trkpt>
      <trkpt lat="45.633811" lon="10.194960">
        <ele>243.429235</ele>
        <time>2021-01-21T15:38:47.885Z</time>
      </trkpt>
      <trkpt lat="45.633524" lon="10.195264">
        <ele>242.724553</ele>
        <time>2021-01-21T15:38:51.730Z</time>
      </trkpt>
      <trkpt lat="45.633408" lon="10.195432">
        <ele>242.398810</ele>
        <time>2021-01-21T15:38:53.618Z</time>
      </trkpt>
      <trkpt lat="45.633265" lon="10.195671">
        <ele>241.964831</ele>
        <time>2021-01-21T15:38:55.995Z</time>
      </trkpt>
      <trkpt lat="45.633129" lon="10.195972">
        <ele>241.470398</ele>
        <time>2021-01-21T15:38:58.768Z</time>
      </trkpt>
      <trkpt lat="45.633059" lon="10.196100">
        <ele>241.246204</ele>
        <time>2021-01-21T15:38:59.981Z</time>
      </trkpt>
      <trkpt lat="45.632695" lon="10.197253">
        <ele>239.976891</ele>
        <time>2021-01-21T15:39:09.857Z</time>
      </trkpt>
      <trkpt lat="45.632587" lon="10.197478">
        <ele>239.854353</ele>
        <time>2021-01-21T15:39:12.266Z</time>
      </trkpt>
      <trkpt lat="45.632469" lon="10.197641">
        <ele>239.749007</ele>
        <time>2021-01-21T15:39:14.349Z</time>
      </trkpt>
      <trkpt lat="45.632325" lon="10.197722">
        <ele>239.649646</ele>
        <time>2021-01-21T15:39:16.495Z</time>
      </trkpt>
      <trkpt lat="45.632221" lon="10.197835">
        <ele>239.565777</ele>
        <time>2021-01-21T15:39:18.448Z</time>
      </trkpt>
      <trkpt lat="45.632112" lon="10.197935">
        <ele>239.482621</ele>
        <time>2021-01-21T15:39:20.230Z</time>
      </trkpt>
      <trkpt lat="45.632069" lon="10.197945">
        <ele>239.454647</ele>
        <time>2021-01-21T15:39:20.930Z</time>
      </trkpt>
      <trkpt lat="45.632029" lon="10.197968">
        <ele>239.426964</ele>
        <time>2021-01-21T15:39:21.677Z</time>
      </trkpt>
      <trkpt lat="45.631975" lon="10.198029">
        <ele>239.382777</ele>
        <time>2021-01-21T15:39:22.959Z</time>
      </trkpt>
      <trkpt lat="45.631938" lon="10.198113">
        <ele>239.338200</ele>
        <time>2021-01-21T15:39:24.004Z</time>
      </trkpt>
      <trkpt lat="45.631924" lon="10.198210">
        <ele>239.293728</ele>
        <time>2021-01-21T15:39:24.920Z</time>
      </trkpt>
      <trkpt lat="45.631929" lon="10.198288">
        <ele>239.258558</ele>
        <time>2021-01-21T15:39:25.644Z</time>
      </trkpt>
      <trkpt lat="45.631949" lon="10.198362">
        <ele>239.222935</ele>
        <time>2021-01-21T15:39:26.414Z</time>
      </trkpt>
      <trkpt lat="45.631982" lon="10.198425">
        <ele>239.187591</ele>
        <time>2021-01-21T15:39:27.250Z</time>
      </trkpt>
      <trkpt lat="45.631984" lon="10.198575">
        <ele>239.120227</ele>
        <time>2021-01-21T15:39:29.009Z</time>
      </trkpt>
      <trkpt lat="45.631964" lon="10.198774">
        <ele>239.041747</ele>
        <time>2021-01-21T15:39:30.866Z</time>
      </trkpt>
      <trkpt lat="45.631917" lon="10.198901">
        <ele>239.012338</ele>
        <time>2021-01-21T15:39:32.313Z</time>
      </trkpt>
      <trkpt lat="45.631633" lon="10.199160">
        <ele>238.913747</ele>
        <time>2021-01-21T15:39:36.796Z</time>
      </trkpt>
      <trkpt lat="45.631465" lon="10.199290">
        <ele>238.857836</ele>
        <time>2021-01-21T15:39:39.512Z</time>
      </trkpt>
      <trkpt lat="45.631427" lon="10.199424">
        <ele>238.828240</ele>
        <time>2021-01-21T15:39:40.904Z</time>
      </trkpt>
      <trkpt lat="45.631420" lon="10.199510">
        <ele>238.810519</ele>
        <time>2021-01-21T15:39:41.773Z</time>
      </trkpt>
      <trkpt lat="45.631426" lon="10.199687">
        <ele>238.774249</ele>
        <time>2021-01-21T15:39:43.686Z</time>
      </trkpt>
      <trkpt lat="45.631289" lon="10.199663">
        <ele>238.733849</ele>
        <time>2021-01-21T15:39:45.795Z</time>
      </trkpt>
      <trkpt lat="45.631115" lon="10.199633">
        <ele>238.682551</ele>
        <time>2021-01-21T15:39:48.495Z</time>
      </trkpt>
      <trkpt lat="45.630999" lon="10.199684">
        <ele>238.647029</ele>
        <time>2021-01-21T15:39:50.194Z</time>
      </trkpt>
      <trkpt lat="45.630833" lon="10.199925">
        <ele>238.577790</ele>
        <time>2021-01-21T15:39:53.567Z</time>
      </trkpt>
      <trkpt lat="45.630778" lon="10.199978">
        <ele>238.558378</ele>
        <time>2021-01-21T15:39:54.344Z</time>
      </trkpt>
      <trkpt lat="45.630050" lon="10.200153">
        <ele>238.062305</ele>
        <time>2021-01-21T15:40:03.363Z</time>
      </trkpt>
      <trkpt lat="45.629860" lon="10.200097">
        <ele>237.918579</ele>
        <time>2021-01-21T15:40:05.676Z</time>
      </trkpt>
      <trkpt lat="45.629595" lon="10.199511">
        <ele>237.557023</ele>
        <time>2021-01-21T15:40:11.498Z</time>
      </trkpt>
      <trkpt lat="45.629362" lon="10.199449">
        <ele>237.381434</ele>
        <time>2021-01-21T15:40:14.493Z</time>
      </trkpt>
      <trkpt lat="45.627999" lon="10.200096">
        <ele>237.478792</ele>
        <time>2021-01-21T15:40:36.907Z</time>
      </trkpt>
      <trkpt lat="45.627791" lon="10.200410">
        <ele>237.552078</ele>
        <time>2021-01-21T15:40:41.766Z</time>
      </trkpt>
      <trkpt lat="45.627652" lon="10.200856">
        <ele>237.647243</ele>
        <time>2021-01-21T15:40:47.478Z</time>
      </trkpt>
      <trkpt lat="45.627605" lon="10.200935">
        <ele>237.698817</ele>
        <time>2021-01-21T15:40:49.189Z</time>
      </trkpt>
      <trkpt lat="45.627526" lon="10.201035">
        <ele>237.773835</ele>
        <time>2021-01-21T15:40:50.911Z</time>
      </trkpt>
      <trkpt lat="45.627147" lon="10.201157">
        <ele>238.050062</ele>
        <time>2021-01-21T15:40:57.771Z</time>
      </trkpt>
      <trkpt lat="45.627026" lon="10.201190">
        <ele>238.137648</ele>
        <time>2021-01-21T15:40:59.787Z</time>
      </trkpt>
      <trkpt lat="45.626722" lon="10.201291">
        <ele>238.359561</ele>
        <time>2021-01-21T15:41:05.789Z</time>
      </trkpt>
      <trkpt lat="45.626341" lon="10.201397">
        <ele>238.635546</ele>
        <time>2021-01-21T15:41:13.135Z</time>
      </trkpt>
      <trkpt lat="45.626068" lon="10.201488">
        <ele>238.834863</ele>
        <time>2021-01-21T15:41:18.439Z</time>
      </trkpt>
      <trkpt lat="45.625853" lon="10.201554">
        <ele>238.864421</ele>
        <time>2021-01-21T15:41:21.852Z</time>
      </trkpt>
      <trkpt lat="45.625687" lon="10.201608">
        <ele>238.802584</ele>
        <time>2021-01-21T15:41:24.405Z</time>
      </trkpt>
      <trkpt lat="45.625400" lon="10.201793">
        <ele>238.688232</ele>
        <time>2021-01-21T15:41:29.021Z</time>
      </trkpt>
      <trkpt lat="45.625059" lon="10.201956">
        <ele>238.557631</ele>
        <time>2021-01-21T15:41:34.059Z</time>
      </trkpt>
      <trkpt lat="45.624730" lon="10.202004">
        <ele>238.437507</ele>
        <time>2021-01-21T15:41:38.546Z</time>
      </trkpt>
      <trkpt lat="45.624365" lon="10.202009">
        <ele>238.304920</ele>
        <time>2021-01-21T15:41:43.183Z</time>
      </trkpt>
      <trkpt lat="45.624261" lon="10.202015">
        <ele>238.267112</ele>
        <time>2021-01-21T15:41:44.399Z</time>
      </trkpt>
      <trkpt lat="45.623143" lon="10.202052">
        <ele>236.703212</ele>
        <time>2021-01-21T15:41:56.990Z</time>
      </trkpt>
      <trkpt lat="45.622734" lon="10.202069">
        <ele>236.116830</ele>
        <time>2021-01-21T15:42:01.633Z</time>
      </trkpt>
      <trkpt lat="45.622577" lon="10.202078">
        <ele>235.891654</ele>
        <time>2021-01-21T15:42:03.501Z</time>
      </trkpt>
      <trkpt lat="45.622230" lon="10.202121">
        <ele>235.601503</ele>
        <time>2021-01-21T15:42:07.734Z</time>
      </trkpt>
      <trkpt lat="45.622114" lon="10.202090">
        <ele>235.556912</ele>
        <time>2021-01-21T15:42:09.171Z</time>
      </trkpt>
      <trkpt lat="45.622037" lon="10.202110">
        <ele>235.527340</ele>
        <time>2021-01-21T15:42:10.177Z</time>
      </trkpt>
      <trkpt lat="45.621600" lon="10.202227">
        <ele>235.359343</ele>
        <time>2021-01-21T15:42:15.939Z</time>
      </trkpt>
      <trkpt lat="45.621027" lon="10.202381">
        <ele>235.139035</ele>
        <time>2021-01-21T15:42:24.201Z</time>
      </trkpt>
      <trkpt lat="45.619814" lon="10.202706">
        <ele>235.301777</ele>
        <time>2021-01-21T15:42:44.538Z</time>
      </trkpt>
      <trkpt lat="45.619717" lon="10.202735">
        <ele>235.337037</ele>
        <time>2021-01-21T15:42:46.157Z</time>
      </trkpt>
      <trkpt lat="45.619026" lon="10.202940">
        <ele>235.588136</ele>
        <time>2021-01-21T15:42:57.788Z</time>
      </trkpt>
      <trkpt lat="45.618851" lon="10.202995">
        <ele>235.602084</ele>
        <time>2021-01-21T15:43:00.653Z</time>
      </trkpt>
      <trkpt lat="45.618743" lon="10.203029">
        <ele>235.512683</ele>
        <time>2021-01-21T15:43:02.542Z</time>
      </trkpt>
      <trkpt lat="45.618441" lon="10.203121">
        <ele>235.263062</ele>
        <time>2021-01-21T15:43:07.361Z</time>
      </trkpt>
      <trkpt lat="45.618401" lon="10.203131">
        <ele>235.230234</ele>
        <time>2021-01-21T15:43:07.967Z</time>
      </trkpt>
      <trkpt lat="45.617268" lon="10.203179">
        <ele>234.313899</ele>
        <time>2021-01-21T15:43:21.939Z</time>
      </trkpt>
      <trkpt lat="45.617002" lon="10.203148">
        <ele>233.985608</ele>
        <time>2021-01-21T15:43:24.794Z</time>
      </trkpt>
      <trkpt lat="45.616926" lon="10.203129">
        <ele>233.840140</ele>
        <time>2021-01-21T15:43:25.615Z</time>
      </trkpt>
      <trkpt lat="45.616866" lon="10.203115">
        <ele>233.725517</ele>
        <time>2021-01-21T15:43:26.383Z</time>
      </trkpt>
      <trkpt lat="45.616624" lon="10.203057">
        <ele>233.262872</ele>
        <time>2021-01-21T15:43:28.887Z</time>
      </trkpt>
      <trkpt lat="45.616597" lon="10.203207">
        <ele>233.058609</ele>
        <time>2021-01-21T15:43:30.161Z</time>
      </trkpt>
      <trkpt lat="45.616278" lon="10.203288">
        <ele>232.447739</ele>
        <time>2021-01-21T15:43:33.547Z</time>
      </trkpt>
      <trkpt lat="45.616098" lon="10.203351">
        <ele>232.098337</ele>
        <time>2021-01-21T15:43:35.770Z</time>
      </trkpt>
      <trkpt lat="45.615934" lon="10.203390">
        <ele>231.784876</ele>
        <time>2021-01-21T15:43:37.526Z</time>
      </trkpt>
      <trkpt lat="45.615772" lon="10.203450">
        <ele>231.469350</ele>
        <time>2021-01-21T15:43:39.645Z</time>
      </trkpt>
      <trkpt lat="45.615622" lon="10.203573">
        <ele>231.143316</ele>
        <time>2021-01-21T15:43:41.478Z</time>
      </trkpt>
      <trkpt lat="45.615560" lon="10.203658">
        <ele>230.981355</ele>
        <time>2021-01-21T15:43:42.598Z</time>
      </trkpt>
      <trkpt lat="45.615491" lon="10.203791">
        <ele>230.770956</ele>
        <time>2021-01-21T15:43:44.103Z</time>
      </trkpt>
      <trkpt lat="45.615288" lon="10.204226">
        <ele>230.275149</ele>
        <time>2021-01-21T15:43:48.558Z</time>
      </trkpt>
      <trkpt lat="45.615156" lon="10.204456">
        <ele>229.993067</ele>
        <time>2021-01-21T15:43:50.647Z</time>
      </trkpt>
      <trkpt lat="45.614993" lon="10.204740">
        <ele>229.644748</ele>
        <time>2021-01-21T15:43:53.467Z</time>
      </trkpt>
      <trkpt lat="45.614608" lon="10.205258">
        <ele>228.928112</ele>
        <time>2021-01-21T15:43:59.555Z</time>
      </trkpt>
      <trkpt lat="45.614349" lon="10.205465">
        <ele>228.525898</ele>
        <time>2021-01-21T15:44:03.488Z</time>
      </trkpt>
      <trkpt lat="45.614255" lon="10.205538">
        <ele>228.380894</ele>
        <time>2021-01-21T15:44:05.654Z</time>
      </trkpt>
      <trkpt lat="45.614193" lon="10.205512">
        <ele>228.275605</ele>
        <time>2021-01-21T15:44:06.329Z</time>
      </trkpt>
      <trkpt lat="45.614150" lon="10.205481">
        <ele>228.191058</ele>
        <time>2021-01-21T15:44:07.481Z</time>
      </trkpt>
      <trkpt lat="45.614064" lon="10.205349">
        <ele>227.969536</ele>
        <time>2021-01-21T15:44:08.953Z</time>
      </trkpt>
      <trkpt lat="45.613940" lon="10.205573">
        <ele>227.618737</ele>
        <time>2021-01-21T15:44:11.826Z</time>
      </trkpt>
      <trkpt lat="45.613805" lon="10.205791">
        <ele>227.261187</ele>
        <time>2021-01-21T15:44:14.557Z</time>
      </trkpt>
      <trkpt lat="45.613466" lon="10.206221">
        <ele>226.465543</ele>
        <time>2021-01-21T15:44:19.941Z</time>
      </trkpt>
      <trkpt lat="45.613085" lon="10.206687">
        <ele>225.585257</ele>
        <time>2021-01-21T15:44:24.992Z</time>
      </trkpt>
      <trkpt lat="45.612916" lon="10.206870">
        <ele>225.213054</ele>
        <time>2021-01-21T15:44:27.089Z</time>
      </trkpt>
      <trkpt lat="45.612472" lon="10.207348">
        <ele>223.115458</ele>
        <time>2021-01-21T15:44:32.888Z</time>
      </trkpt>
      <trkpt lat="45.612252" lon="10.207509">
        <ele>222.173646</ele>
        <time>2021-01-21T15:44:35.298Z</time>
      </trkpt>
      <trkpt lat="45.612081" lon="10.207644">
        <ele>221.429258</ele>
        <time>2021-01-21T15:44:37.249Z</time>
      </trkpt>
      <trkpt lat="45.611720" lon="10.207809">
        <ele>219.985002</ele>
        <time>2021-01-21T15:44:40.913Z</time>
      </trkpt>
      <trkpt lat="45.611239" lon="10.207893">
        <ele>218.172945</ele>
        <time>2021-01-21T15:44:45.641Z</time>
      </trkpt>
      <trkpt lat="45.611225" lon="10.207895">
        <ele>218.128439</ele>
        <time>2021-01-21T15:44:45.760Z</time>
      </trkpt>
      <trkpt lat="45.610971" lon="10.207944">
        <ele>217.317692</ele>
        <time>2021-01-21T15:44:48.254Z</time>
      </trkpt>
      <trkpt lat="45.610830" lon="10.207971">
        <ele>216.867690</ele>
        <time>2021-01-21T15:44:49.560Z</time>
      </trkpt>
      <trkpt lat="45.610551" lon="10.208035">
        <ele>215.973854</ele>
        <time>2021-01-21T15:44:52.431Z</time>
      </trkpt>
      <trkpt lat="45.610392" lon="10.208071">
        <ele>215.464629</ele>
        <time>2021-01-21T15:44:53.976Z</time>
      </trkpt>
      <trkpt lat="45.610108" lon="10.208022">
        <ele>214.559747</ele>
        <time>2021-01-21T15:44:56.903Z</time>
      </trkpt>
      <trkpt lat="45.610006" lon="10.207948">
        <ele>214.197922</ele>
        <time>2021-01-21T15:44:58.186Z</time>
      </trkpt>
      <trkpt lat="45.609978" lon="10.207884">
        <ele>214.030886</ele>
        <time>2021-01-21T15:44:58.816Z</time>
      </trkpt>
      <trkpt lat="45.609889" lon="10.207802">
        <ele>213.695949</ele>
        <time>2021-01-21T15:45:00.096Z</time>
      </trkpt>
      <trkpt lat="45.609836" lon="10.207792">
        <ele>213.526843</ele>
        <time>2021-01-21T15:45:00.562Z</time>
      </trkpt>
      <trkpt lat="45.609781" lon="10.207806">
        <ele>213.350127</ele>
        <time>2021-01-21T15:45:01.226Z</time>
      </trkpt>
      <trkpt lat="45.609691" lon="10.207899">
        <ele>212.998844</ele>
        <time>2021-01-21T15:45:02.563Z</time>
      </trkpt>
      <trkpt lat="45.609664" lon="10.207970">
        <ele>212.820019</ele>
        <time>2021-01-21T15:45:03.266Z</time>
      </trkpt>
      <trkpt lat="45.609654" lon="10.208055">
        <ele>212.645879</ele>
        <time>2021-01-21T15:45:04.051Z</time>
      </trkpt>
      <trkpt lat="45.609664" lon="10.208140">
        <ele>212.594599</ele>
        <time>2021-01-21T15:45:04.782Z</time>
      </trkpt>
      <trkpt lat="45.609621" lon="10.208349">
        <ele>212.464990</ele>
        <time>2021-01-21T15:45:06.635Z</time>
      </trkpt>
      <trkpt lat="45.609536" lon="10.208506">
        <ele>212.346878</ele>
        <time>2021-01-21T15:45:08.493Z</time>
      </trkpt>
      <trkpt lat="45.609428" lon="10.208588">
        <ele>212.242876</ele>
        <time>2021-01-21T15:45:10.020Z</time>
      </trkpt>
      <trkpt lat="45.609351" lon="10.208599">
        <ele>212.177063</ele>
        <time>2021-01-21T15:45:10.963Z</time>
      </trkpt>
      <trkpt lat="45.609194" lon="10.208679">
        <ele>212.035310</ele>
        <time>2021-01-21T15:45:13.194Z</time>
      </trkpt>
      <trkpt lat="45.609141" lon="10.208688">
        <ele>211.989919</ele>
        <time>2021-01-21T15:45:13.869Z</time>
      </trkpt>
      <trkpt lat="45.609083" lon="10.208711">
        <ele>211.938729</ele>
        <time>2021-01-21T15:45:14.634Z</time>
      </trkpt>
      <trkpt lat="45.609000" lon="10.208759">
        <ele>211.862582</ele>
        <time>2021-01-21T15:45:15.763Z</time>
      </trkpt>
      <trkpt lat="45.608858" lon="10.208715">
        <ele>211.739011</ele>
        <time>2021-01-21T15:45:17.701Z</time>
      </trkpt>
      <trkpt lat="45.608842" lon="10.208784">
        <ele>211.695763</ele>
        <time>2021-01-21T15:45:18.350Z</time>
      </trkpt>
      <trkpt lat="45.608821" lon="10.208882">
        <ele>211.634784</ele>
        <time>2021-01-21T15:45:19.272Z</time>
      </trkpt>
      <trkpt lat="45.608747" lon="10.208922">
        <ele>211.567500</ele>
        <time>2021-01-21T15:45:20.335Z</time>
      </trkpt>
      <trkpt lat="45.608417" lon="10.209241">
        <ele>211.228697</ele>
        <time>2021-01-21T15:45:25.469Z</time>
      </trkpt>
      <trkpt lat="45.608367" lon="10.209326">
        <ele>211.162624</ele>
        <time>2021-01-21T15:45:26.485Z</time>
      </trkpt>
      <trkpt lat="45.607918" lon="10.209765">
        <ele>210.778427</ele>
        <time>2021-01-21T15:45:33.212Z</time>
      </trkpt>
      <trkpt lat="45.607833" lon="10.209769">
        <ele>210.719533</ele>
        <time>2021-01-21T15:45:34.340Z</time>
      </trkpt>
      <trkpt lat="45.607497" lon="10.210147">
        <ele>210.423437</ele>
        <time>2021-01-21T15:45:39.865Z</time>
      </trkpt>
      <trkpt lat="45.607492" lon="10.210303">
        <ele>210.347783</ele>
        <time>2021-01-21T15:45:41.196Z</time>
      </trkpt>
      <trkpt lat="45.607239" lon="10.210605">
        <ele>210.119528</ele>
        <time>2021-01-21T15:45:45.431Z</time>
      </trkpt>
      <trkpt lat="45.607171" lon="10.210686">
        <ele>210.058232</ele>
        <time>2021-01-21T15:45:46.518Z</time>
      </trkpt>
      <trkpt lat="45.606713" lon="10.211456">
        <ele>209.656768</ele>
        <time>2021-01-21T15:45:55.844Z</time>
      </trkpt>
      <trkpt lat="45.606350" lon="10.212065">
        <ele>209.380076</ele>
        <time>2021-01-21T15:46:03.328Z</time>
      </trkpt>
      <trkpt lat="45.606080" lon="10.212518">
        <ele>209.174265</ele>
        <time>2021-01-21T15:46:09.001Z</time>
      </trkpt>
      <trkpt lat="45.605813" lon="10.212881">
        <ele>208.992108</ele>
        <time>2021-01-21T15:46:14.022Z</time>
      </trkpt>
      <trkpt lat="45.605705" lon="10.213005">
        <ele>208.863483</ele>
        <time>2021-01-21T15:46:15.930Z</time>
      </trkpt>
      <trkpt lat="45.605675" lon="10.213041">
        <ele>208.825911</ele>
        <time>2021-01-21T15:46:16.445Z</time>
      </trkpt>
      <trkpt lat="45.605661" lon="10.213059">
        <ele>208.807849</ele>
        <time>2021-01-21T15:46:16.699Z</time>
      </trkpt>
      <trkpt lat="45.605447" lon="10.213212">
        <ele>208.578337</ele>
        <time>2021-01-21T15:46:19.860Z</time>
      </trkpt>
      <trkpt lat="45.605392" lon="10.213251">
        <ele>208.519446</ele>
        <time>2021-01-21T15:46:20.676Z</time>
      </trkpt>
      <trkpt lat="45.604770" lon="10.213839">
        <ele>207.804152</ele>
        <time>2021-01-21T15:46:29.866Z</time>
      </trkpt>
      <trkpt lat="45.603633" lon="10.214782">
        <ele>206.239021</ele>
        <time>2021-01-21T15:46:45.086Z</time>
      </trkpt>
      <trkpt lat="45.603621" lon="10.214792">
        <ele>206.220060</ele>
        <time>2021-01-21T15:46:45.205Z</time>
      </trkpt>
      <trkpt lat="45.602421" lon="10.216052">
        <ele>204.347429</ele>
        <time>2021-01-21T15:47:02.764Z</time>
      </trkpt>
      <trkpt lat="45.602233" lon="10.216176">
        <ele>204.137717</ele>
        <time>2021-01-21T15:47:05.533Z</time>
      </trkpt>
      <trkpt lat="45.602188" lon="10.216191">
        <ele>204.090916</ele>
        <time>2021-01-21T15:47:06.041Z</time>
      </trkpt>
      <trkpt lat="45.602170" lon="10.216145">
        <ele>204.053567</ele>
        <time>2021-01-21T15:47:06.503Z</time>
      </trkpt>
      <trkpt lat="45.602067" lon="10.216118">
        <ele>203.947504</ele>
        <time>2021-01-21T15:47:07.885Z</time>
      </trkpt>
      <trkpt lat="45.602039" lon="10.216153">
        <ele>203.909829</ele>
        <time>2021-01-21T15:47:08.346Z</time>
      </trkpt>
      <trkpt lat="45.602027" lon="10.216184">
        <ele>203.884723</ele>
        <time>2021-01-21T15:47:08.720Z</time>
      </trkpt>
      <trkpt lat="45.602034" lon="10.216288">
        <ele>203.810685</ele>
        <time>2021-01-21T15:47:09.653Z</time>
      </trkpt>
      <trkpt lat="45.602050" lon="10.216315">
        <ele>203.785612</ele>
        <time>2021-01-21T15:47:10.026Z</time>
      </trkpt>
      <trkpt lat="45.602021" lon="10.216409">
        <ele>203.712812</ele>
        <time>2021-01-21T15:47:10.846Z</time>
      </trkpt>
      <trkpt lat="45.602005" lon="10.216445">
        <ele>203.682589</ele>
        <time>2021-01-21T15:47:11.208Z</time>
      </trkpt>
      <trkpt lat="45.601978" lon="10.216491">
        <ele>203.640040</ele>
        <time>2021-01-21T15:47:11.775Z</time>
      </trkpt>
      <trkpt lat="45.601919" lon="10.216572">
        <ele>203.557181</ele>
        <time>2021-01-21T15:47:12.802Z</time>
      </trkpt>
      <trkpt lat="45.601689" lon="10.216820">
        <ele>203.265371</ele>
        <time>2021-01-21T15:47:16.354Z</time>
      </trkpt>
      <trkpt lat="45.601193" lon="10.217359">
        <ele>202.626101</ele>
        <time>2021-01-21T15:47:23.831Z</time>
      </trkpt>
      <trkpt lat="45.600684" lon="10.217961">
        <ele>201.941343</ele>
        <time>2021-01-21T15:47:32.067Z</time>
      </trkpt>
      <trkpt lat="45.600180" lon="10.218463">
        <ele>201.304634</ele>
        <time>2021-01-21T15:47:39.548Z</time>
      </trkpt>
      <trkpt lat="45.599333" lon="10.219404">
        <ele>200.052869</ele>
        <time>2021-01-21T15:47:52.209Z</time>
      </trkpt>
      <trkpt lat="45.599020" lon="10.219793">
        <ele>199.558201</ele>
        <time>2021-01-21T15:47:57.089Z</time>
      </trkpt>
      <trkpt lat="45.598963" lon="10.219862">
        <ele>199.469118</ele>
        <time>2021-01-21T15:47:57.988Z</time>
      </trkpt>
      <trkpt lat="45.598805" lon="10.220051">
        <ele>199.223401</ele>
        <time>2021-01-21T15:48:00.488Z</time>
      </trkpt>
      <trkpt lat="45.598533" lon="10.220381">
        <ele>198.868960</ele>
        <time>2021-01-21T15:48:04.838Z</time>
      </trkpt>
      <trkpt lat="45.598126" lon="10.220940">
        <ele>198.464115</ele>
        <time>2021-01-21T15:48:11.975Z</time>
      </trkpt>
      <trkpt lat="45.597865" lon="10.221298">
        <ele>198.204661</ele>
        <time>2021-01-21T15:48:16.647Z</time>
      </trkpt>
      <trkpt lat="45.597602" lon="10.221695">
        <ele>197.930305</ele>
        <time>2021-01-21T15:48:21.506Z</time>
      </trkpt>
      <trkpt lat="45.597461" lon="10.221909">
        <ele>197.782794</ele>
        <time>2021-01-21T15:48:24.203Z</time>
      </trkpt>
      <trkpt lat="45.597166" lon="10.222353">
        <ele>197.557806</ele>
        <time>2021-01-21T15:48:29.945Z</time>
      </trkpt>
      <trkpt lat="45.597070" lon="10.222485">
        <ele>197.499584</ele>
        <time>2021-01-21T15:48:31.880Z</time>
      </trkpt>
      <trkpt lat="45.597001" lon="10.222568">
        <ele>197.460167</ele>
        <time>2021-01-21T15:48:33.137Z</time>
      </trkpt>
      <trkpt lat="45.596926" lon="10.222656">
        <ele>197.417756</ele>
        <time>2021-01-21T15:48:34.484Z</time>
      </trkpt>
      <trkpt lat="45.595854" lon="10.223677">
        <ele>196.816927</ele>
        <time>2021-01-21T15:48:52.199Z</time>
      </trkpt>
      <trkpt lat="45.595207" lon="10.224228">
        <ele>196.213218</ele>
        <time>2021-01-21T15:49:01.364Z</time>
      </trkpt>
      <trkpt lat="45.594013" lon="10.224606">
        <ele>195.323348</ele>
        <time>2021-01-21T15:49:16.682Z</time>
      </trkpt>
      <trkpt lat="45.593512" lon="10.224876">
        <ele>195.066309</ele>
        <time>2021-01-21T15:49:23.741Z</time>
      </trkpt>
      <trkpt lat="45.593426" lon="10.224918">
        <ele>195.022680</ele>
        <time>2021-01-21T15:49:25.038Z</time>
      </trkpt>
      <trkpt lat="45.593332" lon="10.225049">
        <ele>194.959651</ele>
        <time>2021-01-21T15:49:26.757Z</time>
      </trkpt>
      <trkpt lat="45.593268" lon="10.225107">
        <ele>194.923271</ele>
        <time>2021-01-21T15:49:27.856Z</time>
      </trkpt>
      <trkpt lat="45.593220" lon="10.225106">
        <ele>194.900226</ele>
        <time>2021-01-21T15:49:28.463Z</time>
      </trkpt>
      <trkpt lat="45.593051" lon="10.225218">
        <ele>194.810798</ele>
        <time>2021-01-21T15:49:30.957Z</time>
      </trkpt>
      <trkpt lat="45.593021" lon="10.225271">
        <ele>194.787899</ele>
        <time>2021-01-21T15:49:31.585Z</time>
      </trkpt>
      <trkpt lat="45.592924" lon="10.225342">
        <ele>194.735581</ele>
        <time>2021-01-21T15:49:33.091Z</time>
      </trkpt>
      <trkpt lat="45.592689" lon="10.225422">
        <ele>194.619612</ele>
        <time>2021-01-21T15:49:36.311Z</time>
      </trkpt>
      <trkpt lat="45.592578" lon="10.225428">
        <ele>194.558128</ele>
        <time>2021-01-21T15:49:37.887Z</time>
      </trkpt>
      <trkpt lat="45.592533" lon="10.225430">
        <ele>194.530348</ele>
        <time>2021-01-21T15:49:38.460Z</time>
      </trkpt>
      <trkpt lat="45.591822" lon="10.225410">
        <ele>194.091542</ele>
        <time>2021-01-21T15:49:48.721Z</time>
      </trkpt>
      <trkpt lat="45.591443" lon="10.225389">
        <ele>193.857505</ele>
        <time>2021-01-21T15:49:53.721Z</time>
      </trkpt>
      <trkpt lat="45.591332" lon="10.225382">
        <ele>193.788946</ele>
        <time>2021-01-21T15:49:55.101Z</time>
      </trkpt>
      <trkpt lat="45.590996" lon="10.225218">
        <ele>193.569858</ele>
        <time>2021-01-21T15:49:59.395Z</time>
      </trkpt>
      <trkpt lat="45.590926" lon="10.225192">
        <ele>193.525229</ele>
        <time>2021-01-21T15:50:00.284Z</time>
      </trkpt>
      <trkpt lat="45.590809" lon="10.225164">
        <ele>193.400861</ele>
        <time>2021-01-21T15:50:01.700Z</time>
      </trkpt>
      <trkpt lat="45.590186" lon="10.225099">
        <ele>192.417830</ele>
        <time>2021-01-21T15:50:08.905Z</time>
      </trkpt>
      <trkpt lat="45.589745" lon="10.225058">
        <ele>191.722357</ele>
        <time>2021-01-21T15:50:13.952Z</time>
      </trkpt>
      <trkpt lat="45.589591" lon="10.225040">
        <ele>191.479196</ele>
        <time>2021-01-21T15:50:15.641Z</time>
      </trkpt>
      <trkpt lat="45.589368" lon="10.224994">
        <ele>191.124621</ele>
        <time>2021-01-21T15:50:18.147Z</time>
      </trkpt>
      <trkpt lat="45.588794" lon="10.224925">
        <ele>190.276043</ele>
        <time>2021-01-21T15:50:24.509Z</time>
      </trkpt>
      <trkpt lat="45.588286" lon="10.224818">
        <ele>189.575221</ele>
        <time>2021-01-21T15:50:30.349Z</time>
      </trkpt>
      <trkpt lat="45.588075" lon="10.224777">
        <ele>189.284594</ele>
        <time>2021-01-21T15:50:32.821Z</time>
      </trkpt>
      <trkpt lat="45.588008" lon="10.224760">
        <ele>189.191720</ele>
        <time>2021-01-21T15:50:33.667Z</time>
      </trkpt>
      <trkpt lat="45.587928" lon="10.224746">
        <ele>189.081718</ele>
        <time>2021-01-21T15:50:34.657Z</time>
      </trkpt>
      <trkpt lat="45.587830" lon="10.224728">
        <ele>188.946865</ele>
        <time>2021-01-21T15:50:35.837Z</time>
      </trkpt>
      <trkpt lat="45.587488" lon="10.224720">
        <ele>188.480033</ele>
        <time>2021-01-21T15:50:40.039Z</time>
      </trkpt>
      <trkpt lat="45.587353" lon="10.224729">
        <ele>188.295582</ele>
        <time>2021-01-21T15:50:41.708Z</time>
      </trkpt>
      <trkpt lat="45.586711" lon="10.224846">
        <ele>187.600010</ele>
        <time>2021-01-21T15:50:49.827Z</time>
      </trkpt>
      <trkpt lat="45.585864" lon="10.225031">
        <ele>186.709412</ele>
        <time>2021-01-21T15:51:00.430Z</time>
      </trkpt>
      <trkpt lat="45.585255" lon="10.225743">
        <ele>185.650112</ele>
        <time>2021-01-21T15:51:09.564Z</time>
      </trkpt>
      <trkpt lat="45.584650" lon="10.225968">
        <ele>184.642670</ele>
        <time>2021-01-21T15:51:16.547Z</time>
      </trkpt>
      <trkpt lat="45.584107" lon="10.226385">
        <ele>183.649247</ele>
        <time>2021-01-21T15:51:23.511Z</time>
      </trkpt>
      <trkpt lat="45.583887" lon="10.226555">
        <ele>183.299837</ele>
        <time>2021-01-21T15:51:26.374Z</time>
      </trkpt>
      <trkpt lat="45.583481" lon="10.227014">
        <ele>182.706890</ele>
        <time>2021-01-21T15:51:32.283Z</time>
      </trkpt>
      <trkpt lat="45.582998" lon="10.227584">
        <ele>181.989416</ele>
        <time>2021-01-21T15:51:39.801Z</time>
      </trkpt>
      <trkpt lat="45.582833" lon="10.227707">
        <ele>181.776266</ele>
        <time>2021-01-21T15:51:42.078Z</time>
      </trkpt>
      <trkpt lat="45.582184" lon="10.228396">
        <ele>181.104998</ele>
        <time>2021-01-21T15:51:52.764Z</time>
      </trkpt>
      <trkpt lat="45.582029" lon="10.228543">
        <ele>180.996039</ele>
        <time>2021-01-21T15:51:55.144Z</time>
      </trkpt>
      <trkpt lat="45.581739" lon="10.228804">
        <ele>180.795304</ele>
        <time>2021-01-21T15:51:59.622Z</time>
      </trkpt>
      <trkpt lat="45.581547" lon="10.228934">
        <ele>180.670866</ele>
        <time>2021-01-21T15:52:02.343Z</time>
      </trkpt>
      <trkpt lat="45.581173" lon="10.229049">
        <ele>180.446805</ele>
        <time>2021-01-21T15:52:07.306Z</time>
      </trkpt>
      <trkpt lat="45.581056" lon="10.229041">
        <ele>180.378202</ele>
        <time>2021-01-21T15:52:08.851Z</time>
      </trkpt>
      <trkpt lat="45.581019" lon="10.228974">
        <ele>180.343218</ele>
        <time>2021-01-21T15:52:09.626Z</time>
      </trkpt>
      <trkpt lat="45.580974" lon="10.228934">
        <ele>180.318187</ele>
        <time>2021-01-21T15:52:10.354Z</time>
      </trkpt>
      <trkpt lat="45.580937" lon="10.228918">
        <ele>180.318187</ele>
        <time>2021-01-21T15:52:10.910Z</time>
      </trkpt>
      <trkpt lat="45.580879" lon="10.228919">
        <ele>180.318187</ele>
        <time>2021-01-21T15:52:11.741Z</time>
      </trkpt>
      <trkpt lat="45.580821" lon="10.228951">
        <ele>180.318187</ele>
        <time>2021-01-21T15:52:12.504Z</time>
      </trkpt>
      <trkpt lat="45.580773" lon="10.229016">
        <ele>180.318187</ele>
        <time>2021-01-21T15:52:13.378Z</time>
      </trkpt>
      <trkpt lat="45.580748" lon="10.229091">
        <ele>180.318187</ele>
        <time>2021-01-21T15:52:14.164Z</time>
      </trkpt>
      <trkpt lat="45.580680" lon="10.229177">
        <ele>180.318187</ele>
        <time>2021-01-21T15:52:15.413Z</time>
      </trkpt>
      <trkpt lat="45.580331" lon="10.229425">
        <ele>180.318187</ele>
        <time>2021-01-21T15:52:20.812Z</time>
      </trkpt>
      <trkpt lat="45.580229" lon="10.229433">
        <ele>180.318187</ele>
        <time>2021-01-21T15:52:22.147Z</time>
      </trkpt>
      <trkpt lat="45.580196" lon="10.229409">
        <ele>180.318187</ele>
        <time>2021-01-21T15:52:22.680Z</time>
      </trkpt>
      <trkpt lat="45.580180" lon="10.229367">
        <ele>180.318187</ele>
        <time>2021-01-21T15:52:23.079Z</time>
      </trkpt>
      <trkpt lat="45.580176" lon="10.229285">
        <ele>180.318187</ele>
        <time>2021-01-21T15:52:23.897Z</time>
      </trkpt>
      <trkpt lat="45.580190" lon="10.229191">
        <ele>180.318187</ele>
        <time>2021-01-21T15:52:24.736Z</time>
      </trkpt>
      <trkpt lat="45.580220" lon="10.229109">
        <ele>180.318187</ele>
        <time>2021-01-21T15:52:25.612Z</time>
      </trkpt>
      <trkpt lat="45.580308" lon="10.229043">
        <ele>180.318187</ele>
        <time>2021-01-21T15:52:26.886Z</time>
      </trkpt>
      <trkpt lat="45.580465" lon="10.228986">
        <ele>180.318187</ele>
        <time>2021-01-21T15:52:29.002Z</time>
      </trkpt>
      <trkpt lat="45.580567" lon="10.228962">
        <ele>180.318187</ele>
        <time>2021-01-21T15:52:30.366Z</time>
      </trkpt>
      <trkpt lat="45.580657" lon="10.228938">
        <ele>180.318187</ele>
        <time>2021-01-21T15:52:31.525Z</time>
      </trkpt>
      <trkpt lat="45.580697" lon="10.228873">
        <ele>180.318187</ele>
        <time>2021-01-21T15:52:32.280Z</time>
      </trkpt>
      <trkpt lat="45.580740" lon="10.228391">
        <ele>180.318187</ele>
        <time>2021-01-21T15:52:36.992Z</time>
      </trkpt>
      <trkpt lat="45.580741" lon="10.228370">
        <ele>180.318187</ele>
        <time>2021-01-21T15:52:37.144Z</time>
      </trkpt>
      <trkpt lat="45.580719" lon="10.228311">
        <ele>180.318187</ele>
        <time>2021-01-21T15:52:37.797Z</time>
      </trkpt>
      <trkpt lat="45.580638" lon="10.228259">
        <ele>180.318187</ele>
        <time>2021-01-21T15:52:39.054Z</time>
      </trkpt>
      <trkpt lat="45.580561" lon="10.228320">
        <ele>180.318187</ele>
        <time>2021-01-21T15:52:40.388Z</time>
      </trkpt>
      <trkpt lat="45.580548" lon="10.228360">
        <ele>180.318187</ele>
        <time>2021-01-21T15:52:40.783Z</time>
      </trkpt>
      <trkpt lat="45.580422" lon="10.228331">
        <ele>180.318187</ele>
        <time>2021-01-21T15:52:42.434Z</time>
      </trkpt>
    </trkseg>
  </trk>
</gpx>